AA4908 / N436YX 7700 Squawk Report (1st of September, 2021)

Aircraft E75L Reg No. N436YX Age N/A
Model Emb-175 Jet engines 2 First flight N/A
Registered 16-09-14 Rollout 08-14 Delivered 23-09-14
Construction No. 17000424 Line No. N/A Series 200LR
ADSHEX A53BA4 Airline name Envoy Air Owner Republic Airways
Airfield based Indianapolis-International~IN~N First tracked N/A

Flight history for N436YX

Route Flight No Date Playback
Philadelphia Intl (PHL) - George Bush Intercontinental (IAH) AA4719 2021-10-22 02:42:00
Indianapolis Intl (IND) - Philadelphia Intl (PHL) AA4570 2021-10-21 22:03:00
Philadelphia Intl (PHL) - Indianapolis Intl (IND) AA4808 2021-10-21 20:34:00
George Bush Intercontinental (IAH) - Philadelphia Intl (PHL) AA4995 2021-10-21 16:38:00
Philadelphia Intl (PHL) - George Bush Intercontinental (IAH) AA4719 2021-10-21 02:54:00
Philadelphia Intl (PHL) - Kansas City Intl (MCI) - Philadelphia Intl (PHL) AA4602 2021-10-20 21:44:00
Louisville International Airport (SDF) - Philadelphia Intl (PHL) AA4750 2021-10-20 13:30:00
Charlotte Douglas (CLT) - Louisville International Airport (SDF) AA4644 2021-10-19 23:06:00
Ronald Reagan Washington Natl (DCA) - Charlotte Douglas (CLT) AA4629 2021-10-19 21:00:00
Ronald Reagan Washington Natl (DCA) - Indianapolis Intl (IND) - Ronald Reagan Washington Natl (DCA) AA4847 2021-10-19 18:03:00
Des Moines Intl (DSM) - Ronald Reagan Washington Natl (DCA) AA4534 2021-10-19 13:17:00
Ronald Reagan Washington Natl (DCA) - Des Moines Intl (DSM) AA4518 2021-10-19 11:01:00
Ronald Reagan Washington Natl (DCA) - Raleigh Durham Intl (RDU) - Ronald Reagan Washington Natl (DCA) AA4999 2021-10-19 01:14:00
Hartsfield Jackson Atlanta Intl (ATL) - Ronald Reagan Washington Natl (DCA) AA4838 2021-10-18 20:58:00
Chicago Ohare Intl (ORD) - Hartsfield Jackson Atlanta Intl (ATL) AA4726 2021-10-18 18:23:00
Hartsfield Jackson Atlanta Intl (ATL) - Chicago Ohare Intl (ORD) AA4712 2021-10-18 16:47:00
Charlotte Douglas (CLT) - Hartsfield Jackson Atlanta Intl (ATL) AA4605 2021-10-18 12:45:00
Washington Dulles International (IAD) - Charlotte Douglas (CLT) AA4836 2021-10-18 10:18:00
Charlotte Douglas (CLT) - Washington Dulles International (IAD) AA4953 2021-10-18 03:47:00
Nashville Intl (BNA) - Charlotte Douglas (CLT) AA5011 2021-10-18 01:47:00
Time Lat Lon Altitude Heading Speed Vertical Rate
2021-09-01 23:02:46 GMT 30.518326 -81.627930 875 250 119 -704
2021-09-01 23:02:38 GMT 30.519926 -81.623032 975 249 118 -704
2021-09-01 23:02:14 GMT 30.525558 -81.608475 1,125 240 119 -256
2021-09-01 23:02:01 GMT 30.529097 -81.602051 1,225 236 118 -576
2021-09-01 23:01:58 GMT 30.530121 -81.600349 1,275 235 118 -768
2021-09-01 23:01:45 GMT 30.534622 -81.594116 1,375 223 124 -704
2021-09-01 23:01:35 GMT 30.539749 -81.589966 1,525 205 145 -1152
2021-09-01 23:01:28 GMT 30.544281 -81.587326 1,650 202 149 -1408
2021-09-01 23:01:16 GMT 30.551256 -81.584366 1,875 200 156 -1088
2021-09-01 23:01:07 GMT 30.558285 -81.581451 2,050 201 167 -832
2021-09-01 23:00:55 GMT 30.566757 -81.577774 2,200 201 179 -704
2021-09-01 23:00:45 GMT 30.575371 -81.574036 2,375 201 193 -1088
2021-09-01 23:00:34 GMT 30.584564 -81.570145 2,525 201 206 -704
2021-09-01 23:00:22 GMT 30.595482 -81.565521 2,750 201 246 -1024
2021-09-01 23:00:13 GMT 30.605257 -81.561401 2,925 201 252 -1344
2021-09-01 23:00:03 GMT 30.616196 -81.556740 3,125 201 261 -384
2021-09-01 22:59:49 GMT 30.634460 -81.548981 3,125 201 277 64
2021-09-01 22:59:42 GMT 30.641289 -81.546074 3,125 201 290 -128
2021-09-01 22:59:33 GMT 30.654602 -81.540306 3,125 201 295 128
2021-09-01 22:59:20 GMT 30.669250 -81.534012 3,125 201 296 64
2021-09-01 22:59:11 GMT 30.681883 -81.528610 3,125 201 296 -64
2021-09-01 22:58:58 GMT 30.698593 -81.521461 3,125 201 294 0
2021-09-01 22:58:51 GMT 30.708801 -81.517044 3,125 201 293 -64
2021-09-01 22:58:42 GMT 30.718658 -81.512787 3,125 201 290 0
2021-09-01 22:58:33 GMT 30.730911 -81.507462 3,150 201 279 -64
2021-09-01 22:58:18 GMT 30.747334 -81.500320 3,125 201 258 0
2021-09-01 22:58:12 GMT 30.754969 -81.497025 3,125 201 258 0
2021-09-01 22:58:09 GMT 30.757202 -81.496033 3,125 201 257 0
2021-09-01 22:57:59 GMT 30.768997 -81.490982 3,125 201 257 -64
2021-09-01 22:57:48 GMT 30.782248 -81.485321 3,125 201 258 64
2021-09-01 22:57:34 GMT 30.796280 -81.479240 3,125 201 257 -64
2021-09-01 22:57:26 GMT 30.806168 -81.474983 3,125 201 256 0
2021-09-01 22:57:12 GMT 30.821228 -81.468468 3,125 201 254 64
2021-09-01 22:57:03 GMT 30.832106 -81.463791 3,125 201 255 -64
2021-09-01 22:56:54 GMT 30.841043 -81.459946 3,150 201 260 -1152
2021-09-01 22:56:42 GMT 30.855988 -81.453461 3,375 201 262 -1472
2021-09-01 22:56:31 GMT 30.867188 -81.448654 3,650 201 263 -1664
2021-09-01 22:56:25 GMT 30.874283 -81.445549 3,800 201 264 -1408
2021-09-01 22:56:15 GMT 30.886759 -81.440224 4,075 201 266 -1600
2021-09-01 22:55:59 GMT 30.903423 -81.433083 4,400 201 268 -1856
2021-09-01 22:55:52 GMT 30.913340 -81.428848 4,750 201 268 -1728
2021-09-01 22:55:42 GMT 30.923309 -81.424416 4,975 201 269 -1664
2021-09-01 22:55:31 GMT 30.936243 -81.419235 5,275 198 272 -1536
2021-09-01 22:55:21 GMT 30.950134 -81.414780 5,575 194 274 -1600
2021-09-01 22:55:09 GMT 30.964371 -81.411491 5,850 191 277 -1472
2021-09-01 22:55:01 GMT 30.975037 -81.409233 6,075 191 280 -1728
2021-09-01 22:54:51 GMT 30.987305 -81.406700 6,350 190 280 -1792
2021-09-01 22:54:40 GMT 31.000484 -81.404129 6,650 191 280 -1792
2021-09-01 22:54:18 GMT 31.028320 -81.395660 7,250 201 281 -1536
2021-09-01 22:54:07 GMT 31.043779 -81.388809 7,575 201 283 -1600
2021-09-01 22:53:58 GMT 31.053694 -81.384415 7,775 201 284 -1664
2021-09-01 22:53:49 GMT 31.065519 -81.379082 8,050 202 286 -1664
2021-09-01 22:53:37 GMT 31.079086 -81.372826 8,350 202 288 -1728
2021-09-01 22:53:28 GMT 31.091402 -81.367111 8,650 202 289 -1920
2021-09-01 22:53:17 GMT 31.104630 -81.361084 8,975 202 288 -1984
2021-09-01 22:53:07 GMT 31.117704 -81.355133 9,450 202 283 -3072
2021-09-01 22:52:55 GMT 31.130585 -81.349022 9,950 203 281 -2496
2021-09-01 22:52:45 GMT 31.143265 -81.342773 10,175 204 296 -320
2021-09-01 22:52:36 GMT 31.156815 -81.335991 10,225 204 321 -1024
2021-09-01 22:52:24 GMT 31.172171 -81.328110 10,550 205 337 -2112
2021-09-01 22:52:15 GMT 31.186602 -81.320526 11,050 205 349 -3776
2021-09-01 22:52:04 GMT 31.201637 -81.312508 11,550 205 357 -2816
2021-09-01 22:51:54 GMT 31.217697 -81.303841 12,050 205 361 -2880
2021-09-01 22:51:41 GMT 31.236008 -81.294037 12,600 205 365 -2688
2021-09-01 22:51:33 GMT 31.249214 -81.286964 12,975 205 370 -2432
2021-09-01 22:51:22 GMT 31.266205 -81.277847 13,425 205 373 -2816
2021-09-01 22:51:11 GMT 31.282593 -81.268997 14,025 205 376 -3520
2021-09-01 22:51:00 GMT 31.300827 -81.259247 14,700 205 382 -3840
2021-09-01 22:50:58 GMT 31.304239 -81.257408 14,825 205 383 -3904
2021-09-01 22:50:57 GMT 31.305862 -81.256554 14,900 205 384 -3968
2021-09-01 22:50:56 GMT 31.307281 -81.255798 14,950 205 384 -4032
2021-09-01 22:50:54 GMT 31.310532 -81.254074 15,100 205 385 -4160
2021-09-01 22:50:52 GMT 31.313782 -81.252350 15,225 205 391 -2752
2021-09-01 22:50:41 GMT 31.332779 -81.242226 15,900 205 391 -2752
2021-09-01 22:50:29 GMT 31.352051 -81.231834 16,350 205 399 -2048
2021-09-01 22:50:27 GMT 31.355392 -81.230057 16,425 205 398 -2048
2021-09-01 22:50:25 GMT 31.358597 -81.228279 16,500 205 398 -2048
2021-09-01 22:50:24 GMT 31.361078 -81.226974 16,550 205 398 -1984
2021-09-01 22:50:20 GMT 31.367828 -81.223351 16,675 205 398 -1984
2021-09-01 22:50:16 GMT 31.374023 -81.220039 16,800 205 399 -2048
2021-09-01 22:50:13 GMT 31.378922 -81.217400 16,900 205 400 -2112
2021-09-01 22:50:11 GMT 31.381933 -81.215775 16,975 205 400 -2112
2021-09-01 22:50:10 GMT 31.384140 -81.214600 17,025 205 400 -2112
2021-09-01 22:50:09 GMT 31.385651 -81.213791 17,050 205 400 -2112
2021-09-01 22:50:07 GMT 31.389038 -81.211960 17,125 205 400 -2112
2021-09-01 22:50:06 GMT 31.391384 -81.210663 17,150 205 401 -2048
2021-09-01 22:50:04 GMT 31.394085 -81.209236 17,225 205 403 -2048
2021-09-01 22:50:03 GMT 31.398182 -81.207039 17,300 205 403 -2048
2021-09-01 22:50:00 GMT 31.400881 -81.205612 17,350 205 404 -2048
2021-09-01 22:49:59 GMT 31.404978 -81.203415 17,425 205 404 -2112
2021-09-01 22:49:57 GMT 31.406525 -81.202538 17,475 205 404 -2112
2021-09-01 22:49:55 GMT 31.409725 -81.200829 17,550 205 405 -2112
2021-09-01 22:49:54 GMT 31.413483 -81.198822 17,625 205 405 -2112
2021-09-01 22:49:51 GMT 31.414856 -81.198120 17,650 205 405 -2112
2021-09-01 22:49:50 GMT 31.416824 -81.197044 17,675 205 406 -2112
2021-09-01 22:49:49 GMT 31.418478 -81.196159 17,725 205 406 -2112
2021-09-01 22:49:47 GMT 31.421923 -81.194351 17,800 205 407 -2048
2021-09-01 22:49:46 GMT 31.423645 -81.193436 17,825 205 408 -2048
2021-09-01 22:49:45 GMT 31.425842 -81.192253 17,875 205 408 -2048
2021-09-01 22:49:43 GMT 31.429276 -81.190422 17,925 205 408 -2112
2021-09-01 22:49:41 GMT 31.431839 -81.189018 18,000 205 408 -2112
2021-09-01 22:49:40 GMT 31.433746 -81.187973 18,025 205 409 -2112
2021-09-01 22:49:39 GMT 31.435795 -81.186874 18,075 205 409 -2112
2021-09-01 22:49:38 GMT 31.440994 -81.184120 18,150 205 410 -2112
2021-09-01 22:49:36 GMT 31.440994 -81.184120 18,175 205 410 -2112
2021-09-01 22:49:35 GMT 31.442732 -81.183197 18,200 205 410 -2112
2021-09-01 22:49:33 GMT 31.445847 -81.181534 18,275 205 411 -2112
2021-09-01 22:49:32 GMT 31.447769 -81.180458 18,300 205 411 -2112
2021-09-01 22:49:29 GMT 31.452972 -81.177704 18,400 205 411 -2112
2021-09-01 22:49:28 GMT 31.454819 -81.176689 18,450 205 411 -2112
2021-09-01 22:49:27 GMT 31.458984 -81.174423 18,525 205 412 -2112
2021-09-01 22:49:25 GMT 31.460953 -81.173401 18,575 205 412 -2112
2021-09-01 22:49:24 GMT 31.462463 -81.172592 18,600 205 411 -2112
2021-09-01 22:49:23 GMT 31.464432 -81.171516 18,650 205 412 -2112
2021-09-01 22:49:22 GMT 31.465448 -81.171005 18,650 205 412 -2112
2021-09-01 22:49:20 GMT 31.468941 -81.169136 18,725 205 412 -2112
2021-09-01 22:49:19 GMT 31.470476 -81.168312 18,750 205 412 -2112
2021-09-01 22:49:18 GMT 31.473223 -81.166824 18,800 205 412 -2112
2021-09-01 22:49:17 GMT 31.476379 -81.165161 18,875 205 413 -2112
2021-09-01 22:49:15 GMT 31.478111 -81.164192 18,900 205 413 -2112
2021-09-01 22:49:14 GMT 31.479858 -81.163277 18,950 205 413 -2112
2021-09-01 22:49:13 GMT 31.483337 -81.161392 19,000 205 413 -2112
2021-09-01 22:49:11 GMT 31.485260 -81.160423 19,050 205 413 -2112
2021-09-01 22:49:09 GMT 31.488922 -81.158432 19,125 205 412 -2176
2021-09-01 22:49:05 GMT 31.495743 -81.154770 19,250 205 412 -1728
2021-09-01 22:49:03 GMT 31.499359 -81.152824 19,300 205 410 -1344
2021-09-01 22:49:02 GMT 31.501060 -81.151886 19,325 205 409 -1088
2021-09-01 22:49:00 GMT 31.504505 -81.150017 19,350 205 408 -960
2021-09-01 22:48:59 GMT 31.506226 -81.149109 19,350 205 407 -896
2021-09-01 22:48:58 GMT 31.507811 -81.148209 19,375 205 407 -960
2021-09-01 22:48:57 GMT 31.509300 -81.147385 19,400 206 406 -960
2021-09-01 22:48:55 GMT 31.513046 -81.145340 19,425 206 406 -960
2021-09-01 22:48:53 GMT 31.516703 -81.143372 19,450 205 406 -896
2021-09-01 22:48:50 GMT 31.521973 -81.140549 19,500 205 406 -896
2021-09-01 22:48:49 GMT 31.523300 -81.139847 19,500 204 407 -896
2021-09-01 22:48:47 GMT 31.526733 -81.138069 19,525 204 406 -896
2021-09-01 22:48:45 GMT 31.530167 -81.136353 19,575 203 407 -960
2021-09-01 22:48:43 GMT 31.532867 -81.135002 19,600 203 407 -960
2021-09-01 22:48:42 GMT 31.539654 -81.131729 19,650 202 408 -960
2021-09-01 22:48:40 GMT 31.539654 -81.131729 19,650 202 408 -960
2021-09-01 22:48:39 GMT 31.541382 -81.130966 19,675 202 408 -960
2021-09-01 22:48:37 GMT 31.546682 -81.128540 19,700 201 409 -896
2021-09-01 22:48:35 GMT 31.546682 -81.128540 19,700 201 409 -896
2021-09-01 22:48:34 GMT 31.548477 -81.127731 19,725 201 408 -896
2021-09-01 22:48:31 GMT 31.553804 -81.125412 19,775 200 409 -832
2021-09-01 22:48:29 GMT 31.559097 -81.123260 19,825 199 410 -960
2021-09-01 22:48:27 GMT 31.560608 -81.122620 19,825 199 410 -960
2021-09-01 22:48:24 GMT 31.566748 -81.120247 19,900 199 409 -1024
2021-09-01 22:48:23 GMT 31.568573 -81.119545 19,900 198 409 -1024
2021-09-01 22:48:22 GMT 31.572519 -81.118103 19,950 198 410 -960
2021-09-01 22:48:20 GMT 31.574614 -81.117332 19,950 197 409 -896
2021-09-01 22:48:19 GMT 31.576151 -81.116783 19,975 197 410 -896
2021-09-01 22:48:18 GMT 31.578003 -81.116150 19,975 197 409 -832
2021-09-01 22:48:17 GMT 31.583460 -81.114311 20,025 196 409 -832
2021-09-01 22:48:15 GMT 31.583460 -81.114311 20,025 196 409 -832
2021-09-01 22:48:13 GMT 31.586391 -81.113380 20,050 196 409 -896
2021-09-01 22:48:12 GMT 31.588211 -81.112816 20,075 195 409 -960
2021-09-01 22:48:11 GMT 31.590815 -81.112007 20,100 195 409 -1280
2021-09-01 22:48:10 GMT 31.592651 -81.111465 20,125 194 410 -1792
2021-09-01 22:48:09 GMT 31.594492 -81.110962 20,150 194 410 -1792
2021-09-01 22:48:07 GMT 31.598169 -81.109863 20,200 194 410 -1856
2021-09-01 22:48:06 GMT 31.600357 -81.109261 20,250 194 410 -1856
2021-09-01 22:48:05 GMT 31.602264 -81.108719 20,275 194 410 -1856
2021-09-01 22:48:02 GMT 31.607805 -81.107117 20,375 194 410 -1920
2021-09-01 22:48:00 GMT 31.613342 -81.105545 20,450 194 411 -1856
2021-09-01 22:47:55 GMT 31.621445 -81.103226 20,600 194 411 -1792
2021-09-01 22:47:53 GMT 31.624329 -81.102364 20,650 194 411 -1792
2021-09-01 22:47:45 GMT 31.639343 -81.098114 20,900 194 413 -1792
2021-09-01 22:47:42 GMT 31.646713 -81.096008 21,000 194 413 -1728
2021-09-01 22:47:35 GMT 31.657974 -81.092834 21,200 194 415 -1920
2021-09-01 22:47:32 GMT 31.662369 -81.091599 21,275 194 416 -1856
2021-09-01 22:47:26 GMT 31.675278 -81.087936 21,475 194 418 -1856
2021-09-01 22:47:23 GMT 31.681366 -81.086212 21,575 194 421 -1920
2021-09-01 22:47:15 GMT 31.695370 -81.082176 21,800 194 424 -1920
2021-09-01 22:47:12 GMT 31.701141 -81.080505 21,900 194 427 -1920
2021-09-01 22:47:05 GMT 31.714233 -81.076729 22,125 194 427 -1856
2021-09-01 22:47:02 GMT 31.722279 -81.074432 22,250 194 428 -1856
2021-09-01 22:46:57 GMT 31.731171 -81.071831 22,375 194 428 -1920
2021-09-01 22:46:54 GMT 31.734924 -81.070755 22,450 194 428 -1984
2021-09-01 22:46:50 GMT 31.742752 -81.068489 22,575 194 429 -1856
2021-09-01 22:46:44 GMT 31.755516 -81.064819 22,775 194 428 -1856
2021-09-01 22:46:34 GMT 31.773605 -81.059654 23,075 194 428 -1856
2021-09-01 22:46:28 GMT 31.785828 -81.056137 23,275 194 427 -1856
2021-09-01 22:46:24 GMT 31.792877 -81.054108 23,400 194 427 -1856
2021-09-01 22:46:19 GMT 31.802534 -81.051353 23,550 194 428 -1920
2021-09-01 22:46:14 GMT 31.812195 -81.048561 23,700 194 429 -1856
2021-09-01 22:46:10 GMT 31.822083 -81.045761 23,875 194 430 -2112
2021-09-01 22:46:04 GMT 31.832747 -81.042725 24,100 194 432 -2176
2021-09-01 22:45:58 GMT 31.844431 -81.039360 24,300 194 435 -2112
2021-09-01 22:45:54 GMT 31.852299 -81.037064 24,450 194 437 -2176
2021-09-01 22:45:48 GMT 31.864517 -81.033562 24,675 194 439 -2176
2021-09-01 22:45:44 GMT 31.872873 -81.031120 24,825 195 442 -2176
2021-09-01 22:45:37 GMT 31.884838 -81.027641 25,025 194 444 -1792
2021-09-01 22:45:32 GMT 31.894428 -81.024902 25,150 194 445 -1920
2021-09-01 22:45:27 GMT 31.906128 -81.021530 25,350 194 448 -2304
2021-09-01 22:45:23 GMT 31.915054 -81.018951 25,500 194 455 -2560
2021-09-01 22:45:18 GMT 31.926590 -81.015656 25,775 194 462 -3072
2021-09-01 22:45:13 GMT 31.934921 -81.013290 25,975 194 467 -2304
2021-09-01 22:45:07 GMT 31.947647 -81.009613 26,225 194 472 -2368
2021-09-01 22:45:03 GMT 31.955736 -81.007301 26,375 194 473 -2368
2021-09-01 22:44:57 GMT 31.970261 -81.003098 26,625 194 475 -2368
2021-09-01 22:44:52 GMT 31.981842 -80.999725 26,850 194 477 -2368
2021-09-01 22:44:46 GMT 31.992420 -80.996704 27,050 194 479 -2240
2021-09-01 22:44:42 GMT 32.000195 -80.994408 27,175 194 479 -2176
2021-09-01 22:44:40 GMT 32.003780 -80.993401 27,225 194 479 -2176
2021-09-01 22:44:36 GMT 32.016312 -80.989784 27,450 194 479 -2048
2021-09-01 22:44:31 GMT 32.026123 -80.986954 27,550 194 479 -1280
2021-09-01 22:44:24 GMT 32.039997 -80.982918 27,675 194 479 -1344
2021-09-01 22:44:20 GMT 32.048656 -80.980446 27,775 194 479 -1344
2021-09-01 22:44:12 GMT 32.065086 -80.975685 27,925 194 479 -1280
2021-09-01 22:44:09 GMT 32.070694 -80.974129 28,000 194 479 -1280
2021-09-01 22:44:01 GMT 32.088364 -80.969017 28,175 194 479 -1280
2021-09-01 22:43:59 GMT 32.093994 -80.967369 28,225 194 479 -1344
2021-09-01 22:43:52 GMT 32.109035 -80.963074 28,375 194 480 -1280
2021-09-01 22:43:49 GMT 32.115227 -80.961388 28,425 193 480 -1216
2021-09-01 22:43:39 GMT 32.138535 -80.956657 28,675 187 483 -1344
2021-09-01 22:43:31 GMT 32.154095 -80.955170 28,825 183 484 -1280
2021-09-01 22:43:28 GMT 32.162102 -80.954887 28,900 181 485 -1280
2021-09-01 22:43:21 GMT 32.176895 -80.955284 29,025 176 484 -1344
2021-09-01 22:43:17 GMT 32.184681 -80.955956 29,100 174 485 -1280
2021-09-01 22:43:11 GMT 32.198975 -80.958084 29,250 170 486 -1280
2021-09-01 22:43:07 GMT 32.208656 -80.960159 29,325 168 486 -1280
2021-09-01 22:43:00 GMT 32.225227 -80.964867 29,500 163 488 -1280
2021-09-01 22:42:56 GMT 32.231419 -80.967110 29,550 162 488 -1344
2021-09-01 22:42:50 GMT 32.244690 -80.972641 29,675 158 490 -1280
2021-09-01 22:42:47 GMT 32.252930 -80.976761 29,775 155 492 -1216
2021-09-01 22:42:41 GMT 32.264145 -80.983192 29,875 152 494 -1280
2021-09-01 22:42:36 GMT 32.274712 -80.989639 30,000 152 494 -896
2021-09-01 22:42:29 GMT 32.287308 -80.997421 30,000 152 494 -64
2021-09-01 22:42:26 GMT 32.296497 -81.003098 30,000 152 494 64
2021-09-01 22:42:20 GMT 32.305939 -81.008957 30,000 152 494 64
2021-09-01 22:42:13 GMT 32.321033 -81.018227 30,000 152 495 -64
2021-09-01 22:42:10 GMT 32.325920 -81.021255 30,000 152 495 64
2021-09-01 22:42:03 GMT 32.342960 -81.031738 30,000 152 494 0
2021-09-01 22:42:00 GMT 32.347458 -81.034500 30,000 152 494 64
2021-09-01 22:41:54 GMT 32.360043 -81.042221 30,000 152 494 64
2021-09-01 22:41:50 GMT 32.368141 -81.047150 30,000 152 494 64
2021-09-01 22:41:43 GMT 32.381969 -81.055618 30,000 152 494 -128
2021-09-01 22:41:39 GMT 32.388885 -81.059875 30,000 152 495 0
2021-09-01 22:41:33 GMT 32.401886 -81.067894 30,000 152 494 64
2021-09-01 22:41:29 GMT 32.410412 -81.073158 30,000 152 494 -64
2021-09-01 22:41:22 GMT 32.423813 -81.081406 30,000 152 495 -64
2021-09-01 22:41:18 GMT 32.434761 -81.088181 30,000 152 494 64
2021-09-01 22:41:08 GMT 32.451416 -81.098495 30,000 152 495 -64
2021-09-01 22:40:58 GMT 32.473770 -81.112282 30,000 152 495 0
2021-09-01 22:40:52 GMT 32.486389 -81.120079 30,000 152 496 64
2021-09-01 22:40:48 GMT 32.494308 -81.124969 30,000 152 496 64
2021-09-01 22:40:41 GMT 32.507584 -81.133156 30,000 152 497 0
2021-09-01 22:40:38 GMT 32.513947 -81.137108 30,000 152 498 -64
2021-09-01 22:40:31 GMT 32.528870 -81.146339 30,000 152 500 -64
2021-09-01 22:40:28 GMT 32.535034 -81.150124 30,000 152 500 0
2021-09-01 22:40:24 GMT 32.547775 -81.158035 30,000 152 500 64
2021-09-01 22:40:18 GMT 32.554771 -81.162338 30,000 152 500 64
2021-09-01 22:40:10 GMT 32.570755 -81.172264 30,000 152 500 0
2021-09-01 22:40:07 GMT 32.576092 -81.175568 30,000 152 500 0
2021-09-01 22:40:01 GMT 32.590897 -81.184708 30,000 152 500 -64
2021-09-01 22:39:58 GMT 32.596622 -81.188293 30,000 152 501 0
2021-09-01 22:39:51 GMT 32.611038 -81.197205 30,000 152 501 -64
2021-09-01 22:39:48 GMT 32.617199 -81.201019 30,000 152 501 0
2021-09-01 22:39:36 GMT 32.640518 -81.215439 30,000 152 500 64
2021-09-01 22:39:26 GMT 32.660110 -81.227638 30,000 152 500 -128
2021-09-01 22:39:16 GMT 32.680416 -81.240311 30,000 152 500 64
2021-09-01 22:39:07 GMT 32.699707 -81.252243 30,000 152 500 0
2021-09-01 22:39:03 GMT 32.707901 -81.257355 30,000 152 500 -64
2021-09-01 22:38:57 GMT 32.720901 -81.265373 30,000 152 499 0
2021-09-01 22:38:53 GMT 32.729622 -81.270859 30,000 152 499 0
2021-09-01 22:38:47 GMT 32.741501 -81.278229 30,000 152 499 -64
2021-09-01 22:38:44 GMT 32.746445 -81.281250 30,000 152 499 -64
2021-09-01 22:38:36 GMT 32.764721 -81.292664 30,000 152 498 -64
2021-09-01 22:38:33 GMT 32.768772 -81.295181 30,000 152 498 -64
2021-09-01 22:38:24 GMT 32.788147 -81.307236 30,000 152 498 -64
2021-09-01 22:38:16 GMT 32.806339 -81.318558 30,000 152 497 64
2021-09-01 22:38:13 GMT 32.810989 -81.321457 30,000 152 497 0
2021-09-01 22:38:00 GMT 32.835854 -81.336945 30,025 152 498 -448
2021-09-01 22:37:49 GMT 32.858757 -81.351234 30,250 152 498 -1280
2021-09-01 22:37:42 GMT 32.873062 -81.360130 30,400 152 498 -1280
2021-09-01 22:37:35 GMT 32.889404 -81.370346 30,575 152 497 -1408
2021-09-01 22:37:24 GMT 32.909775 -81.383041 30,775 152 496 -1344
2021-09-01 22:37:19 GMT 32.919926 -81.389351 30,850 152 496 -1280
2021-09-01 22:37:02 GMT 32.954590 -81.411057 31,275 152 492 -1344
2021-09-01 22:36:54 GMT 32.970795 -81.421158 31,450 152 492 -1344
2021-09-01 22:36:51 GMT 32.977654 -81.425453 31,500 152 492 -1344
2021-09-01 22:36:38 GMT 33.003021 -81.441322 31,775 152 492 -1344
2021-09-01 22:36:29 GMT 33.021271 -81.452805 31,975 152 492 -1344
2021-09-01 22:36:16 GMT 33.047424 -81.469170 32,275 152 490 -1344
2021-09-01 22:36:07 GMT 33.069122 -81.482796 32,500 152 490 -1344
2021-09-01 22:35:27 GMT 33.147125 -81.531792 33,350 152 492 -1280
2021-09-01 22:34:58 GMT 33.204483 -81.567886 33,950 152 492 64
2021-09-01 22:34:50 GMT 33.220936 -81.578255 33,975 152 492 64
2021-09-01 22:34:01 GMT 33.320415 -81.640915 34,000 152 492 128
2021-09-01 22:33:52 GMT 33.338943 -81.652634 34,000 152 492 128
2021-09-01 22:31:35 GMT 33.614765 -81.823029 34,000 160 486 0
2021-09-01 22:31:28 GMT 33.632401 -81.829475 34,000 164 484 -64
2021-09-01 22:31:15 GMT 33.658356 -81.836205 34,000 170 481 -64
2021-09-01 22:31:07 GMT 33.677567 -81.838928 34,000 176 477 0
2021-09-01 22:30:57 GMT 33.700104 -81.840294 34,000 177 477 64
2021-09-01 22:30:46 GMT 33.723557 -81.841454 34,000 177 477 0
2021-09-01 22:30:36 GMT 33.745625 -81.842537 34,000 177 477 -64
2021-09-01 22:30:24 GMT 33.771275 -81.843796 34,000 177 477 -64
2021-09-01 22:30:15 GMT 33.791527 -81.844826 34,000 177 477 64
2021-09-01 22:30:07 GMT 33.808823 -81.845680 34,000 177 478 -64
2021-09-01 22:30:04 GMT 33.814568 -81.845970 34,000 177 478 -64
2021-09-01 22:29:54 GMT 33.837158 -81.847076 34,000 177 479 0
2021-09-01 22:29:44 GMT 33.860184 -81.848198 34,000 177 480 -64
2021-09-01 22:29:34 GMT 33.882431 -81.849319 34,000 177 480 0
2021-09-01 22:29:23 GMT 33.905998 -81.850494 34,000 177 480 64
2021-09-01 22:29:13 GMT 33.929085 -81.851578 34,000 177 479 0
2021-09-01 22:29:02 GMT 33.953014 -81.852776 34,000 177 478 0
2021-09-01 22:28:52 GMT 33.974289 -81.853867 34,000 177 478 -64
2021-09-01 22:28:42 GMT 33.998169 -81.855064 34,000 177 477 -64
2021-09-01 22:28:38 GMT 34.007309 -81.855484 34,000 177 477 -64
2021-09-01 22:28:32 GMT 34.020237 -81.856155 34,000 177 477 0
2021-09-01 22:28:21 GMT 34.043655 -81.857285 34,000 177 477 128
2021-09-01 22:28:11 GMT 34.067116 -81.858444 34,000 177 477 0
2021-09-01 22:28:02 GMT 34.087830 -81.859467 34,000 177 476 -64
2021-09-01 22:27:50 GMT 34.112968 -81.860733 34,000 177 476 -64
2021-09-01 22:27:40 GMT 34.133125 -81.861763 34,000 177 476 0
2021-09-01 22:27:31 GMT 34.156307 -81.862907 34,000 177 476 -64
2021-09-01 22:27:24 GMT 34.170868 -81.863617 34,000 177 475 64
2021-09-01 22:27:19 GMT 34.180573 -81.864120 34,000 177 475 64
2021-09-01 22:27:16 GMT 34.187172 -81.864449 34,000 177 475 64
2021-09-01 22:27:10 GMT 34.202164 -81.865196 34,000 177 475 64
2021-09-01 22:27:07 GMT 34.206539 -81.865425 34,000 177 475 64
2021-09-01 22:27:03 GMT 34.215683 -81.865860 34,000 177 475 64
2021-09-01 22:26:59 GMT 34.225479 -81.866364 34,000 177 475 -64
2021-09-01 22:26:48 GMT 34.250576 -81.867599 34,000 177 474 -64
2021-09-01 22:26:39 GMT 34.268127 -81.868462 34,000 177 474 -64
2021-09-01 22:26:34 GMT 34.278694 -81.869034 34,000 177 474 64
2021-09-01 22:26:31 GMT 34.298012 -81.869949 34,000 177 474 -64
2021-09-01 22:26:27 GMT 34.298012 -81.869949 34,000 177 474 64
2021-09-01 22:26:22 GMT 34.308533 -81.870522 34,000 177 474 -64
2021-09-01 22:26:18 GMT 34.313793 -81.870750 34,000 177 474 -64
2021-09-01 22:26:15 GMT 34.323898 -81.871292 34,000 177 474 -64
2021-09-01 22:26:07 GMT 34.341476 -81.872131 34,000 177 474 64
2021-09-01 22:26:00 GMT 34.356853 -81.872925 34,000 177 475 0
2021-09-01 22:25:57 GMT 34.361092 -81.873154 34,000 177 475 0
2021-09-01 22:25:54 GMT 34.369629 -81.873589 34,000 177 475 0
2021-09-01 22:25:46 GMT 34.385902 -81.874413 34,000 177 476 -64
2021-09-01 22:25:37 GMT 34.405270 -81.875381 34,000 177 476 0
2021-09-01 22:25:34 GMT 34.413574 -81.875778 34,000 177 476 0
2021-09-01 22:25:25 GMT 34.432068 -81.876678 34,000 177 475 64
2021-09-01 22:25:22 GMT 34.438293 -81.877014 34,000 177 475 64
2021-09-01 22:25:15 GMT 34.452255 -81.877686 34,000 177 475 -64
2021-09-01 22:25:11 GMT 34.464111 -81.878304 34,000 177 475 0
2021-09-01 22:25:08 GMT 34.472027 -81.878700 34,000 177 474 0
2021-09-01 22:25:05 GMT 34.476151 -81.878914 34,000 177 474 64
2021-09-01 22:25:01 GMT 34.483200 -81.879257 34,000 177 474 64
2021-09-01 22:24:55 GMT 34.496338 -81.879929 34,000 177 474 -64
2021-09-01 22:24:52 GMT 34.505589 -81.880363 34,000 177 473 -64
2021-09-01 22:24:45 GMT 34.520485 -81.881104 34,000 177 473 0
2021-09-01 22:24:42 GMT 34.527470 -81.881500 34,000 177 473 64
2021-09-01 22:24:34 GMT 34.543625 -81.882278 34,000 177 472 64
2021-09-01 22:24:31 GMT 34.550049 -81.882591 34,000 177 472 64
2021-09-01 22:24:24 GMT 34.567062 -81.883461 34,000 177 472 -64
2021-09-01 22:24:21 GMT 34.572510 -81.883736 34,000 177 472 0
2021-09-01 22:24:15 GMT 34.583679 -81.884300 34,000 177 472 -64
2021-09-01 22:24:11 GMT 34.594738 -81.884880 34,000 177 471 64
2021-09-01 22:24:06 GMT 34.607391 -81.885475 34,000 177 471 64
2021-09-01 22:24:03 GMT 34.613079 -81.885796 34,000 177 471 64
2021-09-01 22:23:59 GMT 34.618340 -81.886024 34,000 177 471 0
2021-09-01 22:23:55 GMT 34.628815 -81.886597 34,000 177 471 0
2021-09-01 22:23:50 GMT 34.638218 -81.887054 34,000 177 471 -64
2021-09-01 22:23:47 GMT 34.646667 -81.887497 34,000 177 471 0
2021-09-01 22:23:40 GMT 34.663284 -81.888336 34,000 177 471 0
2021-09-01 22:23:32 GMT 34.681137 -81.889229 34,000 177 471 -64
2021-09-01 22:23:29 GMT 34.685513 -81.889397 34,000 177 471 64
2021-09-01 22:23:25 GMT 34.693336 -81.889801 34,000 177 471 64
2021-09-01 22:23:19 GMT 34.707733 -81.890579 34,000 177 470 64
2021-09-01 22:23:15 GMT 34.715122 -81.890945 34,000 177 470 64
2021-09-01 22:23:09 GMT 34.730392 -81.891701 34,000 177 470 -64
2021-09-01 22:23:04 GMT 34.742123 -81.892319 34,000 177 471 64
2021-09-01 22:22:58 GMT 34.752598 -81.892838 34,000 177 471 0
2021-09-01 22:22:53 GMT 34.763908 -81.893410 34,000 177 471 0
2021-09-01 22:22:47 GMT 34.775711 -81.893997 34,000 177 472 0
2021-09-01 22:22:43 GMT 34.784225 -81.894447 34,000 177 472 0
2021-09-01 22:22:38 GMT 34.797985 -81.895180 34,000 177 473 0
2021-09-01 22:22:34 GMT 34.806335 -81.895622 34,000 177 473 0
2021-09-01 22:22:27 GMT 34.820343 -81.896294 34,000 177 473 -64
2021-09-01 22:22:22 GMT 34.831268 -81.896896 34,000 177 473 0
2021-09-01 22:22:17 GMT 34.844696 -81.897583 34,000 177 473 0
2021-09-01 22:22:11 GMT 34.854916 -81.898102 34,000 177 473 -64
2021-09-01 22:22:03 GMT 34.875072 -81.899185 34,000 177 473 -64
2021-09-01 22:22:00 GMT 34.879028 -81.899376 34,000 177 473 -64
2021-09-01 22:21:54 GMT 34.894394 -81.900162 34,000 177 473 0
2021-09-01 22:21:51 GMT 34.899654 -81.900444 34,000 177 473 0
2021-09-01 22:21:44 GMT 34.913666 -81.901192 34,000 177 473 64
2021-09-01 22:21:39 GMT 34.927490 -81.901878 34,000 177 473 -64
2021-09-01 22:21:36 GMT 34.933685 -81.902161 34,000 177 472 64
2021-09-01 22:21:32 GMT 34.942528 -81.902618 34,000 177 472 128
2021-09-01 22:21:29 GMT 34.946812 -81.902847 34,000 177 472 192
2021-09-01 22:21:25 GMT 34.958496 -81.903412 33,975 177 472 256
2021-09-01 22:21:20 GMT 34.967854 -81.903931 34,000 179 472 0
2021-09-01 22:21:13 GMT 34.981865 -81.904510 34,000 179 472 0
2021-09-01 22:21:07 GMT 34.998486 -81.904510 34,000 180 472 0
2021-09-01 22:21:04 GMT 35.005005 -81.904144 34,000 185 471 64
2021-09-01 22:21:00 GMT 35.012741 -81.903358 34,000 186 470 0
2021-09-01 22:20:57 GMT 35.018829 -81.902573 34,000 188 469 -64
2021-09-01 22:20:49 GMT 35.042770 -81.897301 34,000 194 466 0
2021-09-01 22:20:43 GMT 35.048203 -81.895576 34,000 196 466 -64
2021-09-01 22:20:38 GMT 35.058117 -81.892036 34,000 199 465 -64
2021-09-01 22:20:35 GMT 35.063705 -81.889748 34,000 200 464 -64
2021-09-01 22:20:32 GMT 35.069870 -81.886932 34,000 203 463 -64
2021-09-01 22:20:28 GMT 35.076645 -81.883568 34,000 204 463 -64
2021-09-01 22:20:25 GMT 35.084373 -81.879158 34,000 207 462 64
2021-09-01 22:20:22 GMT 35.090881 -81.874992 34,000 210 461 128
2021-09-01 22:20:17 GMT 35.098755 -81.869278 34,000 213 459 -64
2021-09-01 22:20:13 GMT 35.105896 -81.863388 34,000 216 459 128
2021-09-01 22:20:09 GMT 35.114273 -81.856049 34,000 216 459 0
2021-09-01 22:20:01 GMT 35.128098 -81.843941 34,000 216 459 0
2021-09-01 22:19:58 GMT 35.131859 -81.840591 34,000 216 459 0
2021-09-01 22:19:52 GMT 35.141876 -81.831779 34,000 216 459 -64
2021-09-01 22:19:48 GMT 35.148743 -81.825722 34,000 216 459 -64
2021-09-01 22:19:43 GMT 35.157715 -81.817818 34,000 216 459 0
2021-09-01 22:19:40 GMT 35.163116 -81.813057 34,000 216 459 64
2021-09-01 22:19:37 GMT 35.169006 -81.807922 34,000 216 459 64
2021-09-01 22:19:31 GMT 35.177383 -81.800484 34,000 216 459 64
2021-09-01 22:19:27 GMT 35.184631 -81.794052 34,000 216 459 0
2021-09-01 22:19:22 GMT 35.193165 -81.786514 34,000 216 459 0
2021-09-01 22:19:18 GMT 35.200150 -81.780396 34,000 216 459 0
2021-09-01 22:19:14 GMT 35.207039 -81.774330 34,000 216 459 -64
2021-09-01 22:19:11 GMT 35.213562 -81.768547 34,000 216 459 -64
2021-09-01 22:19:07 GMT 35.220772 -81.762138 34,000 216 459 0
2021-09-01 22:19:03 GMT 35.225967 -81.757561 34,000 216 459 0
2021-09-01 22:19:00 GMT 35.231106 -81.753006 34,000 216 459 0
2021-09-01 22:18:56 GMT 35.237995 -81.746986 34,000 216 459 0
2021-09-01 22:18:51 GMT 35.247631 -81.738457 34,000 216 459 64
2021-09-01 22:18:48 GMT 35.253174 -81.733551 34,000 216 458 64
2021-09-01 22:18:45 GMT 35.267944 -81.720543 34,000 216 458 0
2021-09-01 22:18:39 GMT 35.267944 -81.720543 34,000 216 458 -64
2021-09-01 22:18:35 GMT 35.274078 -81.715111 34,000 216 458 -64
2021-09-01 22:18:29 GMT 35.284378 -81.705956 34,000 217 457 0
2021-09-01 22:18:25 GMT 35.291439 -81.699715 34,000 216 456 64
2021-09-01 22:18:22 GMT 35.297974 -81.693932 34,000 216 456 64
2021-09-01 22:18:19 GMT 35.301498 -81.690788 34,000 216 456 0
2021-09-01 22:18:13 GMT 35.313126 -81.680489 34,000 216 456 0
2021-09-01 22:18:09 GMT 35.319946 -81.674477 34,000 216 455 64
2021-09-01 22:18:02 GMT 35.330887 -81.664810 34,000 216 454 64
2021-09-01 22:17:57 GMT 35.338036 -81.658455 34,000 216 454 64
2021-09-01 22:17:51 GMT 35.349976 -81.647873 34,000 217 455 64
2021-09-01 22:17:48 GMT 35.355724 -81.642792 34,000 217 455 0
2021-09-01 22:17:44 GMT 35.361870 -81.637299 34,000 217 455 0
2021-09-01 22:17:40 GMT 35.367363 -81.632446 34,000 217 455 0
2021-09-01 22:17:36 GMT 35.373779 -81.626762 34,000 217 455 0
2021-09-01 22:17:32 GMT 35.380646 -81.620636 34,000 217 455 -64
2021-09-01 22:17:27 GMT 35.390499 -81.611877 34,000 217 455 -64
2021-09-01 22:17:21 GMT 35.401302 -81.602295 34,000 217 455 -64
2021-09-01 22:17:16 GMT 35.407928 -81.596436 34,000 217 455 -64
2021-09-01 22:17:11 GMT 35.417130 -81.588272 34,000 217 455 64
2021-09-01 22:17:07 GMT 35.425976 -81.580383 34,000 217 455 64
2021-09-01 22:17:00 GMT 35.437565 -81.570038 34,000 217 455 -64
2021-09-01 22:16:52 GMT 35.451206 -81.557945 34,000 217 455 64
2021-09-01 22:16:48 GMT 35.455627 -81.553970 34,000 217 455 0
2021-09-01 22:16:44 GMT 35.464508 -81.546135 34,000 217 455 0
2021-09-01 22:16:39 GMT 35.472656 -81.538872 34,000 217 455 0
2021-09-01 22:16:35 GMT 35.480164 -81.532173 34,000 217 455 -64
2021-09-01 22:16:28 GMT 35.490589 -81.522942 34,000 217 454 64
2021-09-01 22:16:24 GMT 35.497478 -81.516747 34,000 217 454 64
2021-09-01 22:16:17 GMT 35.508636 -81.506821 34,000 217 453 0
2021-09-01 22:16:14 GMT 35.513489 -81.502480 34,000 217 453 -64
2021-09-01 22:16:06 GMT 35.530380 -81.487427 34,000 217 453 0
2021-09-01 22:16:02 GMT 35.534069 -81.484138 34,000 217 453 0
2021-09-01 22:15:56 GMT 35.545708 -81.473732 34,000 217 453 -64
2021-09-01 22:15:53 GMT 35.549103 -81.470695 34,000 217 453 -64
2021-09-01 22:15:48 GMT 35.559299 -81.461639 34,000 217 453 64
2021-09-01 22:15:43 GMT 35.566406 -81.455269 34,000 217 454 -64
2021-09-01 22:15:35 GMT 35.580341 -81.442879 34,000 217 454 -64
2021-09-01 22:15:32 GMT 35.584949 -81.438728 34,000 217 454 -64
2021-09-01 22:15:27 GMT 35.594540 -81.430199 34,000 217 454 0
2021-09-01 22:15:22 GMT 35.603336 -81.422310 34,000 217 454 0
2021-09-01 22:15:15 GMT 35.616184 -81.410851 34,000 217 454 0
2021-09-01 22:15:12 GMT 35.620056 -81.407318 34,000 217 454 64
2021-09-01 22:15:06 GMT 35.629917 -81.398521 34,000 217 454 0
2021-09-01 22:15:02 GMT 35.637413 -81.391861 34,000 217 454 0
2021-09-01 22:14:51 GMT 35.655056 -81.376022 34,000 217 454 64
2021-09-01 22:14:46 GMT 35.664917 -81.367210 34,000 217 455 0
2021-09-01 22:14:40 GMT 35.674610 -81.358490 34,000 217 455 -64
2021-09-01 22:14:33 GMT 35.687393 -81.347069 34,000 217 455 -64
2021-09-01 22:14:30 GMT 35.690140 -81.344604 34,000 217 455 -64
2021-09-01 22:14:24 GMT 35.700348 -81.335449 34,000 217 455 0
2021-09-01 22:14:21 GMT 35.708172 -81.328400 34,000 217 455 -64
2021-09-01 22:14:15 GMT 35.718018 -81.319542 34,000 217 455 64
2021-09-01 22:14:10 GMT 35.725166 -81.313148 34,000 217 455 0
2021-09-01 22:14:02 GMT 35.739410 -81.300285 34,000 217 454 0
2021-09-01 22:13:59 GMT 35.742809 -81.297249 34,000 217 454 0
2021-09-01 22:13:55 GMT 35.751984 -81.289040 34,000 217 454 64
2021-09-01 22:13:50 GMT 35.760311 -81.281586 34,000 217 454 -64
2021-09-01 22:13:44 GMT 35.769295 -81.273521 34,000 217 455 64
2021-09-01 22:13:39 GMT 35.777618 -81.265984 34,000 217 453 -64
2021-09-01 22:13:34 GMT 35.787590 -81.257042 34,000 217 453 -64
2021-09-01 22:13:28 GMT 35.795380 -81.250076 34,000 217 454 -64
2021-09-01 22:13:22 GMT 35.805885 -81.240623 34,000 217 453 0
2021-09-01 22:13:18 GMT 35.814034 -81.233322 34,000 217 454 -64
2021-09-01 22:13:13 GMT 35.823212 -81.225075 34,000 217 454 64
2021-09-01 22:13:09 GMT 35.829987 -81.219009 34,000 217 454 -64
2021-09-01 22:13:02 GMT 35.840382 -81.209656 34,000 217 455 128
2021-09-01 22:12:58 GMT 35.848206 -81.202583 34,000 217 455 -64
2021-09-01 22:12:51 GMT 35.859009 -81.192856 34,000 217 455 0
2021-09-01 22:12:48 GMT 35.864960 -81.187508 34,000 217 455 0
2021-09-01 22:12:42 GMT 35.875854 -81.177689 34,000 217 455 -64
2021-09-01 22:12:38 GMT 35.882465 -81.171722 34,000 217 455 -64
2021-09-01 22:12:35 GMT 35.886562 -81.167984 34,000 217 455 -64
2021-09-01 22:12:30 GMT 35.894196 -81.161148 34,000 217 455 -64
2021-09-01 22:12:26 GMT 35.901505 -81.154549 34,000 217 455 0
2021-09-01 22:12:21 GMT 35.911560 -81.145477 34,000 217 455 64
2021-09-01 22:12:16 GMT 35.919022 -81.138725 34,000 217 454 -64
2021-09-01 22:12:11 GMT 35.927528 -81.131050 34,000 217 455 0
2021-09-01 22:12:08 GMT 35.933578 -81.125557 34,000 217 455 64
2021-09-01 22:12:05 GMT 35.937073 -81.122406 34,000 217 455 64
2021-09-01 22:12:00 GMT 35.946568 -81.113815 34,000 217 455 0
2021-09-01 22:11:55 GMT 35.953629 -81.107483 34,000 217 455 -64
2021-09-01 22:11:49 GMT 35.964119 -81.097977 34,000 217 455 0
2021-09-01 22:11:45 GMT 35.972580 -81.090317 34,000 217 455 64
2021-09-01 22:11:40 GMT 35.980179 -81.083450 34,000 217 454 0
2021-09-01 22:11:36 GMT 35.986954 -81.077332 34,000 217 454 64
2021-09-01 22:11:29 GMT 36.000195 -81.065369 34,000 217 454 -64
2021-09-01 22:11:25 GMT 36.005127 -81.060844 34,000 217 454 -64
2021-09-01 22:11:19 GMT 36.015045 -81.051872 34,000 217 454 -64
2021-09-01 22:11:15 GMT 36.021843 -81.045731 34,000 217 454 64
2021-09-01 22:11:12 GMT 36.027943 -81.040184 34,000 217 454 64
2021-09-01 22:11:09 GMT 36.032688 -81.035919 34,000 217 454 64
2021-09-01 22:11:04 GMT 36.041107 -81.028290 34,000 217 454 64
2021-09-01 22:10:57 GMT 36.053925 -81.016670 34,000 217 453 -64
2021-09-01 22:10:53 GMT 36.058292 -81.012657 34,000 217 453 0
2021-09-01 22:10:48 GMT 36.068069 -81.003860 34,000 217 453 -64
2021-09-01 22:10:44 GMT 36.075890 -80.996765 34,000 217 452 64
2021-09-01 22:10:36 GMT 36.088783 -80.985016 34,000 217 452 -64
2021-09-01 22:10:33 GMT 36.093533 -80.980751 34,000 217 452 0
2021-09-01 22:10:28 GMT 36.102631 -80.972443 34,000 217 452 -64
2021-09-01 22:10:23 GMT 36.110336 -80.965439 34,000 217 452 64
2021-09-01 22:10:17 GMT 36.120533 -80.956146 34,000 217 452 64
2021-09-01 22:10:13 GMT 36.128265 -80.949158 34,000 217 453 0
2021-09-01 22:10:07 GMT 36.137558 -80.940681 34,000 217 453 -64
2021-09-01 22:10:03 GMT 36.144333 -80.934502 34,000 217 453 -64
2021-09-01 22:10:00 GMT 36.150467 -80.929008 34,000 217 453 0
2021-09-01 22:09:56 GMT 36.155682 -80.924240 34,000 217 453 -64
2021-09-01 22:09:51 GMT 36.162781 -80.917740 34,000 217 453 0
2021-09-01 22:09:44 GMT 36.176331 -80.905434 34,000 217 453 64
2021-09-01 22:09:40 GMT 36.183701 -80.898743 34,000 217 453 64
2021-09-01 22:09:32 GMT 36.196972 -80.886726 34,000 217 454 -64
2021-09-01 22:09:28 GMT 36.202011 -80.882095 34,000 217 455 -64
2021-09-01 22:09:23 GMT 36.212769 -80.872307 34,000 217 454 0
2021-09-01 22:09:20 GMT 36.215221 -80.870071 34,000 217 454 0
2021-09-01 22:09:13 GMT 36.227371 -80.858963 34,000 217 454 -64
2021-09-01 22:09:10 GMT 36.232407 -80.854340 34,000 217 454 -64
2021-09-01 22:09:07 GMT 36.237167 -80.849991 34,000 217 454 -64
2021-09-01 22:09:02 GMT 36.247284 -80.840775 34,000 217 454 64
2021-09-01 22:08:58 GMT 36.261818 -80.827469 34,000 217 455 64
2021-09-01 22:08:53 GMT 36.261818 -80.827469 34,000 217 454 64
2021-09-01 22:08:50 GMT 36.266830 -80.822929 34,000 217 454 -64
2021-09-01 22:08:46 GMT 36.273560 -80.816803 34,000 217 454 -64
2021-09-01 22:08:42 GMT 36.280766 -80.810226 34,000 217 455 -64
2021-09-01 22:08:39 GMT 36.285469 -80.805901 34,000 217 455 -64
2021-09-01 22:08:35 GMT 36.291519 -80.800407 34,000 217 455 -64
2021-09-01 22:08:29 GMT 36.309162 -80.784279 34,000 217 455 0
2021-09-01 22:08:26 GMT 36.309162 -80.784279 34,000 217 455 0
2021-09-01 22:08:19 GMT 36.321075 -80.773376 34,000 217 455 64
2021-09-01 22:08:09 GMT 36.337326 -80.758553 34,000 217 455 -64
2021-09-01 22:08:04 GMT 36.343800 -80.752609 34,000 217 455 64
2021-09-01 22:08:00 GMT 36.357346 -80.740219 34,000 217 455 -64
2021-09-01 22:07:56 GMT 36.357346 -80.740219 34,000 217 456 -64
2021-09-01 22:07:53 GMT 36.364471 -80.733665 34,000 217 455 -64
2021-09-01 22:07:48 GMT 36.373451 -80.725433 34,000 217 455 64
2021-09-01 22:07:42 GMT 36.381737 -80.717896 34,000 217 454 -64
2021-09-01 22:07:37 GMT 36.390152 -80.710144 34,000 217 454 0
2021-09-01 22:07:30 GMT 36.402328 -80.698982 34,000 217 454 0
2021-09-01 22:07:27 GMT 36.408039 -80.693703 34,000 217 454 -64
2021-09-01 22:07:17 GMT 36.424847 -80.678337 34,000 217 453 -64
2021-09-01 22:07:11 GMT 36.435333 -80.668716 34,000 217 453 64
2021-09-01 22:07:07 GMT 36.443390 -80.661339 34,000 217 453 -64
2021-09-01 22:07:03 GMT 36.448494 -80.656654 34,000 217 453 0
2021-09-01 22:06:59 GMT 36.453461 -80.652061 34,000 217 453 0
2021-09-01 22:06:56 GMT 36.459641 -80.646400 34,000 217 452 -64
2021-09-01 22:06:53 GMT 36.466694 -80.639885 34,000 217 452 -64
2021-09-01 22:06:49 GMT 36.472095 -80.634972 34,000 217 451 -64
2021-09-01 22:06:46 GMT 36.477127 -80.630325 34,000 217 451 0
2021-09-01 22:06:39 GMT 36.488762 -80.619606 34,000 217 450 64
2021-09-01 22:06:36 GMT 36.493103 -80.615669 34,000 217 450 0
2021-09-01 22:06:32 GMT 36.500427 -80.608917 34,000 217 450 64
2021-09-01 22:06:29 GMT 36.505280 -80.604462 34,000 217 449 -64
2021-09-01 22:06:25 GMT 36.512829 -80.597511 34,000 217 449 -64
2021-09-01 22:06:18 GMT 36.525330 -80.586037 34,000 217 448 0
2021-09-01 22:06:14 GMT 36.529682 -80.582031 34,000 217 448 -64
2021-09-01 22:06:11 GMT 36.535500 -80.576653 34,000 217 448 -64
2021-09-01 22:06:04 GMT 36.547649 -80.565430 34,000 217 448 0
2021-09-01 22:06:01 GMT 36.553001 -80.560524 34,000 217 448 64
2021-09-01 22:05:56 GMT 36.559475 -80.554565 34,000 217 447 0
2021-09-01 22:05:53 GMT 36.565292 -80.549187 34,000 217 447 -64
2021-09-01 22:05:50 GMT 36.577972 -80.537514 34,000 217 450 0
2021-09-01 22:05:46 GMT 36.577972 -80.537514 34,000 217 448 0
2021-09-01 22:05:42 GMT 36.582287 -80.533524 34,000 217 448 -64
2021-09-01 22:05:39 GMT 36.588593 -80.527672 34,000 217 449 -64
2021-09-01 22:05:36 GMT 36.592945 -80.523651 34,000 217 450 0
2021-09-01 22:05:33 GMT 36.599304 -80.517769 34,000 217 451 64
2021-09-01 22:05:25 GMT 36.614044 -80.504150 34,000 217 452 0
2021-09-01 22:05:22 GMT 36.616745 -80.501694 34,000 217 452 0
2021-09-01 22:05:15 GMT 36.627502 -80.491737 34,000 217 452 -64
2021-09-01 22:05:12 GMT 36.634918 -80.484924 34,000 217 452 -128
2021-09-01 22:05:06 GMT 36.645630 -80.474968 34,000 217 452 64
2021-09-01 22:05:03 GMT 36.649017 -80.471878 34,000 217 452 -64
2021-09-01 22:05:00 GMT 36.652672 -80.468483 34,000 217 452 -64
2021-09-01 22:04:55 GMT 36.661743 -80.460091 34,000 217 451 64
2021-09-01 22:04:50 GMT 36.669476 -80.452942 34,000 217 451 -64
2021-09-01 22:04:44 GMT 36.679485 -80.443649 34,000 217 450 -64
2021-09-01 22:04:41 GMT 36.687538 -80.436226 34,000 217 450 -64
2021-09-01 22:04:34 GMT 36.704544 -80.420494 34,000 217 450 64
2021-09-01 22:04:29 GMT 36.704544 -80.420494 34,000 217 450 128
2021-09-01 22:04:23 GMT 36.717773 -80.408249 34,000 217 449 64
2021-09-01 22:04:16 GMT 36.728226 -80.398537 34,000 217 449 -64
2021-09-01 22:04:12 GMT 36.733887 -80.393311 34,000 217 448 -64
2021-09-01 22:04:08 GMT 36.739586 -80.388077 34,000 217 448 -128
2021-09-01 22:04:05 GMT 36.745193 -80.382790 34,000 217 448 -64
2021-09-01 22:04:02 GMT 36.750549 -80.377869 34,000 217 448 128
2021-09-01 22:03:58 GMT 36.758205 -80.370773 34,000 217 448 64
2021-09-01 22:03:53 GMT 36.766167 -80.363358 34,000 217 448 -64
2021-09-01 22:03:49 GMT 36.772823 -80.357162 34,000 217 448 -64
2021-09-01 22:03:45 GMT 36.786648 -80.344360 34,000 217 448 0
2021-09-01 22:03:41 GMT 36.786648 -80.344360 34,000 217 448 -64
2021-09-01 22:03:38 GMT 36.791061 -80.340218 34,000 217 448 0
2021-09-01 22:03:33 GMT 36.797916 -80.333900 34,000 217 447 0
2021-09-01 22:03:30 GMT 36.804382 -80.327911 34,000 217 447 -64
2021-09-01 22:03:24 GMT 36.813976 -80.318939 34,000 217 447 -64
2021-09-01 22:03:20 GMT 36.820953 -80.312462 34,000 217 447 0
2021-09-01 22:03:17 GMT 36.826080 -80.307655 34,000 217 446 64
2021-09-01 22:03:10 GMT 36.837811 -80.296738 34,000 217 445 0
2021-09-01 22:03:01 GMT 36.851078 -80.284447 34,000 217 445 64
2021-09-01 22:02:58 GMT 36.856197 -80.279671 34,000 217 445 64
2021-09-01 22:02:52 GMT 36.866592 -80.269974 34,000 217 445 0
2021-09-01 22:02:49 GMT 36.870529 -80.266289 34,000 217 445 64
2021-09-01 22:02:43 GMT 36.883072 -80.254601 34,000 217 445 64
2021-09-01 22:02:39 GMT 36.888039 -80.249992 34,000 217 445 0
2021-09-01 22:02:32 GMT 36.899414 -80.239349 34,000 217 445 -128
2021-09-01 22:02:28 GMT 36.905170 -80.233994 34,000 217 443 -64
2021-09-01 22:02:21 GMT 36.917953 -80.222054 34,000 217 445 0
2021-09-01 22:02:18 GMT 36.922955 -80.217392 34,000 217 445 0
2021-09-01 22:02:15 GMT 36.926605 -80.214043 34,000 217 443 -64
2021-09-01 22:02:12 GMT 36.933197 -80.207848 34,000 217 443 0
2021-09-01 22:02:09 GMT 36.939011 -80.202415 34,000 217 443 64
2021-09-01 22:02:01 GMT 36.958191 -80.184532 34,000 217 444 0
2021-09-01 22:01:57 GMT 36.958191 -80.184532 34,000 217 443 0
2021-09-01 22:01:51 GMT 36.967392 -80.175941 34,000 217 444 64
2021-09-01 22:01:48 GMT 36.972950 -80.170761 34,000 217 444 -64
2021-09-01 22:01:44 GMT 36.978210 -80.165802 34,000 217 444 -64
2021-09-01 22:01:41 GMT 36.984032 -80.160370 34,000 217 444 64
2021-09-01 22:01:38 GMT 36.987762 -80.156891 34,000 217 444 0
2021-09-01 22:01:34 GMT 36.994644 -80.150459 34,000 217 444 -64
2021-09-01 22:01:28 GMT 37.014679 -80.131706 34,000 217 445 -64
2021-09-01 22:01:23 GMT 37.014679 -80.131706 34,000 217 445 0
2021-09-01 22:01:18 GMT 37.023285 -80.123642 34,000 217 445 -64
2021-09-01 22:01:15 GMT 37.035423 -80.112305 34,000 217 445 -64
2021-09-01 22:01:10 GMT 37.035423 -80.112305 34,000 217 445 -64
2021-09-01 22:01:07 GMT 37.039429 -80.108543 34,000 217 445 -64
2021-09-01 22:01:03 GMT 37.045029 -80.103302 34,000 217 445 0
2021-09-01 22:00:59 GMT 37.052555 -80.096306 34,000 217 444 0
2021-09-01 22:00:56 GMT 37.056198 -80.092842 34,000 217 444 0
2021-09-01 22:00:49 GMT 37.069035 -80.080841 34,000 217 444 64
2021-09-01 22:00:46 GMT 37.074600 -80.075607 34,000 217 442 0
2021-09-01 22:00:41 GMT 37.081417 -80.069199 34,000 218 442 64
2021-09-01 22:00:38 GMT 37.088120 -80.062927 34,000 218 442 64
2021-09-01 22:00:35 GMT 37.091381 -80.059822 34,000 218 442 64
2021-09-01 22:00:32 GMT 37.098816 -80.052818 34,000 218 442 64
2021-09-01 22:00:28 GMT 37.103485 -80.048431 34,000 217 442 -64
2021-09-01 22:00:25 GMT 37.109390 -80.042877 34,000 217 442 -64
2021-09-01 22:00:21 GMT 37.114609 -80.038033 34,000 217 442 64
2021-09-01 22:00:16 GMT 37.123077 -80.030022 34,000 217 441 -64
2021-09-01 22:00:13 GMT 37.127365 -80.026024 34,000 217 441 -64
2021-09-01 22:00:10 GMT 37.132233 -80.021431 34,000 217 441 -64
2021-09-01 22:00:07 GMT 37.138443 -80.015579 34,000 217 441 0
2021-09-01 22:00:04 GMT 37.142357 -80.011871 34,000 217 441 64
2021-09-01 22:00:01 GMT 37.148220 -80.006386 34,000 217 440 64
2021-09-01 21:59:57 GMT 37.153992 -80.001007 34,000 217 440 0
2021-09-01 21:59:53 GMT 37.160603 -79.994736 34,000 217 440 0
2021-09-01 21:59:49 GMT 37.166424 -79.989304 34,000 217 440 0
2021-09-01 21:59:46 GMT 37.172562 -79.983505 34,000 217 440 -64
2021-09-01 21:59:40 GMT 37.182358 -79.974274 34,000 217 440 64
2021-09-01 21:59:37 GMT 37.187027 -79.969894 34,000 217 440 64
2021-09-01 21:59:34 GMT 37.193481 -79.963814 34,000 217 441 0
2021-09-01 21:59:30 GMT 37.198013 -79.959549 34,000 217 441 -64
2021-09-01 21:59:26 GMT 37.203663 -79.954254 34,000 217 442 -64
2021-09-01 21:59:23 GMT 37.210182 -79.948105 34,000 217 442 0
2021-09-01 21:59:19 GMT 37.223167 -79.935867 34,000 218 444 64
2021-09-01 21:59:15 GMT 37.223167 -79.935867 34,000 218 444 64
2021-09-01 21:59:10 GMT 37.231476 -79.927994 34,000 218 445 64
2021-09-01 21:59:03 GMT 37.243698 -79.916458 34,000 218 446 -64
2021-09-01 21:58:58 GMT 37.250309 -79.910255 34,000 218 446 -64
2021-09-01 21:58:52 GMT 37.260830 -79.900284 34,000 218 446 0
2021-09-01 21:58:48 GMT 37.266312 -79.895149 34,000 218 446 64
2021-09-01 21:58:42 GMT 37.277309 -79.884758 34,000 218 445 -64
2021-09-01 21:58:38 GMT 37.284210 -79.878204 34,000 218 444 0
2021-09-01 21:58:34 GMT 37.290390 -79.872337 34,000 218 444 64
2021-09-01 21:58:31 GMT 37.296349 -79.866722 34,000 218 444 0
2021-09-01 21:58:27 GMT 37.301609 -79.861771 34,000 217 445 -64
2021-09-01 21:58:23 GMT 37.308781 -79.855019 34,000 217 445 -64
2021-09-01 21:58:20 GMT 37.312130 -79.851799 34,000 217 445 0
2021-09-01 21:58:13 GMT 37.324997 -79.839691 34,000 218 446 64
2021-09-01 21:58:09 GMT 37.330566 -79.834419 34,000 218 446 0
2021-09-01 21:58:06 GMT 37.335873 -79.829407 34,000 218 446 0
2021-09-01 21:58:02 GMT 37.343445 -79.822220 34,000 218 446 0
2021-09-01 21:57:59 GMT 37.346649 -79.819183 34,000 218 446 0
2021-09-01 21:57:56 GMT 37.351364 -79.814735 34,000 218 446 64
2021-09-01 21:57:51 GMT 37.361893 -79.804749 34,000 218 445 0
2021-09-01 21:57:47 GMT 37.368088 -79.798897 34,000 218 446 0
2021-09-01 21:57:41 GMT 37.376404 -79.791016 34,000 218 446 0
2021-09-01 21:57:38 GMT 37.382610 -79.785103 34,000 218 446 64
2021-09-01 21:57:35 GMT 37.386108 -79.781776 34,000 218 446 64
2021-09-01 21:57:32 GMT 37.392525 -79.775726 34,000 218 445 -64
2021-09-01 21:57:28 GMT 37.398743 -79.769798 34,000 218 445 0
2021-09-01 21:57:25 GMT 37.403698 -79.765160 34,000 218 445 0
2021-09-01 21:57:22 GMT 37.409180 -79.759926 34,000 218 445 -64
2021-09-01 21:57:19 GMT 37.418827 -79.750771 34,000 218 445 0
2021-09-01 21:57:16 GMT 37.423691 -79.746193 34,000 218 445 64
2021-09-01 21:57:10 GMT 37.427345 -79.742706 34,000 218 445 64
2021-09-01 21:57:07 GMT 37.432205 -79.738068 34,000 218 445 -128
2021-09-01 21:57:04 GMT 37.437218 -79.733337 34,000 218 445 -128
2021-09-01 21:57:01 GMT 37.443420 -79.727432 34,000 218 445 0
2021-09-01 21:56:58 GMT 37.450012 -79.721184 34,000 218 445 0
2021-09-01 21:56:55 GMT 37.453308 -79.718025 34,000 218 444 0
2021-09-01 21:56:50 GMT 37.460403 -79.711304 34,000 218 444 64
2021-09-01 21:56:47 GMT 37.466309 -79.705696 34,000 218 444 -64
2021-09-01 21:56:44 GMT 37.470688 -79.701515 34,000 218 444 0
2021-09-01 21:56:40 GMT 37.477249 -79.695305 34,000 218 444 -64
2021-09-01 21:56:37 GMT 37.484756 -79.688164 34,000 218 444 -64
2021-09-01 21:56:33 GMT 37.488052 -79.685005 34,000 218 444 64
2021-09-01 21:56:30 GMT 37.493591 -79.679718 34,000 218 443 64
2021-09-01 21:56:27 GMT 37.499176 -79.674431 34,000 218 443 64
2021-09-01 21:56:23 GMT 37.505928 -79.668015 34,000 218 443 64
2021-09-01 21:56:19 GMT 37.513748 -79.660553 34,000 218 444 -64
2021-09-01 21:56:15 GMT 37.517799 -79.656670 34,000 218 443 64
2021-09-01 21:56:12 GMT 37.523941 -79.650818 34,000 218 443 64
2021-09-01 21:56:08 GMT 37.531219 -79.643929 34,000 218 443 64
2021-09-01 21:56:04 GMT 37.535301 -79.640015 34,000 218 443 64
2021-09-01 21:56:01 GMT 37.540237 -79.635330 34,000 218 444 64
2021-09-01 21:55:58 GMT 37.545265 -79.630516 34,000 218 444 0
2021-09-01 21:55:55 GMT 37.552479 -79.623650 34,000 218 444 0
2021-09-01 21:55:49 GMT 37.572464 -79.604652 34,000 218 444 0
2021-09-01 21:55:42 GMT 37.572464 -79.604652 34,000 218 444 -64
2021-09-01 21:55:39 GMT 37.578037 -79.599289 34,000 218 444 0
2021-09-01 21:55:36 GMT 37.582600 -79.594933 34,000 218 444 0
2021-09-01 21:55:31 GMT 37.590820 -79.587120 34,000 218 444 -64
2021-09-01 21:55:28 GMT 37.595074 -79.583054 34,000 218 445 0
2021-09-01 21:55:24 GMT 37.600288 -79.578033 34,000 218 445 0
2021-09-01 21:55:20 GMT 37.607365 -79.571289 34,000 218 444 -64
2021-09-01 21:55:17 GMT 37.612427 -79.566437 34,000 218 445 0
2021-09-01 21:55:14 GMT 37.618027 -79.561134 34,000 218 444 0
2021-09-01 21:55:11 GMT 37.623940 -79.555466 34,000 218 444 -64
2021-09-01 21:55:07 GMT 37.630783 -79.548904 34,000 218 444 -64
2021-09-01 21:55:00 GMT 37.641953 -79.538269 34,000 218 444 0
2021-09-01 21:54:57 GMT 37.646839 -79.533554 34,000 218 443 64
2021-09-01 21:54:54 GMT 37.650799 -79.529793 34,000 218 443 64
2021-09-01 21:54:50 GMT 37.657654 -79.523247 34,000 218 443 0
2021-09-01 21:54:45 GMT 37.665482 -79.515709 34,000 218 443 -64
2021-09-01 21:54:38 GMT 37.677887 -79.503845 34,000 218 443 -64
2021-09-01 21:54:34 GMT 37.682465 -79.499466 34,000 218 443 0
2021-09-01 21:54:28 GMT 37.692261 -79.490112 34,000 218 442 64
2021-09-01 21:54:25 GMT 37.697479 -79.485092 34,000 218 442 0
2021-09-01 21:54:21 GMT 37.705948 -79.477028 34,000 218 442 0
2021-09-01 21:54:18 GMT 37.710526 -79.472641 34,000 218 442 0
2021-09-01 21:54:15 GMT 37.713459 -79.469788 34,000 218 442 64
2021-09-01 21:54:12 GMT 37.719975 -79.463577 34,000 218 442 64
2021-09-01 21:54:07 GMT 37.726494 -79.457306 34,000 218 442 0
2021-09-01 21:54:03 GMT 37.734314 -79.449783 34,000 218 442 0
2021-09-01 21:53:56 GMT 37.746368 -79.438225 34,000 218 442 0
2021-09-01 21:53:52 GMT 37.751209 -79.433540 34,000 218 442 0
2021-09-01 21:53:46 GMT 37.762291 -79.422913 34,000 218 442 0
2021-09-01 21:53:42 GMT 37.768108 -79.417358 34,000 218 442 0
2021-09-01 21:53:35 GMT 37.797390 -79.389236 34,000 218 441 0
2021-09-01 21:53:25 GMT 37.797390 -79.389236 34,000 218 441 0
2021-09-01 21:53:22 GMT 37.801304 -79.385475 34,000 218 441 0
2021-09-01 21:53:13 GMT 37.814941 -79.372337 34,000 218 441 0
2021-09-01 21:53:06 GMT 37.826385 -79.361374 34,000 218 441 0
2021-09-01 21:53:03 GMT 37.830917 -79.356934 34,000 218 441 64
2021-09-01 21:52:54 GMT 37.847481 -79.340996 34,000 218 441 -64
2021-09-01 21:52:47 GMT 37.857815 -79.331078 34,000 218 441 0
2021-09-01 21:52:43 GMT 37.864380 -79.324753 34,000 218 441 64
2021-09-01 21:52:40 GMT 37.868942 -79.320396 34,000 218 441 0
2021-09-01 21:52:35 GMT 37.876328 -79.313286 34,000 218 441 0
2021-09-01 21:52:31 GMT 37.884201 -79.305626 34,000 218 441 0
2021-09-01 21:52:27 GMT 37.889099 -79.300926 34,000 218 441 64
2021-09-01 21:52:22 GMT 37.898735 -79.291611 34,000 218 441 0
2021-09-01 21:52:18 GMT 37.904984 -79.285583 34,000 218 441 0
2021-09-01 21:52:14 GMT 37.911816 -79.279015 34,000 218 441 0
2021-09-01 21:52:10 GMT 37.918579 -79.272491 34,000 218 441 0
2021-09-01 21:52:07 GMT 37.921593 -79.269585 34,000 218 442 0
2021-09-01 21:52:02 GMT 37.931320 -79.260208 34,000 218 442 0
2021-09-01 21:51:58 GMT 37.938034 -79.253738 34,000 218 442 -64
2021-09-01 21:51:53 GMT 37.946548 -79.245499 34,000 218 442 -64
2021-09-01 21:51:48 GMT 37.953781 -79.238541 34,000 218 442 0
2021-09-01 21:51:42 GMT 37.962559 -79.230057 34,000 218 442 64
2021-09-01 21:51:38 GMT 37.969391 -79.223404 34,000 218 442 64
2021-09-01 21:51:35 GMT 37.974335 -79.218651 34,000 218 442 64
2021-09-01 21:51:27 GMT 37.986374 -79.206985 34,000 218 442 0
2021-09-01 21:51:23 GMT 37.993515 -79.200089 34,000 218 442 64
2021-09-01 21:51:18 GMT 38.002968 -79.191010 34,000 218 442 0
2021-09-01 21:51:15 GMT 38.007996 -79.186050 34,000 218 442 -64
2021-09-01 21:51:09 GMT 38.016220 -79.178116 34,000 218 442 0
2021-09-01 21:51:05 GMT 38.023315 -79.171219 34,000 218 442 0
2021-09-01 21:51:02 GMT 38.028942 -79.165810 34,000 218 442 0
2021-09-01 21:50:59 GMT 38.032108 -79.162704 34,000 218 442 0
2021-09-01 21:50:55 GMT 38.039974 -79.155060 34,000 218 442 -64
2021-09-01 21:50:49 GMT 38.048767 -79.146561 34,000 218 442 0
2021-09-01 21:50:46 GMT 38.053616 -79.141808 34,000 218 442 -64
2021-09-01 21:50:41 GMT 38.064648 -79.131058 34,000 218 442 -64
2021-09-01 21:50:39 GMT 38.064648 -79.131058 34,000 218 442 0
2021-09-01 21:50:35 GMT 38.073395 -79.122543 34,000 218 442 0
2021-09-01 21:50:31 GMT 38.079254 -79.116875 34,000 218 442 0
2021-09-01 21:50:28 GMT 38.082851 -79.113441 34,000 218 442 0
2021-09-01 21:50:24 GMT 38.089924 -79.106522 34,000 218 442 0
2021-09-01 21:50:20 GMT 38.097427 -79.099281 34,000 218 442 64
2021-09-01 21:50:13 GMT 38.107178 -79.089813 34,000 218 442 64
2021-09-01 21:50:09 GMT 38.113808 -79.083351 34,000 218 441 0
2021-09-01 21:50:03 GMT 38.125679 -79.071831 34,000 218 442 0
2021-09-01 21:49:58 GMT 38.131165 -79.066444 34,000 218 442 -64
2021-09-01 21:49:53 GMT 38.141132 -79.056778 34,000 218 442 -64
2021-09-01 21:49:49 GMT 38.147697 -79.050392 34,000 218 442 0
2021-09-01 21:49:42 GMT 38.158684 -79.039642 34,000 218 442 0
2021-09-01 21:49:37 GMT 38.165249 -79.033318 34,000 218 442 64
2021-09-01 21:49:32 GMT 38.174652 -79.024132 34,000 218 442 64
2021-09-01 21:49:26 GMT 38.186371 -79.012733 34,000 218 442 64
2021-09-01 21:49:22 GMT 38.196075 -79.003273 34,000 218 442 0
2021-09-01 21:49:19 GMT 38.196075 -79.003273 34,000 218 442 0
2021-09-01 21:49:17 GMT 38.197693 -79.001671 34,000 218 441 0
2021-09-01 21:49:11 GMT 38.208076 -78.991577 34,000 218 442 0
2021-09-01 21:49:08 GMT 38.214249 -78.985565 34,000 218 442 0
2021-09-01 21:49:02 GMT 38.222225 -78.977783 34,000 218 441 64
2021-09-01 21:48:58 GMT 38.231735 -78.968498 34,000 218 441 0
2021-09-01 21:48:51 GMT 38.239517 -78.960899 34,000 218 442 64
2021-09-01 21:48:48 GMT 38.245880 -78.954651 34,000 218 442 0
2021-09-01 21:48:46 GMT 38.248249 -78.952354 34,000 218 442 -64
2021-09-01 21:48:41 GMT 38.256317 -78.944420 34,000 218 442 -64
2021-09-01 21:48:36 GMT 38.265884 -78.935127 34,000 218 442 -64
2021-09-01 21:48:32 GMT 38.272179 -78.928947 34,000 218 442 0
2021-09-01 21:48:27 GMT 38.279160 -78.922081 34,000 218 442 0
2021-09-01 21:48:23 GMT 38.285027 -78.916405 34,000 218 442 64
2021-09-01 21:48:19 GMT 38.291290 -78.910240 34,000 218 442 0
2021-09-01 21:48:16 GMT 38.299072 -78.902641 34,000 218 443 64
2021-09-01 21:48:12 GMT 38.304577 -78.897240 34,000 218 442 0
2021-09-01 21:48:05 GMT 38.314167 -78.887810 34,000 218 443 64
2021-09-01 21:48:01 GMT 38.322281 -78.879906 34,000 218 443 64
2021-09-01 21:47:56 GMT 38.330555 -78.871803 34,000 218 443 64
2021-09-01 21:47:53 GMT 38.335419 -78.866997 34,000 218 443 64
2021-09-01 21:47:46 GMT 38.345856 -78.856827 34,000 218 444 -64
2021-09-01 21:47:44 GMT 38.348465 -78.854256 34,000 218 444 -64
2021-09-01 21:47:40 GMT 38.361465 -78.841515 34,000 218 444 0
2021-09-01 21:47:36 GMT 38.361465 -78.841515 34,000 218 444 64
2021-09-01 21:47:34 GMT 38.364716 -78.838356 34,000 218 444 64
2021-09-01 21:47:30 GMT 38.372173 -78.830963 34,000 218 444 -64
2021-09-01 21:47:25 GMT 38.380646 -78.822662 34,000 218 444 -64
2021-09-01 21:47:23 GMT 38.384415 -78.819023 34,000 218 444 -64
2021-09-01 21:47:17 GMT 38.394012 -78.809547 34,000 218 444 0
2021-09-01 21:47:10 GMT 38.403763 -78.799965 34,000 218 444 -64
2021-09-01 21:47:07 GMT 38.409927 -78.793884 34,000 218 444 64
2021-09-01 21:47:03 GMT 38.415001 -78.788940 34,000 218 444 64
2021-09-01 21:46:58 GMT 38.423904 -78.780212 34,000 218 444 -64
2021-09-01 21:46:56 GMT 38.426823 -78.777283 34,000 218 444 -64
2021-09-01 21:46:53 GMT 38.432690 -78.771545 34,000 218 444 0
2021-09-01 21:46:48 GMT 38.439514 -78.764870 34,000 218 444 0
2021-09-01 21:46:46 GMT 38.443405 -78.760986 34,000 218 444 0
2021-09-01 21:46:41 GMT 38.452423 -78.752151 34,000 218 444 -64
2021-09-01 21:46:37 GMT 38.457047 -78.747551 34,000 218 444 0
2021-09-01 21:46:35 GMT 38.461273 -78.743408 34,000 218 444 0
2021-09-01 21:46:30 GMT 38.468765 -78.736031 34,000 218 444 64
2021-09-01 21:46:27 GMT 38.474960 -78.729980 34,000 218 444 64
2021-09-01 21:46:24 GMT 38.478424 -78.726532 34,000 218 444 0
2021-09-01 21:46:20 GMT 38.485016 -78.720024 34,000 218 444 0
2021-09-01 21:46:17 GMT 38.489807 -78.715332 34,000 218 444 64
2021-09-01 21:46:15 GMT 38.494034 -78.711128 34,000 218 444 64
2021-09-01 21:46:13 GMT 38.498016 -78.707253 34,000 218 444 0
2021-09-01 21:46:10 GMT 38.501266 -78.704025 34,000 218 444 0
2021-09-01 21:46:05 GMT 38.510376 -78.695068 34,000 218 444 0
2021-09-01 21:46:02 GMT 38.514481 -78.690979 34,000 218 444 0
2021-09-01 21:45:57 GMT 38.523331 -78.682289 34,000 218 444 0
2021-09-01 21:45:55 GMT 38.527267 -78.678413 34,000 218 444 0
2021-09-01 21:45:49 GMT 38.535049 -78.670708 34,000 218 444 0
2021-09-01 21:45:46 GMT 38.540863 -78.664978 34,000 218 444 -64
2021-09-01 21:45:44 GMT 38.544754 -78.661156 34,000 218 444 0
2021-09-01 21:45:40 GMT 38.550934 -78.655029 34,000 218 444 0
2021-09-01 21:45:34 GMT 38.560318 -78.645752 34,000 218 443 0
2021-09-01 21:45:30 GMT 38.567459 -78.638702 34,000 218 442 0
2021-09-01 21:45:26 GMT 38.574257 -78.632019 34,000 218 442 0
2021-09-01 21:45:22 GMT 38.578815 -78.627502 34,000 218 443 64
2021-09-01 21:45:18 GMT 38.585541 -78.620850 34,000 218 443 64
2021-09-01 21:45:14 GMT 38.593063 -78.613464 34,000 218 442 0
2021-09-01 21:45:12 GMT 38.594604 -78.611893 34,000 218 442 -64
2021-09-01 21:45:10 GMT 38.599228 -78.607300 34,000 218 442 64
2021-09-01 21:45:07 GMT 38.604095 -78.602478 34,000 218 442 0
2021-09-01 21:45:04 GMT 38.608658 -78.598022 34,000 218 442 64
2021-09-01 21:45:02 GMT 38.611916 -78.594788 34,000 218 441 64
2021-09-01 21:44:57 GMT 38.621201 -78.585564 34,000 218 441 -64
2021-09-01 21:44:54 GMT 38.625183 -78.581619 34,000 218 441 -64
2021-09-01 21:44:52 GMT 38.627464 -78.579407 34,000 218 441 0
2021-09-01 21:44:49 GMT 38.633190 -78.573730 34,000 218 441 64
2021-09-01 21:44:46 GMT 38.637798 -78.569153 34,000 218 441 64
2021-09-01 21:44:43 GMT 38.642967 -78.564087 34,000 218 441 64
2021-09-01 21:44:40 GMT 38.651997 -78.555115 34,000 218 434 64
2021-09-01 21:44:37 GMT 38.651997 -78.555115 34,000 218 441 -128
2021-09-01 21:44:34 GMT 38.656513 -78.550659 34,000 218 441 -64
2021-09-01 21:44:31 GMT 38.662193 -78.544983 34,000 218 441 64
2021-09-01 21:44:29 GMT 38.665192 -78.542038 34,000 218 440 64
2021-09-01 21:44:25 GMT 38.673225 -78.534058 34,000 218 439 0
2021-09-01 21:44:21 GMT 38.678009 -78.529259 34,000 218 439 64
2021-09-01 21:44:15 GMT 38.688263 -78.519112 34,000 218 438 0
2021-09-01 21:44:12 GMT 38.693390 -78.514030 34,000 218 438 0
2021-09-01 21:44:09 GMT 38.697433 -78.510010 34,000 218 437 -128
2021-09-01 21:44:06 GMT 38.701344 -78.506104 34,000 218 437 -128
2021-09-01 21:44:03 GMT 38.706161 -78.501312 34,000 218 436 0
2021-09-01 21:44:00 GMT 38.710648 -78.496895 34,000 218 436 -64
2021-09-01 21:43:56 GMT 38.717312 -78.490234 34,000 218 434 64
2021-09-01 21:43:53 GMT 38.723038 -78.484558 34,000 218 434 0
2021-09-01 21:43:50 GMT 38.728409 -78.479225 34,000 218 433 -64
2021-09-01 21:43:47 GMT 38.733044 -78.474609 34,000 218 433 64
2021-09-01 21:43:44 GMT 38.737514 -78.470154 34,000 218 432 64
2021-09-01 21:43:41 GMT 38.742325 -78.465370 34,000 218 432 64
2021-09-01 21:43:37 GMT 38.749237 -78.458504 34,000 218 432 64
2021-09-01 21:43:31 GMT 38.758415 -78.449341 34,000 218 431 0
2021-09-01 21:43:28 GMT 38.762421 -78.445366 34,000 218 431 -64
2021-09-01 21:43:25 GMT 38.766266 -78.441605 34,000 218 431 0
2021-09-01 21:43:22 GMT 38.771347 -78.436531 34,000 218 431 -64
2021-09-01 21:43:20 GMT 38.774460 -78.433426 34,000 218 431 -64
2021-09-01 21:43:18 GMT 38.777969 -78.429932 34,000 218 431 -64
2021-09-01 21:43:13 GMT 38.786114 -78.421875 34,000 218 431 64
2021-09-01 21:43:10 GMT 38.791840 -78.416138 34,000 218 431 64
2021-09-01 21:43:07 GMT 38.795006 -78.412964 34,000 218 431 64
2021-09-01 21:43:03 GMT 38.802246 -78.405785 34,000 218 431 64
2021-09-01 21:43:00 GMT 38.806000 -78.402023 34,000 219 430 0
2021-09-01 21:42:57 GMT 38.810741 -78.397278 34,000 218 431 -64
2021-09-01 21:42:50 GMT 38.822342 -78.385719 34,000 218 431 -64
2021-09-01 21:42:44 GMT 38.830853 -78.377258 34,000 218 431 64
2021-09-01 21:42:41 GMT 38.840561 -78.367508 34,000 219 431 64
2021-09-01 21:42:39 GMT 38.840561 -78.367508 34,000 219 431 64
2021-09-01 21:42:33 GMT 38.849991 -78.358131 34,000 219 431 64
2021-09-01 21:42:29 GMT 38.854431 -78.353714 34,000 219 431 -64
2021-09-01 21:42:24 GMT 38.863220 -78.344879 34,000 218 432 -64
2021-09-01 21:42:19 GMT 38.872982 -78.335144 34,000 218 432 64
2021-09-01 21:42:14 GMT 38.880569 -78.327576 34,000 218 432 0
2021-09-01 21:42:09 GMT 38.887505 -78.320679 34,000 218 433 64
2021-09-01 21:42:06 GMT 38.890671 -78.317505 34,000 218 432 0
2021-09-01 21:42:02 GMT 38.897919 -78.310249 34,000 219 433 -64
2021-09-01 21:41:58 GMT 38.905056 -78.303101 34,000 218 433 64
2021-09-01 21:41:55 GMT 38.908966 -78.299194 34,000 218 433 64
2021-09-01 21:41:51 GMT 38.916916 -78.291321 34,000 218 433 128
2021-09-01 21:41:48 GMT 38.925957 -78.282227 34,000 219 434 -64
2021-09-01 21:41:44 GMT 38.925957 -78.282227 34,000 219 435 -64
2021-09-01 21:41:41 GMT 38.930519 -78.277649 34,000 219 435 -64
2021-09-01 21:41:38 GMT 38.935913 -78.272270 34,000 219 435 -64
2021-09-01 21:41:36 GMT 38.940666 -78.267517 34,000 219 435 -64
2021-09-01 21:41:33 GMT 38.946075 -78.262123 34,000 219 435 -64
2021-09-01 21:41:30 GMT 38.947651 -78.260498 34,000 219 435 -64
2021-09-01 21:41:27 GMT 38.953674 -78.254417 34,000 219 435 64
2021-09-01 21:41:23 GMT 38.958755 -78.249344 34,000 219 435 -64
2021-09-01 21:41:20 GMT 38.965294 -78.242859 34,000 218 434 64
2021-09-01 21:41:17 GMT 38.969856 -78.238281 34,000 218 434 64
2021-09-01 21:41:15 GMT 38.972416 -78.235718 34,000 219 434 0
2021-09-01 21:41:11 GMT 38.977798 -78.230362 34,000 219 433 0
2021-09-01 21:41:07 GMT 38.984116 -78.224030 34,000 219 433 -64
2021-09-01 21:41:03 GMT 38.990433 -78.217644 34,000 219 432 64
2021-09-01 21:41:00 GMT 38.997345 -78.210716 34,000 219 431 64
2021-09-01 21:40:57 GMT 39.001099 -78.206894 34,000 219 430 0
2021-09-01 21:40:55 GMT 39.005188 -78.202820 34,000 219 430 0
2021-09-01 21:40:49 GMT 39.012405 -78.195549 34,000 219 429 64
2021-09-01 21:40:46 GMT 39.018677 -78.189278 34,000 219 429 64
2021-09-01 21:40:43 GMT 39.022087 -78.185852 34,000 219 429 64
2021-09-01 21:40:40 GMT 39.027969 -78.179962 34,000 219 429 0
2021-09-01 21:40:36 GMT 39.033691 -78.174232 34,000 219 424 64
2021-09-01 21:40:32 GMT 39.040802 -78.167053 34,000 219 428 64
2021-09-01 21:40:27 GMT 39.053558 -78.154228 34,000 219 427 0
2021-09-01 21:40:24 GMT 39.053558 -78.154228 34,000 219 426 0
2021-09-01 21:40:21 GMT 39.057312 -78.150467 34,000 219 425 -64
2021-09-01 21:40:16 GMT 39.065102 -78.142639 34,000 219 425 -64
2021-09-01 21:40:13 GMT 39.070953 -78.136673 34,000 219 425 -64
2021-09-01 21:40:10 GMT 39.074066 -78.133568 34,000 219 424 64
2021-09-01 21:40:06 GMT 39.079605 -78.128021 34,000 219 423 64
2021-09-01 21:40:04 GMT 39.083023 -78.124573 34,000 219 423 0
2021-09-01 21:40:01 GMT 39.089077 -78.118469 34,000 219 422 -64
2021-09-01 21:39:58 GMT 39.092243 -78.115234 34,000 219 422 -64
2021-09-01 21:39:55 GMT 39.098293 -78.109131 34,000 219 422 0
2021-09-01 21:39:50 GMT 39.105423 -78.101929 34,000 219 420 64
2021-09-01 21:39:47 GMT 39.109726 -78.097626 34,000 219 420 0
2021-09-01 21:39:44 GMT 39.113701 -78.093628 34,000 219 420 0
2021-09-01 21:39:41 GMT 39.119476 -78.087776 34,000 219 419 -64
2021-09-01 21:39:38 GMT 39.124084 -78.083130 34,000 219 419 -64
2021-09-01 21:39:35 GMT 39.128036 -78.079117 34,000 219 419 0
2021-09-01 21:39:33 GMT 39.130695 -78.076477 34,000 219 419 0
2021-09-01 21:39:29 GMT 39.136372 -78.070740 34,000 219 418 0
2021-09-01 21:39:25 GMT 39.143417 -78.063652 34,000 219 418 64
2021-09-01 21:39:23 GMT 39.146988 -78.060013 34,000 219 418 64
2021-09-01 21:39:20 GMT 39.152481 -78.054520 34,000 219 417 64
2021-09-01 21:39:17 GMT 39.154716 -78.052307 34,000 219 417 128
2021-09-01 21:39:14 GMT 39.159256 -78.047653 34,000 219 417 64
2021-09-01 21:39:11 GMT 39.164108 -78.042816 34,000 219 417 -64
2021-09-01 21:39:08 GMT 39.168633 -78.038208 34,000 219 416 -64
2021-09-01 21:39:05 GMT 39.173218 -78.033562 34,000 219 417 0
2021-09-01 21:39:02 GMT 39.179123 -78.027588 34,000 219 416 64
2021-09-01 21:38:59 GMT 39.188370 -78.018272 34,000 219 416 64
2021-09-01 21:38:56 GMT 39.188370 -78.018272 34,000 219 416 0
2021-09-01 21:38:53 GMT 39.192581 -78.014038 34,000 219 416 -128
2021-09-01 21:38:50 GMT 39.195263 -78.011292 34,000 219 416 -128
2021-09-01 21:38:47 GMT 39.199905 -78.006630 34,000 219 417 -64
2021-09-01 21:38:43 GMT 39.206497 -77.999947 34,000 219 417 -64
2021-09-01 21:38:41 GMT 39.210800 -77.995644 34,000 219 417 -128
2021-09-01 21:38:38 GMT 39.213821 -77.992538 34,000 219 417 0
2021-09-01 21:38:35 GMT 39.219910 -77.986389 34,000 219 418 0
2021-09-01 21:38:32 GMT 39.223572 -77.982689 34,000 219 418 -64
2021-09-01 21:38:26 GMT 39.231491 -77.974686 34,000 219 417 -64
2021-09-01 21:38:22 GMT 39.238930 -77.967163 34,000 219 419 192
2021-09-01 21:38:19 GMT 39.242001 -77.964050 33,975 219 419 192
2021-09-01 21:38:16 GMT 39.247147 -77.958801 33,975 219 419 0
2021-09-01 21:38:13 GMT 39.252136 -77.953728 34,000 219 420 -128
2021-09-01 21:38:11 GMT 39.256107 -77.949707 34,000 219 420 -128
2021-09-01 21:38:07 GMT 39.261795 -77.943939 34,000 219 420 64
2021-09-01 21:38:02 GMT 39.270023 -77.935608 34,000 219 420 -64
2021-09-01 21:37:59 GMT 39.274017 -77.931580 34,000 219 420 -128
2021-09-01 21:37:56 GMT 39.279194 -77.926331 34,000 219 420 64
2021-09-01 21:37:52 GMT 39.284691 -77.920776 34,000 219 419 0
2021-09-01 21:37:50 GMT 39.287853 -77.917542 34,000 219 419 0
2021-09-01 21:37:47 GMT 39.291779 -77.913544 34,000 219 418 64
2021-09-01 21:37:44 GMT 39.297729 -77.907516 34,000 219 418 64
2021-09-01 21:37:40 GMT 39.303635 -77.901489 34,000 219 418 64
2021-09-01 21:37:37 GMT 39.306568 -77.898560 34,000 219 417 64
2021-09-01 21:37:34 GMT 39.312153 -77.892883 34,000 219 417 64
2021-09-01 21:37:31 GMT 39.316132 -77.888885 34,000 219 417 64
2021-09-01 21:37:29 GMT 39.319153 -77.885780 34,000 219 417 64
2021-09-01 21:37:26 GMT 39.324306 -77.880554 34,000 219 417 0
2021-09-01 21:37:21 GMT 39.331009 -77.873718 34,000 219 417 0
2021-09-01 21:37:18 GMT 39.335850 -77.868774 34,000 219 417 0
2021-09-01 21:37:15 GMT 39.339798 -77.864822 34,000 219 418 -128
2021-09-01 21:37:11 GMT 39.346481 -77.858017 34,000 219 418 -64
2021-09-01 21:37:08 GMT 39.350933 -77.853455 34,000 219 419 0
2021-09-01 21:37:05 GMT 39.363083 -77.841064 34,000 219 415 -64
2021-09-01 21:37:01 GMT 39.363083 -77.841064 34,000 219 419 64
2021-09-01 21:36:58 GMT 39.366108 -77.838013 34,000 219 419 64
2021-09-01 21:36:54 GMT 39.371338 -77.832703 34,000 219 415 -64
2021-09-01 21:36:50 GMT 39.377518 -77.826431 34,000 219 419 64
2021-09-01 21:36:48 GMT 39.381775 -77.822075 34,000 219 418 0
2021-09-01 21:36:45 GMT 39.387222 -77.816521 34,000 219 417 64
2021-09-01 21:36:42 GMT 39.389648 -77.814072 34,000 219 418 64
2021-09-01 21:36:39 GMT 39.395737 -77.807861 34,000 219 417 64
2021-09-01 21:36:36 GMT 39.399578 -77.803955 34,000 219 418 0
2021-09-01 21:36:33 GMT 39.404846 -77.798607 34,000 219 417 -64
2021-09-01 21:36:30 GMT 39.408508 -77.794846 34,000 219 417 -128
2021-09-01 21:36:26 GMT 39.416245 -77.786964 34,000 219 417 64
2021-09-01 21:36:23 GMT 39.420948 -77.782227 34,000 219 417 64
2021-09-01 21:36:19 GMT 39.424850 -77.778191 34,000 219 417 64
2021-09-01 21:36:16 GMT 39.430939 -77.771980 34,000 219 417 -64
2021-09-01 21:36:13 GMT 39.434601 -77.768272 34,000 219 417 -64
2021-09-01 21:36:10 GMT 39.440048 -77.762726 34,000 219 417 -128
2021-09-01 21:36:08 GMT 39.443665 -77.759018 34,000 219 417 -128
2021-09-01 21:36:05 GMT 39.447327 -77.755318 34,000 219 417 0
2021-09-01 21:36:02 GMT 39.455349 -77.747070 34,000 219 417 64
2021-09-01 21:35:59 GMT 39.455349 -77.747070 34,000 219 417 64
2021-09-01 21:35:57 GMT 39.458817 -77.743561 34,000 219 415 0
2021-09-01 21:35:53 GMT 39.466335 -77.735901 34,000 219 416 -64
2021-09-01 21:35:49 GMT 39.470764 -77.731377 34,000 219 415 -64
2021-09-01 21:35:47 GMT 39.475414 -77.726624 34,000 219 415 0
2021-09-01 21:35:44 GMT 39.478348 -77.723572 34,000 219 415 64
2021-09-01 21:35:41 GMT 39.483746 -77.718079 34,000 219 415 -64
2021-09-01 21:35:38 GMT 39.487377 -77.714355 34,000 219 415 0
2021-09-01 21:35:35 GMT 39.491867 -77.709763 34,000 219 415 -64
2021-09-01 21:35:32 GMT 39.498001 -77.703552 34,000 219 415 -64
2021-09-01 21:35:29 GMT 39.501572 -77.699913 34,000 219 415 0
2021-09-01 21:35:24 GMT 39.509678 -77.691589 34,000 219 415 0
2021-09-01 21:35:21 GMT 39.515217 -77.685974 34,000 219 415 -64
2021-09-01 21:35:18 GMT 39.517590 -77.683533 34,000 219 416 -64
2021-09-01 21:35:16 GMT 39.521267 -77.679749 34,000 219 417 64
2021-09-01 21:35:12 GMT 39.533325 -77.667419 34,000 219 417 -64
2021-09-01 21:35:08 GMT 39.533325 -77.667419 34,000 219 418 128
2021-09-01 21:35:03 GMT 39.541672 -77.658829 34,000 219 419 0
2021-09-01 21:34:59 GMT 39.545567 -77.654907 34,000 219 419 0
2021-09-01 21:34:56 GMT 39.552567 -77.647728 34,000 219 419 64
2021-09-01 21:34:53 GMT 39.557114 -77.643005 34,000 219 419 64
2021-09-01 21:34:50 GMT 39.561722 -77.638290 34,000 219 418 -64
2021-09-01 21:34:47 GMT 39.563862 -77.636108 34,000 219 419 -64
2021-09-01 21:34:44 GMT 39.570740 -77.629097 34,000 219 418 -64
2021-09-01 21:34:41 GMT 39.573593 -77.626160 34,000 219 419 64
2021-09-01 21:34:38 GMT 39.578751 -77.620918 34,000 219 418 64
2021-09-01 21:34:35 GMT 39.583927 -77.615601 34,000 219 418 64
2021-09-01 21:34:32 GMT 39.588455 -77.610947 34,000 219 419 -64
2021-09-01 21:34:28 GMT 39.597286 -77.601868 34,000 219 419 0
2021-09-01 21:34:22 GMT 39.601570 -77.597534 34,000 219 421 64
2021-09-01 21:34:19 GMT 39.606720 -77.592255 34,000 219 422 64
2021-09-01 21:34:16 GMT 39.611347 -77.587463 34,000 219 422 -64
2021-09-01 21:34:13 GMT 39.617493 -77.581177 34,000 219 424 -128
2021-09-01 21:34:10 GMT 39.621964 -77.576553 34,000 219 425 -192
2021-09-01 21:34:06 GMT 39.627918 -77.570496 34,000 219 426 64
2021-09-01 21:34:02 GMT 39.637787 -77.560303 34,000 219 428 0
2021-09-01 21:33:59 GMT 39.637787 -77.560303 34,000 219 428 0
2021-09-01 21:33:56 GMT 39.642815 -77.555115 34,000 219 429 64
2021-09-01 21:33:52 GMT 39.648960 -77.548828 34,000 219 430 0
2021-09-01 21:33:49 GMT 39.653687 -77.543953 34,000 219 430 0
2021-09-01 21:33:46 GMT 39.658363 -77.539124 34,000 219 430 -192
2021-09-01 21:33:41 GMT 39.666512 -77.530762 34,000 219 431 192
2021-09-01 21:33:38 GMT 39.671173 -77.525917 34,000 219 431 256
2021-09-01 21:33:35 GMT 39.674332 -77.522697 34,000 219 432 192
2021-09-01 21:33:32 GMT 39.679638 -77.517273 34,000 219 433 -64
2021-09-01 21:33:29 GMT 39.684666 -77.512085 34,000 219 433 -128
2021-09-01 21:33:26 GMT 39.688751 -77.507889 34,000 219 433 -64
2021-09-01 21:33:22 GMT 39.698490 -77.497864 34,000 219 433 0
2021-09-01 21:33:19 GMT 39.700356 -77.495911 34,000 219 433 128
2021-09-01 21:33:16 GMT 39.704956 -77.491173 34,000 219 433 128
2021-09-01 21:33:13 GMT 39.709618 -77.486389 34,000 219 432 64
2021-09-01 21:33:09 GMT 39.716309 -77.479469 34,000 219 431 -128
2021-09-01 21:33:06 GMT 39.723816 -77.471764 34,000 219 429 -128
2021-09-01 21:33:04 GMT 39.723816 -77.471764 34,025 219 429 -128
2021-09-01 21:33:01 GMT 39.729588 -77.465759 34,000 219 427 192
2021-09-01 21:32:58 GMT 39.732754 -77.462524 34,000 219 427 192
2021-09-01 21:32:55 GMT 39.738247 -77.456787 34,000 219 427 128
2021-09-01 21:32:53 GMT 39.739597 -77.455383 34,000 219 426 0
2021-09-01 21:32:51 GMT 39.743320 -77.451599 34,000 219 426 -128
2021-09-01 21:32:48 GMT 39.748722 -77.445984 34,000 219 424 -192
2021-09-01 21:32:45 GMT 39.752541 -77.442017 34,000 219 424 -128
2021-09-01 21:32:43 GMT 39.756546 -77.437912 34,000 219 424 -64
2021-09-01 21:32:40 GMT 39.761444 -77.432892 33,875 219 421 448
2021-09-01 21:32:37 GMT 39.766342 -77.427818 33,975 219 421 704
2021-09-01 21:32:34 GMT 39.770275 -77.423767 33,925 219 421 768
2021-09-01 21:32:31 GMT 39.774765 -77.419159 33,775 219 421 704
2021-09-01 21:32:28 GMT 39.780212 -77.413551 33,850 219 421 640
2021-09-01 21:32:25 GMT 39.784607 -77.408951 33,825 219 421 704
2021-09-01 21:32:22 GMT 39.790695 -77.402679 33,775 219 421 768
2021-09-01 21:32:19 GMT 39.794312 -77.398865 33,750 219 420 576
2021-09-01 21:32:15 GMT 39.799118 -77.393967 33,725 219 420 704
2021-09-01 21:32:13 GMT 39.803745 -77.389160 33,675 219 420 768
2021-09-01 21:32:10 GMT 39.808914 -77.383812 33,650 219 420 768
2021-09-01 21:32:06 GMT 39.813477 -77.379089 33,600 219 420 704
2021-09-01 21:32:03 GMT 39.821686 -77.370621 33,575 219 419 640
2021-09-01 21:32:00 GMT 39.821686 -77.370621 33,550 219 420 640
2021-09-01 21:31:57 GMT 39.825348 -77.366798 33,500 219 419 704
2021-09-01 21:31:54 GMT 39.832840 -77.359070 33,475 219 419 768
2021-09-01 21:31:51 GMT 39.836884 -77.354912 33,425 219 419 704
2021-09-01 21:31:47 GMT 39.842331 -77.349243 33,400 219 419 640
2021-09-01 21:31:44 GMT 39.845993 -77.345482 33,375 219 419 512
2021-09-01 21:31:42 GMT 39.849014 -77.342316 33,350 219 419 512
2021-09-01 21:31:40 GMT 39.852631 -77.338554 33,325 219 418 768
2021-09-01 21:31:36 GMT 39.859005 -77.331970 33,300 219 418 768
2021-09-01 21:31:33 GMT 39.867142 -77.323509 33,225 219 417 704
2021-09-01 21:31:30 GMT 39.872318 -77.318176 33,200 219 417 832
2021-09-01 21:31:27 GMT 39.872318 -77.318176 33,150 219 417 768
2021-09-01 21:31:24 GMT 39.877720 -77.312561 33,125 219 416 640
2021-09-01 21:31:20 GMT 39.883724 -77.306335 33,075 219 416 640
2021-09-01 21:31:17 GMT 39.891724 -77.298012 33,025 219 416 640
2021-09-01 21:31:14 GMT 39.895176 -77.294434 33,000 219 416 768
2021-09-01 21:31:12 GMT 39.895176 -77.294434 33,000 219 416 768
2021-09-01 21:31:09 GMT 39.898201 -77.291260 32,950 219 415 896
2021-09-01 21:31:06 GMT 39.907791 -77.281311 32,925 219 414 896
2021-09-01 21:31:03 GMT 39.913189 -77.275696 32,875 219 414 768
2021-09-01 21:30:59 GMT 39.913189 -77.275696 32,825 219 414 704
2021-09-01 21:30:56 GMT 39.922779 -77.265724 32,800 219 414 704
2021-09-01 21:30:53 GMT 39.922779 -77.265724 32,775 219 414 704
2021-09-01 21:30:51 GMT 39.926697 -77.261658 32,725 219 414 768
2021-09-01 21:30:48 GMT 39.930599 -77.257668 32,725 219 414 704
2021-09-01 21:30:45 GMT 39.934792 -77.253304 32,675 219 413 640
2021-09-01 21:30:42 GMT 39.938553 -77.249329 32,650 219 414 768
2021-09-01 21:30:40 GMT 39.942169 -77.245605 32,650 219 413 832
2021-09-01 21:30:35 GMT 39.950897 -77.236511 32,550 219 412 704
2021-09-01 21:30:32 GMT 39.953876 -77.233391 32,550 219 412 768
2021-09-01 21:30:29 GMT 39.959232 -77.227829 32,500 219 412 768
2021-09-01 21:30:25 GMT 39.964024 -77.222839 32,475 219 411 512
2021-09-01 21:30:22 GMT 39.969891 -77.216782 32,450 219 412 320
2021-09-01 21:30:19 GMT 39.972961 -77.213539 32,425 219 412 384
2021-09-01 21:30:14 GMT 39.982460 -77.203613 32,375 219 411 448
2021-09-01 21:30:11 GMT 39.985062 -77.200928 32,375 219 411 512
2021-09-01 21:30:08 GMT 39.989914 -77.195923 32,325 219 410 576
2021-09-01 21:30:04 GMT 39.995819 -77.189697 32,300 219 410 512
2021-09-01 21:30:01 GMT 40.000244 -77.185074 32,275 219 410 576
2021-09-01 21:29:57 GMT 40.006760 -77.178268 32,250 219 409 576
2021-09-01 21:29:54 GMT 40.010254 -77.174644 32,200 219 409 576
2021-09-01 21:29:51 GMT 40.015915 -77.168701 32,200 219 409 576
2021-09-01 21:29:47 GMT 40.021774 -77.162659 32,125 219 410 832
2021-09-01 21:29:44 GMT 40.026672 -77.157532 32,075 219 412 1152
2021-09-01 21:29:41 GMT 40.029991 -77.154114 32,025 219 414 1344
2021-09-01 21:29:39 GMT 40.033573 -77.150368 31,975 219 414 960
2021-09-01 21:29:36 GMT 40.036880 -77.146912 31,875 219 414 832
2021-09-01 21:29:33 GMT 40.041595 -77.141968 31,875 219 415 960
2021-09-01 21:29:30 GMT 40.046749 -77.136635 31,850 219 415 768
2021-09-01 21:29:26 GMT 40.053543 -77.129578 31,750 219 418 1152
2021-09-01 21:29:23 GMT 40.056946 -77.126022 31,775 219 415 768
2021-09-01 21:29:20 GMT 40.062607 -77.120117 31,650 219 415 960
2021-09-01 21:29:16 GMT 40.071579 -77.110718 31,525 219 418 1088
2021-09-01 21:29:13 GMT 40.071579 -77.110718 31,600 219 416 1024
2021-09-01 21:29:10 GMT 40.075241 -77.106934 31,575 219 416 1024
2021-09-01 21:29:08 GMT 40.079754 -77.102173 31,500 219 416 1024
2021-09-01 21:29:05 GMT 40.084259 -77.097534 31,475 219 416 1024
2021-09-01 21:29:01 GMT 40.093781 -77.087524 31,350 219 417 1088
2021-09-01 21:28:57 GMT 40.096893 -77.084229 31,325 219 418 1088
2021-09-01 21:28:55 GMT 40.098282 -77.082825 31,275 219 418 1088
2021-09-01 21:28:52 GMT 40.103867 -77.077019 31,250 219 418 1152
2021-09-01 21:28:49 GMT 40.107452 -77.073212 31,175 219 419 896
2021-09-01 21:28:46 GMT 40.112854 -77.067528 31,050 219 419 896
2021-09-01 21:28:43 GMT 40.122490 -77.057480 31,075 219 419 896
2021-09-01 21:28:40 GMT 40.122490 -77.057480 31,025 219 419 960
2021-09-01 21:28:36 GMT 40.127655 -77.052063 30,975 219 419 1024
2021-09-01 21:28:33 GMT 40.131317 -77.048218 30,750 219 421 704
2021-09-01 21:28:29 GMT 40.137955 -77.041199 30,875 219 420 1088
2021-09-01 21:28:26 GMT 40.143669 -77.035255 30,450 219 413 256
2021-09-01 21:28:22 GMT 40.148254 -77.030457 30,775 219 421 768
2021-09-01 21:28:19 GMT 40.154053 -77.024338 30,725 219 421 768
2021-09-01 21:28:14 GMT 40.160618 -77.017471 30,675 219 421 768
2021-09-01 21:28:11 GMT 40.165192 -77.012695 30,600 219 419 704
2021-09-01 21:28:08 GMT 40.169495 -77.008179 30,600 219 419 576
2021-09-01 21:28:05 GMT 40.174347 -77.003052 30,575 219 419 448
2021-09-01 21:28:03 GMT 40.177048 -77.000237 30,575 219 419 448
2021-09-01 21:28:00 GMT 40.185745 -76.991089 30,525 219 418 384
2021-09-01 21:27:57 GMT 40.185745 -76.991089 30,525 219 418 320
2021-09-01 21:27:53 GMT 40.192429 -76.984070 30,500 219 416 384
2021-09-01 21:27:50 GMT 40.198090 -76.978142 30,475 219 416 320
2021-09-01 21:27:47 GMT 40.201309 -76.974792 30,475 219 415 320
2021-09-01 21:27:43 GMT 40.208588 -76.967102 30,450 219 413 256
2021-09-01 21:27:40 GMT 40.211868 -76.963661 30,450 219 413 192
2021-09-01 21:27:37 GMT 40.216618 -76.958664 30,450 219 411 128
2021-09-01 21:27:33 GMT 40.223137 -76.951866 30,425 219 411 256
2021-09-01 21:27:30 GMT 40.232300 -76.942200 30,425 219 409 256
2021-09-01 21:27:27 GMT 40.232300 -76.942200 30,350 219 404 256
2021-09-01 21:27:23 GMT 40.236076 -76.938255 30,400 219 408 256
2021-09-01 21:27:21 GMT 40.240219 -76.933884 30,375 219 406 320
2021-09-01 21:27:18 GMT 40.246857 -76.926880 30,375 219 406 256
2021-09-01 21:27:13 GMT 40.251904 -76.921585 30,000 219 403 256
2021-09-01 21:27:10 GMT 40.255955 -76.917343 30,350 219 403 256
2021-09-01 21:27:07 GMT 40.261169 -76.911789 30,325 219 401 192
2021-09-01 21:27:04 GMT 40.265030 -76.907776 30,325 219 401 256
2021-09-01 21:27:01 GMT 40.269314 -76.903236 30,300 219 399 192
2021-09-01 21:26:58 GMT 40.274483 -76.897743 30,300 219 398 256
2021-09-01 21:26:55 GMT 40.277573 -76.894531 30,275 219 397 256
2021-09-01 21:26:52 GMT 40.283096 -76.888695 30,250 219 394 384
2021-09-01 21:26:49 GMT 40.287609 -76.883888 30,250 219 394 384
2021-09-01 21:26:46 GMT 40.290161 -76.881226 30,225 219 393 512
2021-09-01 21:26:43 GMT 40.295151 -76.875916 30,000 219 391 1152
2021-09-01 21:26:39 GMT 40.300369 -76.870483 30,150 219 391 704
2021-09-01 21:26:36 GMT 40.305359 -76.865173 30,100 219 391 960
2021-09-01 21:26:33 GMT 40.310143 -76.860161 30,025 219 391 1088
2021-09-01 21:26:29 GMT 40.313587 -76.856483 30,000 219 391 1152
2021-09-01 21:26:26 GMT 40.319778 -76.849991 29,925 219 391 1152
2021-09-01 21:26:22 GMT 40.324036 -76.845520 29,850 219 391 1152
2021-09-01 21:26:20 GMT 40.328808 -76.840439 29,800 219 391 1216
2021-09-01 21:26:16 GMT 40.332718 -76.836319 29,750 219 391 1280
2021-09-01 21:26:14 GMT 40.336945 -76.831848 29,675 219 391 1280
2021-09-01 21:26:11 GMT 40.339188 -76.829468 29,650 219 391 1280
2021-09-01 21:26:09 GMT 40.342575 -76.825928 29,550 219 391 1408
2021-09-01 21:26:06 GMT 40.347656 -76.820557 29,500 219 391 1408
2021-09-01 21:26:02 GMT 40.352737 -76.815186 29,425 219 391 1344
2021-09-01 21:26:00 GMT 40.355576 -76.812195 29,350 220 392 1280
2021-09-01 21:25:57 GMT 40.359673 -76.807915 29,200 219 393 1280
2021-09-01 21:25:53 GMT 40.365738 -76.801453 29,225 219 393 1344
2021-09-01 21:25:50 GMT 40.369404 -76.797615 29,125 219 393 1344
2021-09-01 21:25:47 GMT 40.374115 -76.792603 29,025 220 393 1280
2021-09-01 21:25:44 GMT 40.379040 -76.787445 29,025 220 393 1280
2021-09-01 21:25:41 GMT 40.382996 -76.783257 28,900 220 393 1216
2021-09-01 21:25:37 GMT 40.388947 -76.776917 28,900 220 393 1216
2021-09-01 21:25:33 GMT 40.393341 -76.772339 28,825 219 394 1152
2021-09-01 21:25:30 GMT 40.397461 -76.767944 28,775 219 394 1024
2021-09-01 21:25:26 GMT 40.403431 -76.761665 28,700 219 393 576
2021-09-01 21:25:23 GMT 40.407948 -76.756920 28,700 219 392 512
2021-09-01 21:25:20 GMT 40.414745 -76.749741 28,675 219 391 768
2021-09-01 21:25:18 GMT 40.414745 -76.749741 28,625 219 391 832
2021-09-01 21:25:14 GMT 40.420330 -76.743813 28,575 219 389 704
2021-09-01 21:25:10 GMT 40.427082 -76.736694 28,500 219 387 704
2021-09-01 21:25:06 GMT 40.432110 -76.731384 28,475 219 386 768
2021-09-01 21:25:03 GMT 40.436829 -76.726379 28,425 219 386 960
2021-09-01 21:25:00 GMT 40.440079 -76.723022 28,400 219 385 1152
2021-09-01 21:24:57 GMT 40.444908 -76.717903 28,325 219 385 1408
2021-09-01 21:24:54 GMT 40.449600 -76.712952 28,250 220 386 1280
2021-09-01 21:24:51 GMT 40.451843 -76.710571 28,150 219 385 1088
2021-09-01 21:24:48 GMT 40.457108 -76.704979 28,150 219 385 1088
2021-09-01 21:24:44 GMT 40.462090 -76.699738 28,075 219 385 960
2021-09-01 21:24:42 GMT 40.463764 -76.697929 28,075 219 384 960
2021-09-01 21:24:38 GMT 40.469864 -76.691498 28,025 219 383 832
2021-09-01 21:24:35 GMT 40.474548 -76.686584 27,950 219 382 1024
2021-09-01 21:24:31 GMT 40.480087 -76.680786 27,900 219 381 832
2021-09-01 21:24:28 GMT 40.483383 -76.677368 27,850 219 381 960
2021-09-01 21:24:26 GMT 40.487411 -76.673149 27,800 220 379 1216
2021-09-01 21:24:23 GMT 40.494324 -76.665771 27,700 220 379 1216
2021-09-01 21:24:21 GMT 40.494324 -76.665771 27,700 220 379 1216
2021-09-01 21:24:18 GMT 40.498077 -76.661621 27,475 225 378 1152
2021-09-01 21:24:13 GMT 40.504303 -76.654175 27,550 225 378 1152
2021-09-01 21:24:10 GMT 40.508240 -76.648987 27,425 228 377 1024
2021-09-01 21:24:06 GMT 40.512909 -76.642212 27,325 231 377 960
2021-09-01 21:24:02 GMT 40.517761 -76.634399 27,375 233 376 832
2021-09-01 21:24:00 GMT 40.519455 -76.631531 27,350 234 376 832
2021-09-01 21:23:57 GMT 40.522293 -76.626343 27,325 235 375 768
2021-09-01 21:23:54 GMT 40.524628 -76.621826 27,275 238 374 960
2021-09-01 21:23:51 GMT 40.527775 -76.615280 27,225 240 374 960
2021-09-01 21:23:47 GMT 40.531822 -76.606041 27,150 243 373 832
2021-09-01 21:23:44 GMT 40.534653 -76.599060 27,125 245 372 896
2021-09-01 21:23:41 GMT 40.536163 -76.595032 27,100 246 371 960
2021-09-01 21:23:37 GMT 40.539459 -76.585571 27,000 248 370 1024
2021-09-01 21:23:34 GMT 40.541225 -76.579887 26,975 249 371 1024
2021-09-01 21:23:31 GMT 40.543182 -76.572960 26,900 254 372 1216
2021-09-01 21:23:26 GMT 40.546207 -76.555359 26,800 261 373 1216
2021-09-01 21:23:23 GMT 40.546207 -76.555359 26,775 268 376 1088
2021-09-01 21:23:19 GMT 40.546600 -76.545776 26,700 272 378 896
2021-09-01 21:23:16 GMT 40.546280 -76.538452 26,650 276 379 896
2021-09-01 21:23:12 GMT 40.544670 -76.525269 26,500 281 381 1152
2021-09-01 21:23:09 GMT 40.544670 -76.525269 26,475 283 382 1216
2021-09-01 21:23:06 GMT 40.543228 -76.516342 26,375 283 382 1216
2021-09-01 21:23:03 GMT 40.542110 -76.509850 26,400 283 381 1216
2021-09-01 21:23:00 GMT 40.541428 -76.505859 26,375 283 380 1344
2021-09-01 21:22:58 GMT 40.540249 -76.499054 26,300 283 381 1280
2021-09-01 21:22:55 GMT 40.539177 -76.492744 26,200 283 380 1344
2021-09-01 21:22:52 GMT 40.538109 -76.486443 26,150 283 380 1472
2021-09-01 21:22:49 GMT 40.536896 -76.479324 26,100 283 380 1472
2021-09-01 21:22:45 GMT 40.535175 -76.469276 26,000 283 380 1536
2021-09-01 21:22:42 GMT 40.534245 -76.463905 25,925 283 381 1280
2021-09-01 21:22:39 GMT 40.533031 -76.456856 25,875 283 380 1600
2021-09-01 21:22:35 GMT 40.531311 -76.446869 25,725 283 381 1216
2021-09-01 21:22:32 GMT 40.530052 -76.439560 25,700 283 380 1152
2021-09-01 21:22:29 GMT 40.528931 -76.432800 25,650 283 380 1152
2021-09-01 21:22:26 GMT 40.528053 -76.427956 25,600 283 379 1088
2021-09-01 21:22:24 GMT 40.527237 -76.423096 25,525 283 379 1280
2021-09-01 21:22:21 GMT 40.525772 -76.414406 25,475 283 379 1664
2021-09-01 21:22:16 GMT 40.524124 -76.405029 25,375 283 379 1664
2021-09-01 21:22:13 GMT 40.522930 -76.398239 25,225 283 379 1728
2021-09-01 21:22:10 GMT 40.521744 -76.391418 25,200 283 380 1280
2021-09-01 21:22:07 GMT 40.520966 -76.386963 25,150 283 380 1536
2021-09-01 21:22:04 GMT 40.519226 -76.377014 24,925 283 380 1088
2021-09-01 21:22:01 GMT 40.518044 -76.370209 24,975 284 379 1152
2021-09-01 21:21:58 GMT 40.516834 -76.363098 24,925 283 380 960
2021-09-01 21:21:54 GMT 40.515610 -76.356262 24,825 284 379 1344
2021-09-01 21:21:51 GMT 40.514133 -76.347740 24,775 284 379 1280
2021-09-01 21:21:48 GMT 40.512909 -76.341064 24,700 283 379 1408
2021-09-01 21:21:45 GMT 40.511993 -76.335693 24,650 283 379 1664
2021-09-01 21:21:42 GMT 40.510826 -76.328949 24,500 283 379 1920
2021-09-01 21:21:39 GMT 40.509338 -76.320435 23,575 283 378 2368
2021-09-01 21:21:36 GMT 40.508743 -76.316956 24,325 283 379 1984
2021-09-01 21:21:33 GMT 40.507244 -76.307411 24,150 282 380 1664
2021-09-01 21:21:30 GMT 40.505997 -76.299683 24,150 282 380 1664
2021-09-01 21:21:27 GMT 40.505264 -76.295166 24,100 282 381 1600
2021-09-01 21:21:24 GMT 40.503983 -76.286987 24,000 282 382 1728
2021-09-01 21:21:21 GMT 40.501705 -76.272957 23,900 282 382 1856
2021-09-01 21:21:17 GMT 40.501705 -76.272957 23,850 282 382 1920
2021-09-01 21:21:13 GMT 40.500458 -76.265259 23,700 283 382 1920
2021-09-01 21:21:11 GMT 40.499451 -76.258911 23,575 282 383 1600
2021-09-01 21:21:08 GMT 40.498211 -76.251175 23,525 282 383 1472
2021-09-01 21:21:06 GMT 40.497253 -76.245361 23,475 282 383 1408
2021-09-01 21:21:02 GMT 40.496567 -76.240906 23,425 282 383 1344
2021-09-01 21:21:00 GMT 40.495464 -76.233948 23,350 282 382 1344
2021-09-01 21:20:57 GMT 40.494022 -76.224892 23,275 282 381 1216
2021-09-01 21:20:53 GMT 40.492718 -76.216904 23,150 282 380 1216
2021-09-01 21:20:50 GMT 40.491760 -76.210876 23,125 282 379 1408
2021-09-01 21:20:47 GMT 40.490810 -76.205040 23,050 282 379 1600
2021-09-01 21:20:45 GMT 40.489746 -76.198364 23,025 282 378 1600
2021-09-01 21:20:42 GMT 40.487972 -76.187065 22,925 282 377 1536
2021-09-01 21:20:39 GMT 40.487972 -76.187065 22,900 282 377 1472
2021-09-01 21:20:36 GMT 40.486908 -76.180542 22,800 282 377 1600
2021-09-01 21:20:33 GMT 40.485580 -76.172302 22,700 282 377 1792
2021-09-01 21:20:31 GMT 40.484848 -76.167847 22,650 282 376 1792
2021-09-01 21:20:28 GMT 40.483780 -76.161285 22,525 282 376 1984
2021-09-01 21:20:25 GMT 40.482944 -76.155914 22,475 282 376 1984
2021-09-01 21:20:22 GMT 40.481594 -76.147736 22,375 282 376 1664
2021-09-01 21:20:18 GMT 40.480408 -76.140137 22,250 282 376 1792
2021-09-01 21:20:15 GMT 40.479401 -76.133972 22,200 282 376 1856
2021-09-01 21:20:11 GMT 40.476379 -76.115234 21,975 282 376 2048
2021-09-01 21:20:07 GMT 40.476379 -76.115234 21,775 282 374 1728
2021-09-01 21:20:05 GMT 40.475647 -76.110840 21,825 282 375 1984
2021-09-01 21:20:02 GMT 40.474182 -76.101868 21,750 282 374 1792
2021-09-01 21:19:58 GMT 40.472980 -76.094238 21,600 282 374 1728
2021-09-01 21:19:55 GMT 40.471756 -76.086670 21,550 282 374 1728
2021-09-01 21:19:51 GMT 40.470886 -76.081360 21,450 282 374 1600
2021-09-01 21:19:49 GMT 40.469879 -76.075134 21,350 282 373 1536
2021-09-01 21:19:46 GMT 40.468792 -76.068459 21,325 282 373 1600
2021-09-01 21:19:43 GMT 40.467728 -76.061829 21,250 282 372 1600
2021-09-01 21:19:39 GMT 40.466511 -76.054352 21,125 283 370 1536
2021-09-01 21:19:36 GMT 40.465347 -76.046875 21,050 283 370 1472
2021-09-01 21:19:33 GMT 40.463997 -76.038689 20,975 282 368 1664
2021-09-01 21:19:29 GMT 40.462692 -76.030701 20,775 283 368 1792
2021-09-01 21:19:25 GMT 40.461639 -76.024170 20,375 283 368 1920
2021-09-01 21:19:23 GMT 40.460953 -76.019775 20,675 283 368 1856
2021-09-01 21:19:21 GMT 40.459854 -76.013222 20,600 282 367 1920
2021-09-01 21:19:16 GMT 40.458115 -76.002502 20,400 283 368 2048
2021-09-01 21:19:13 GMT 40.457012 -75.995804 20,325 283 368 2112
2021-09-01 21:19:10 GMT 40.455688 -75.987549 20,200 283 368 2304
2021-09-01 21:19:06 GMT 40.454544 -75.980530 20,050 283 368 2496
2021-09-01 21:19:03 GMT 40.453262 -75.972717 19,900 283 369 2432
2021-09-01 21:19:00 GMT 40.452591 -75.968773 19,800 283 369 2304
2021-09-01 21:18:58 GMT 40.449966 -75.952515 19,650 282 369 1792
2021-09-01 21:18:54 GMT 40.449966 -75.952515 19,600 282 369 1856
2021-09-01 21:18:50 GMT 40.448868 -75.945496 19,500 283 369 1408
2021-09-01 21:18:46 GMT 40.447517 -75.937378 19,375 283 368 1600
2021-09-01 21:18:43 GMT 40.444958 -75.923332 19,200 287 366 1536
2021-09-01 21:18:39 GMT 40.444073 -75.919083 19,200 287 365 1472
2021-09-01 21:18:37 GMT 40.444073 -75.919083 19,150 287 365 1536
2021-09-01 21:18:34 GMT 40.440208 -75.903976 19,025 290 364 1856
2021-09-01 21:18:31 GMT 40.440208 -75.903976 18,950 292 365 1984
2021-09-01 21:18:28 GMT 40.439301 -75.901062 18,900 293 365 2112
2021-09-01 21:18:26 GMT 40.437195 -75.894592 18,775 296 366 2432
2021-09-01 21:18:22 GMT 40.434669 -75.887749 18,625 298 367 2816
2021-09-01 21:18:19 GMT 40.431412 -75.879944 18,400 301 369 3008
2021-09-01 21:18:16 GMT 40.429268 -75.875389 18,275 304 371 2752
2021-09-01 21:18:12 GMT 40.425247 -75.867554 17,825 307 373 2496
2021-09-01 21:18:08 GMT 40.420376 -75.859283 17,950 310 375 2688
2021-09-01 21:18:03 GMT 40.414513 -75.850235 17,675 311 374 2240
2021-09-01 21:18:00 GMT 40.413391 -75.848511 17,525 311 373 2304
2021-09-01 21:17:56 GMT 40.407295 -75.839188 17,325 311 373 2432
2021-09-01 21:17:53 GMT 40.404594 -75.835068 17,325 311 373 2432
2021-09-01 21:17:50 GMT 40.402130 -75.831299 17,350 311 373 1728
2021-09-01 21:17:48 GMT 40.398651 -75.826050 17,325 312 371 0
2021-09-01 21:17:45 GMT 40.389839 -75.812843 17,325 312 370 -448
2021-09-01 21:17:41 GMT 40.389839 -75.812843 17,350 312 367 192
2021-09-01 21:17:37 GMT 40.385925 -75.806946 17,325 311 368 64
2021-09-01 21:17:34 GMT 40.383041 -75.802605 17,300 311 366 -384
2021-09-01 21:17:29 GMT 40.378418 -75.795593 17,325 311 366 -384
2021-09-01 21:17:26 GMT 40.373825 -75.788620 17,325 311 368 64
2021-09-01 21:17:23 GMT 40.366470 -75.777466 17,400 312 366 -768
2021-09-01 21:17:20 GMT 40.366470 -75.777466 17,350 312 367 -704
2021-09-01 21:17:17 GMT 40.364182 -75.774109 17,375 312 365 -576
2021-09-01 21:17:12 GMT 40.359741 -75.767395 17,350 311 364 576
2021-09-01 21:17:09 GMT 40.355301 -75.760681 17,350 311 362 256
2021-09-01 21:17:06 GMT 40.351410 -75.754761 17,325 311 362 0
2021-09-01 21:17:03 GMT 40.349625 -75.752075 17,325 311 362 192
2021-09-01 21:16:58 GMT 40.343948 -75.743469 17,325 311 362 -384
2021-09-01 21:16:55 GMT 40.339554 -75.736816 17,350 311 361 -128
2021-09-01 21:16:50 GMT 40.334118 -75.728638 17,300 311 362 256
2021-09-01 21:16:45 GMT 40.329182 -75.721268 17,325 312 362 256
2021-09-01 21:16:42 GMT 40.324852 -75.714775 17,300 312 362 128
2021-09-01 21:16:38 GMT 40.321060 -75.709106 17,350 311 359 -320
2021-09-01 21:16:34 GMT 40.316425 -75.702042 17,350 311 356 448
2021-09-01 21:16:29 GMT 40.311260 -75.694115 17,350 311 355 256
2021-09-01 21:16:25 GMT 40.304417 -75.683624 17,350 311 357 -256
2021-09-01 21:16:22 GMT 40.304417 -75.683624 17,100 311 370 1664
2021-09-01 21:16:18 GMT 40.300087 -75.677071 17,350 312 359 -128
2021-09-01 21:16:14 GMT 40.295712 -75.670586 17,350 312 360 128
2021-09-01 21:16:11 GMT 40.292217 -75.665337 17,350 311 361 128
2021-09-01 21:16:07 GMT 40.286957 -75.657410 17,350 311 361 128
2021-09-01 21:16:03 GMT 40.282791 -75.651123 17,325 312 363 0
2021-09-01 21:16:00 GMT 40.281097 -75.648621 17,325 312 363 -128
2021-09-01 21:15:57 GMT 40.276810 -75.642181 17,325 312 365 384
2021-09-01 21:15:54 GMT 40.272804 -75.636185 17,275 311 367 576
2021-09-01 21:15:51 GMT 40.270153 -75.632133 17,275 311 368 448
2021-09-01 21:15:47 GMT 40.265533 -75.625183 17,175 311 370 2048
2021-09-01 21:15:44 GMT 40.262566 -75.620644 17,125 311 370 1984
2021-09-01 21:15:41 GMT 40.258804 -75.614929 17,025 311 373 2560
2021-09-01 21:15:38 GMT 40.255600 -75.610107 16,800 311 373 2624
2021-09-01 21:15:35 GMT 40.251663 -75.604065 16,700 311 373 2624
2021-09-01 21:15:32 GMT 40.247761 -75.598236 16,600 311 372 2560
2021-09-01 21:15:28 GMT 40.243198 -75.591309 16,425 312 372 2752
2021-09-01 21:15:24 GMT 40.239101 -75.585190 16,275 311 372 2560
2021-09-01 21:15:19 GMT 40.234497 -75.578064 16,150 310 370 1536
2021-09-01 21:15:16 GMT 40.230560 -75.571838 16,025 309 368 1728
2021-09-01 21:15:13 GMT 40.228210 -75.568024 15,975 309 367 1728
2021-09-01 21:15:10 GMT 40.225021 -75.562744 15,900 307 361 832
2021-09-01 21:15:07 GMT 40.221134 -75.556038 15,850 307 362 768
2021-09-01 21:15:02 GMT 40.216644 -75.547974 15,800 306 358 1280
2021-09-01 21:14:59 GMT 40.213486 -75.542236 15,675 306 357 2368
2021-09-01 21:14:55 GMT 40.209217 -75.534248 15,450 305 355 2304
2021-09-01 21:14:52 GMT 40.207123 -75.530273 15,375 304 354 2432
2021-09-01 21:14:49 GMT 40.204376 -75.524887 15,250 304 355 2496
2021-09-01 21:14:46 GMT 40.201630 -75.519531 15,150 304 355 2368
2021-09-01 21:14:41 GMT 40.197235 -75.510986 14,975 304 354 2880
2021-09-01 21:14:38 GMT 40.192932 -75.502502 14,750 304 355 2048
2021-09-01 21:14:35 GMT 40.192410 -75.501480 14,525 304 353 1728
2021-09-01 21:14:32 GMT 40.186546 -75.489990 14,575 304 352 1728
2021-09-01 21:14:29 GMT 40.186546 -75.489990 14,425 304 351 1664
2021-09-01 21:14:26 GMT 40.183090 -75.483276 14,375 304 348 1408
2021-09-01 21:14:22 GMT 40.179794 -75.476700 14,325 304 347 1728
2021-09-01 21:14:20 GMT 40.178925 -75.474915 14,200 304 345 2240
2021-09-01 21:14:17 GMT 40.176212 -75.469582 14,200 304 345 2240
2021-09-01 21:14:14 GMT 40.173248 -75.463623 13,975 304 344 3072
2021-09-01 21:14:11 GMT 40.170624 -75.458412 13,850 304 345 2880
2021-09-01 21:14:08 GMT 40.166336 -75.449829 13,575 304 345 4032
2021-09-01 21:14:05 GMT 40.165085 -75.447418 13,500 304 345 4160
2021-09-01 21:14:02 GMT 40.161987 -75.441284 13,300 304 348 3328
2021-09-01 21:13:59 GMT 40.160568 -75.438538 13,200 305 348 3072
2021-09-01 21:13:57 GMT 40.158051 -75.433655 13,000 304 350 2944
2021-09-01 21:13:54 GMT 40.155354 -75.428383 12,925 304 349 2880
2021-09-01 21:13:50 GMT 40.151596 -75.420959 12,425 304 350 3392
2021-09-01 21:13:47 GMT 40.148979 -75.415840 12,300 304 350 3392
2021-09-01 21:13:44 GMT 40.146137 -75.410217 12,400 304 350 3136
2021-09-01 21:13:39 GMT 40.141716 -75.401543 12,100 304 351 3584
2021-09-01 21:13:36 GMT 40.139900 -75.398048 11,800 304 352 3456
2021-09-01 21:13:33 GMT 40.136536 -75.391418 11,800 304 354 2816
2021-09-01 21:13:30 GMT 40.133926 -75.386292 11,650 304 354 2944
2021-09-01 21:13:28 GMT 40.131363 -75.381287 11,400 304 355 3008
2021-09-01 21:13:24 GMT 40.127426 -75.373596 11,325 304 355 2560
2021-09-01 21:13:20 GMT 40.120300 -75.359596 11,125 304 353 2624
2021-09-01 21:13:16 GMT 40.118484 -75.356033 10,875 304 351 2752
2021-09-01 21:13:13 GMT 40.118484 -75.356033 10,850 304 351 2816
2021-09-01 21:13:08 GMT 40.113647 -75.346497 10,600 304 351 2688
2021-09-01 21:13:05 GMT 40.111038 -75.341370 10,450 304 350 2112
2021-09-01 21:13:02 GMT 40.109070 -75.337463 10,425 304 349 1536
2021-09-01 21:12:59 GMT 40.104984 -75.329445 10,350 304 347 960
2021-09-01 21:12:56 GMT 40.102379 -75.324387 10,325 304 345 448
2021-09-01 21:12:53 GMT 40.099411 -75.318665 10,325 304 344 0
2021-09-01 21:12:47 GMT 40.094467 -75.308899 10,325 304 340 -384
2021-09-01 21:12:44 GMT 40.091579 -75.303162 10,350 304 336 64
2021-09-01 21:12:41 GMT 40.090134 -75.300354 10,325 304 334 -320
2021-09-01 21:12:38 GMT 40.086693 -75.293678 10,350 304 335 -192
2021-09-01 21:12:35 GMT 40.084076 -75.288574 10,350 304 335 -192
2021-09-01 21:12:32 GMT 40.082016 -75.284546 10,350 304 335 192
2021-09-01 21:12:28 GMT 40.078903 -75.278503 10,325 304 335 64
2021-09-01 21:12:23 GMT 40.074261 -75.269455 10,350 304 331 0
2021-09-01 21:12:20 GMT 40.071030 -75.263062 10,350 304 332 0
2021-09-01 21:12:17 GMT 40.069336 -75.259766 10,350 304 331 -128
2021-09-01 21:12:13 GMT 40.065262 -75.251770 10,350 304 329 -192
2021-09-01 21:12:09 GMT 40.062435 -75.246170 10,350 304 328 -64
2021-09-01 21:12:06 GMT 40.059364 -75.240181 10,350 304 323 64
2021-09-01 21:12:01 GMT 40.055733 -75.233124 10,325 304 317 64
2021-09-01 21:11:58 GMT 40.053955 -75.229614 10,325 304 314 320
2021-09-01 21:11:55 GMT 40.051117 -75.223938 10,300 304 308 640
2021-09-01 21:11:51 GMT 40.047729 -75.217224 10,200 304 318 3072
2021-09-01 21:11:46 GMT 40.043884 -75.209717 10,125 304 307 1664
2021-09-01 21:11:43 GMT 40.041046 -75.204163 9,950 304 309 2240
2021-09-01 21:11:40 GMT 40.039169 -75.200500 9,800 304 315 2560
2021-09-01 21:11:36 GMT 40.034958 -75.192322 9,625 304 316 3456
2021-09-01 21:11:34 GMT 40.034958 -75.192322 9,625 304 316 3456
2021-09-01 21:11:31 GMT 40.032028 -75.186646 9,475 325 324 3072
2021-09-01 21:11:28 GMT 40.029739 -75.182129 9,275 304 318 3136
2021-09-01 21:11:24 GMT 40.023788 -75.170532 9,000 304 318 3008
2021-09-01 21:11:21 GMT 40.023788 -75.170532 8,675 304 315 3072
2021-09-01 21:11:16 GMT 40.019703 -75.162529 8,675 304 317 3008
2021-09-01 21:11:13 GMT 40.016602 -75.156494 8,450 304 315 3072
2021-09-01 21:11:10 GMT 40.013927 -75.151230 8,300 304 314 3200
2021-09-01 21:11:07 GMT 40.012711 -75.148865 8,225 304 314 3200
2021-09-01 21:11:04 GMT 40.009972 -75.143486 7,950 304 313 3008
2021-09-01 21:11:01 GMT 40.007038 -75.137810 7,850 304 313 3008
2021-09-01 21:10:58 GMT 40.005131 -75.134064 7,625 304 312 2880
2021-09-01 21:10:55 GMT 40.003098 -75.130066 7,625 304 311 2944
2021-09-01 21:10:42 GMT 39.995739 -75.083542 5,300 7 343 2464
2021-09-01 21:10:41 GMT 39.994160 -75.083710 5,300 7 343 2464
2021-09-01 21:10:39 GMT 39.991001 -75.084061 5,300 7 343 2464
2021-09-01 21:10:38 GMT 39.989422 -75.084229 5,300 7 343 2464
2021-09-01 21:10:36 GMT 39.986252 -75.084579 5,300 7 343 2464
2021-09-01 21:10:35 GMT 39.984669 -75.084747 5,300 7 343 2464
2021-09-01 21:10:33 GMT 39.981510 -75.085091 5,300 7 343 2464
2021-09-01 21:10:32 GMT 39.979931 -75.085274 5,300 7 343 2464
2021-09-01 21:10:30 GMT 39.976768 -75.085609 5,300 7 343 2464
2021-09-01 21:10:29 GMT 39.975189 -75.085777 5,300 7 343 2464
2021-09-01 21:10:28 GMT 39.973598 -75.085960 5,300 7 343 2464
2021-09-01 21:10:26 GMT 39.970440 -75.086304 5,300 7 343 2464
2021-09-01 21:10:25 GMT 39.968861 -75.086472 5,300 7 343 2464
2021-09-01 21:10:24 GMT 39.965698 -75.086823 5,950 346 332 3072
2021-09-01 21:10:22 GMT 39.964119 -75.086990 5,300 7 343 2464
2021-09-01 21:10:20 GMT 39.960949 -75.087334 5,300 7 343 2464
2021-09-01 21:10:19 GMT 39.959370 -75.087509 5,300 7 343 2464
2021-09-01 21:10:18 GMT 39.957790 -75.087677 5,300 7 343 2464
2021-09-01 21:10:17 GMT 39.956211 -75.087852 5,300 7 343 2464
2021-09-01 21:10:15 GMT 39.953049 -75.088203 5,300 7 343 448
2021-09-01 21:10:14 GMT 39.951462 -75.088371 5,300 7 343 448
2021-09-01 21:10:13 GMT 39.949879 -75.088539 5,300 7 343 448
2021-09-01 21:10:12 GMT 39.948299 -75.088707 5,300 7 343 448
2021-09-01 21:10:10 GMT 39.944981 -75.088341 4,900 15 334 448
2021-09-01 21:10:09 GMT 39.943459 -75.088760 4,900 15 334 448
2021-09-01 21:10:08 GMT 39.941952 -75.089180 4,900 15 334 448
2021-09-01 21:10:06 GMT 39.938770 -75.088890 4,900 24 332 448
2021-09-01 21:10:05 GMT 39.937328 -75.089577 4,900 24 332 448
2021-09-01 21:10:04 GMT 39.934441 -75.090958 4,900 24 332 448
2021-09-01 21:10:02 GMT 39.932388 -75.090302 4,700 33 324 448
2021-09-01 21:10:01 GMT 39.929779 -75.092201 4,700 33 324 448
2021-09-01 21:09:59 GMT 39.928471 -75.093147 4,700 33 324 448
2021-09-01 21:09:58 GMT 39.927158 -75.094109 4,700 33 324 448
2021-09-01 21:09:57 GMT 39.925030 -75.093773 4,500 43 315 448
2021-09-01 21:09:55 GMT 39.922760 -75.096138 4,500 43 315 448
2021-09-01 21:09:54 GMT 39.921619 -75.097321 4,500 43 315 448
2021-09-01 21:09:52 GMT 39.917992 -75.098671 4,300 53 296 448
2021-09-01 21:09:51 GMT 39.917091 -75.100021 4,300 53 296 448
2021-09-01 21:09:50 GMT 39.916199 -75.101379 4,300 53 296 448
2021-09-01 21:09:49 GMT 39.915310 -75.102730 4,300 53 296 448
2021-09-01 21:09:48 GMT 39.912289 -75.104362 4,100 62 289 448
2021-09-01 21:09:46 GMT 39.911621 -75.105873 4,100 62 289 448
2021-09-01 21:09:45 GMT 39.910938 -75.107368 4,100 62 289 448
2021-09-01 21:09:43 GMT 39.908501 -75.110062 4,100 68 274 -64
2021-09-01 21:09:41 GMT 39.907501 -75.113083 4,100 68 274 -64
2021-09-01 21:09:40 GMT 39.907001 -75.114594 4,100 68 274 -64
2021-09-01 21:09:39 GMT 39.905529 -75.116241 4,000 71 255 3072
2021-09-01 21:09:38 GMT 39.904781 -75.119148 4,000 71 255 3072
2021-09-01 21:09:36 GMT 39.904400 -75.120598 4,000 71 255 3072
2021-09-01 21:09:35 GMT 39.904018 -75.122063 4,000 71 255 3072
2021-09-01 21:09:33 GMT 39.903011 -75.124840 3,900 72 249 3072
2021-09-01 21:09:32 GMT 39.902672 -75.126282 3,900 72 249 3072
2021-09-01 21:09:31 GMT 39.902328 -75.127708 3,900 72 249 3072
2021-09-01 21:09:29 GMT 39.901581 -75.131271 3,900 71 227 3072
2021-09-01 21:09:28 GMT 39.901241 -75.132561 3,900 71 227 3072
2021-09-01 21:09:27 GMT 39.900581 -75.135147 3,900 71 227 3072
2021-09-01 21:09:26 GMT 39.900349 -75.136719 3,700 70 223 3072
2021-09-01 21:09:24 GMT 39.899658 -75.139252 3,700 70 223 3072
2021-09-01 21:09:23 GMT 39.899319 -75.140518 3,700 70 223 3072
2021-09-01 21:09:21 GMT 39.898972 -75.141777 3,700 70 223 3072
2021-09-01 21:09:20 GMT 39.898640 -75.143349 3,500 69 217 3072
2021-09-01 21:09:18 GMT 39.897942 -75.145798 3,500 69 217 3072
2021-09-01 21:09:17 GMT 39.897591 -75.147034 3,500 69 217 3072
2021-09-01 21:09:16 GMT 39.897240 -75.148422 3,325 68 213 32
2021-09-01 21:09:15 GMT 39.896542 -75.150818 3,325 68 214 32
2021-09-01 21:09:13 GMT 39.896149 -75.152023 3,325 69 213 32
2021-09-01 21:09:12 GMT 39.895771 -75.153198 3,200 69 213 32
2021-09-01 21:09:10 GMT 39.895069 -75.155479 3,000 70 218 32
2021-09-01 21:09:09 GMT 39.894718 -75.156700 3,000 70 218 32
2021-09-01 21:09:07 GMT 39.894081 -75.159126 3,000 70 221 32
2021-09-01 21:09:06 GMT 39.893761 -75.160400 2,800 69 221 32
2021-09-01 21:09:05 GMT 39.893421 -75.161629 2,800 69 221 32
2021-09-01 21:09:04 GMT 39.892681 -75.164192 2,800 69 217 32
2021-09-01 21:09:02 GMT 39.892319 -75.165398 2,775 69 217 32
2021-09-01 21:09:01 GMT 39.891960 -75.166603 2,775 70 219 32
2021-09-01 21:08:59 GMT 39.891281 -75.168999 2,700 70 222 32
2021-09-01 21:08:58 GMT 39.890942 -75.170280 2,700 69 220 32
2021-09-01 21:08:56 GMT 39.890259 -75.172783 2,475 69 218 32
2021-09-01 21:08:55 GMT 39.889912 -75.174011 2,475 69 217 32
2021-09-01 21:08:54 GMT 39.889141 -75.176514 2,300 70 208 32
2021-09-01 21:08:52 GMT 39.888809 -75.177589 2,300 71 215 32
2021-09-01 21:08:51 GMT 39.888519 -75.178841 2,300 70 213 32
2021-09-01 21:08:49 GMT 39.887821 -75.181351 2,300 70 204 32
2021-09-01 21:08:48 GMT 39.887531 -75.182442 2,100 70 209 -224
2021-09-01 21:08:47 GMT 39.887199 -75.183647 2,100 69 207 96
2021-09-01 21:08:45 GMT 39.886551 -75.185951 2,100 69 206 96
2021-09-01 21:08:44 GMT 39.886200 -75.187134 2,100 69 204 96
2021-09-01 21:08:43 GMT 39.885891 -75.188248 2,125 69 205 96
2021-09-01 21:08:41 GMT 39.885281 -75.190536 2,075 68 204 96
2021-09-01 21:08:40 GMT 39.884911 -75.191658 2,100 69 202 96
2021-09-01 21:08:38 GMT 39.884270 -75.193893 2,025 69 201 96
2021-09-01 21:08:37 GMT 39.883919 -75.194992 2,025 69 199 96
2021-09-01 21:08:35 GMT 39.883221 -75.197357 2,000 70 185 96
2021-09-01 21:08:34 GMT 39.882950 -75.198402 1,975 69 184 96
2021-09-01 21:08:33 GMT 39.882660 -75.199448 1,875 68 182 96
2021-09-01 21:08:31 GMT 39.882069 -75.201569 1,875 67 174 96
2021-09-01 21:08:30 GMT 39.881741 -75.202507 1,875 68 174 96
2021-09-01 21:08:29 GMT 39.881439 -75.203529 1,875 68 170 -160
2021-09-01 21:08:28 GMT 39.881180 -75.204453 1,875 67 171 2464
2021-09-01 21:08:26 GMT 39.880581 -75.206360 1,900 67 167 2464
2021-09-01 21:08:25 GMT 39.880009 -75.208221 1,850 67 165 2464
2021-09-01 21:08:23 GMT 39.879711 -75.209198 1,800 67 159 2464
2021-09-01 21:08:22 GMT 39.879421 -75.210007 1,800 68 162 2464
2021-09-01 21:08:21 GMT 39.878860 -75.211838 1,700 68 157 2464
2021-09-01 21:08:19 GMT 39.878620 -75.212753 1,700 68 154 2464
2021-09-01 21:08:18 GMT 39.878342 -75.213661 1,700 68 152 2464
2021-09-01 21:08:16 GMT 39.877800 -75.215408 1,675 69 145 2464
2021-09-01 21:08:15 GMT 39.877602 -75.216232 1,575 68 145 0
2021-09-01 21:08:14 GMT 39.877361 -75.217041 1,575 68 146 0
2021-09-01 21:08:12 GMT 39.876850 -75.218590 1,475 70 150 0
2021-09-01 21:08:11 GMT 39.876610 -75.219452 1,425 70 148 0
2021-09-01 21:08:10 GMT 39.876350 -75.220284 1,375 71 147 0
2021-09-01 21:08:08 GMT 39.875912 -75.222031 1,075 71 139 0
2021-09-01 21:08:06 GMT 39.875530 -75.223648 1,075 71 141 0
2021-09-01 21:08:05 GMT 39.875332 -75.224403 1,075 71 146 0
2021-09-01 21:08:04 GMT 39.875092 -75.225288 1,025 72 142 0
2021-09-01 21:08:02 GMT 39.874699 -75.226921 900 72 146 0
2021-09-01 21:08:00 GMT 39.874340 -75.228554 775 71 154 0
2021-09-01 21:07:58 GMT 39.873859 -75.230301 600 74 152 0
2021-09-01 21:07:57 GMT 39.873669 -75.231178 600 74 154 0
2021-09-01 21:07:56 GMT 39.873470 -75.232094 575 74 153 0
2021-09-01 21:07:55 GMT 39.873280 -75.232979 525 74 152 0
2021-09-01 21:07:53 GMT 39.872921 -75.234741 475 74 156 0
2021-09-01 21:07:52 GMT 39.872730 -75.235641 450 74 155 0
2021-09-01 21:07:51 GMT 39.872330 -75.237411 400 75 153 0
2021-09-01 21:07:49 GMT 39.872169 -75.238258 400 75 154 0
2021-09-01 21:07:48 GMT 39.871971 -75.239166 375 75 150 0
2021-09-01 21:07:47 GMT 39.871792 -75.240044 375 75 146 0
2021-09-01 21:07:45 GMT 39.871460 -75.241760 400 75 138 0
2021-09-01 21:07:44 GMT 39.871288 -75.242577 400 75 135 0
2021-09-01 21:07:43 GMT 39.871140 -75.243370 400 75 130 0
2021-09-01 21:07:41 GMT 39.870831 -75.244873 400 75 123 0
2021-09-01 21:07:40 GMT 39.870682 -75.245613 400 75 118 0
2021-09-01 21:07:38 GMT 39.870411 -75.246971 400 76 111 0
2021-09-01 21:07:37 GMT 39.870300 -75.247627 400 75 106 0
2021-09-01 21:07:36 GMT 39.870041 -75.248871 400 76 97 0
2021-09-01 21:07:34 GMT 39.869930 -75.249443 400 76 93 0
2021-09-01 21:07:33 GMT 39.869850 -75.249992 400 74 90 0
2021-09-01 21:07:31 GMT 39.869678 -75.251053 400 72 78 0
2021-09-01 21:07:30 GMT 39.869549 -75.251541 400 72 70 0
2021-09-01 21:07:29 GMT 39.869320 -75.252350 400 75 59
2021-09-01 21:07:27 GMT 39.869240 -75.252701 400 77 56
2021-09-01 21:07:26 GMT 39.869171 -75.253029 400 78 52
2021-09-01 21:07:24 GMT 39.869068 -75.253662 0 77 39
2021-09-01 21:07:23 GMT 39.869019 -75.253990 0 77 28
2021-09-01 21:07:22 GMT 39.868992 -75.254181 0 75 25
2021-09-01 21:07:20 GMT 39.868938 -75.254532 0 69 16
2021-09-01 21:07:19 GMT 39.868912 -75.254631 0 70 14
2021-09-01 21:07:18 GMT 39.868900 -75.254738 0 65 12
2021-09-01 21:07:16 GMT 39.868820 -75.254868 0 83 9
2021-09-01 21:07:15 GMT 39.868801 -75.254921 0 83 9
2021-09-01 21:07:14 GMT 39.868778 -75.254967 0 72 9
2021-09-01 21:07:12 GMT 39.868809 -75.255081 0 50 8
2021-09-01 21:07:11 GMT 39.868832 -75.255127 0 43 9
2021-09-01 21:07:10 GMT 39.868801 -75.255180 0 39 8
2021-09-01 21:07:08 GMT 39.868740 -75.255257 0 25 6
2021-09-01 21:07:07 GMT 39.868721 -75.255287 0 16 6
2021-09-01 21:07:06 GMT 39.868671 -75.255318 0 8 7
2021-09-01 21:07:04 GMT 39.868622 -75.255348 0 350 7
2021-09-01 21:07:02 GMT 39.868568 -75.255371 0 339 5
2021-09-01 21:07:01 GMT 39.868549 -75.255348 0 344 6
2021-09-01 21:07:00 GMT 39.868542 -75.255363 0 344 10
2021-09-01 21:06:58 GMT 39.868450 -75.255341 0 339 8
2021-09-01 21:06:57 GMT 39.868408 -75.255310 0 342 8
2021-09-01 21:06:56 GMT 39.868382 -75.255287 0 339 8
2021-09-01 21:06:54 GMT 39.868309 -75.255257 0 338 9
2021-09-01 21:06:53 GMT 39.868271 -75.255241 0 342 9
2021-09-01 21:06:52 GMT 39.868252 -75.255219 0 343 10
2021-09-01 21:06:50 GMT 39.868141 -75.255173 0 342 9
2021-09-01 21:06:49 GMT 39.868099 -75.255157 0 345 9
2021-09-01 21:06:48 GMT 39.868061 -75.255119 0 348 9
2021-09-01 21:06:46 GMT 39.868000 -75.255119 0 342 11
2021-09-01 21:06:45 GMT 39.867939 -75.255089 0 345 10
2021-09-01 21:06:43 GMT 39.867828 -75.255043 0 349 7
2021-09-01 21:06:42 GMT 39.867779 -75.255028 0 346 5
2021-09-01 21:06:41 GMT 39.867741 -75.255028 0 350 4
2021-09-01 21:06:39 GMT 39.867729 -75.254997 0 356 3
2021-09-01 21:06:38 GMT 39.867710 -75.254990 0 356 3
2021-09-01 21:06:36 GMT 39.867661 -75.254967 0 357 2
2021-09-01 21:06:35 GMT 39.867649 -75.254967 0 357 2
2021-09-01 21:06:34 GMT 39.867641 -75.254967 0 357 1
2021-09-01 21:06:33 GMT 39.867619 -75.254959 0 357 0
2021-09-01 21:06:31 GMT 39.867649 -75.254959 0 357 0
2021-09-01 21:06:30 GMT 39.867611 -75.254929 0 357 0
2021-09-01 21:06:29 GMT 39.867599 -75.254936 0 356 0
2021-09-01 21:06:28 GMT 39.867619 -75.254951 0 356 0
2021-09-01 21:06:25 GMT 39.867630 -75.254951 0 356 0
2021-09-01 21:06:23 GMT 39.867649 -75.254951 0 356 0
2021-09-01 21:06:22 GMT 39.867630 -75.254982 0 356 1
2021-09-01 21:06:20 GMT 39.867641 -75.254990 0 356 1
2021-09-01 21:06:18 GMT 39.867649 -75.254990 0 356 1
2021-09-01 21:06:17 GMT 39.867649 -75.254967 0 356 0
2021-09-01 21:06:16 GMT 39.867649 -75.254959 0 356 0
2021-09-01 21:06:14 GMT 39.867649 -75.254951 0 356 0
2021-09-01 21:06:13 GMT 39.867649 -75.254936 0 356 0
2021-09-01 21:06:10 GMT 39.867641 -75.254951 0 356 0
2021-09-01 21:06:09 GMT 39.867630 -75.254951 0 356 0
2021-09-01 21:06:08 GMT 39.867619 -75.254959 0 356 0
2021-09-01 21:06:05 GMT 39.867630 -75.254967 0 356 1
2021-09-01 21:06:03 GMT 39.867680 -75.254959 0 356 2
2021-09-01 21:06:02 GMT 39.867668 -75.254959 0 356 2
2021-09-01 21:06:00 GMT 39.867630 -75.254951 0 356 0
2021-09-01 21:05:58 GMT 39.867619 -75.254951 0 356 0
2021-09-01 21:05:56 GMT 39.867611 -75.254921 0 352 1
2021-09-01 21:05:55 GMT 39.867619 -75.254921 0 352 1
2021-09-01 21:05:54 GMT 39.867661 -75.254967 0 352 0
2021-09-01 21:05:50 GMT 39.867661 -75.254967 0 352 0
2021-09-01 21:05:48 GMT 39.867668 -75.254967 0 347 0
2021-09-01 21:05:47 GMT 39.867668 -75.254982 0 347 0
2021-09-01 21:05:45 GMT 39.867641 -75.254959 0 347 0
2021-09-01 21:05:43 GMT 39.867649 -75.254967 0 347 0
2021-09-01 21:05:40 GMT 39.867641 -75.254951 0 347 0
2021-09-01 21:05:32 GMT 39.867649 -75.254951 0 345 0
2021-09-01 21:05:30 GMT 39.867649 -75.254959 0 345 0
2021-09-01 21:05:29 GMT 39.867641 -75.254951 0 345 0
2021-09-01 21:05:25 GMT 39.867649 -75.254959 0 345 0
2021-09-01 21:05:23 GMT 39.867641 -75.254959 0 345 0
2021-09-01 21:05:21 GMT 39.867641 -75.254951 0 345 0
2021-09-01 21:05:17 GMT 39.867641 -75.254959 0 345 0
2021-09-01 21:05:16 GMT 39.867649 -75.254959 0 345 0
2021-09-01 21:05:13 GMT 39.867649 -75.254951 0 345 0
2021-09-01 21:05:12 GMT 39.867641 -75.254951 0 345 0
2021-09-01 21:05:11 GMT 39.867641 -75.254959 0 345 0
2021-09-01 21:05:09 GMT 39.867661 -75.254967 0 346 1
2021-09-01 21:05:07 GMT 39.867649 -75.254959 0 347 2
2021-09-01 21:05:06 GMT 39.867630 -75.254951 0 347 0
2021-09-01 21:05:05 GMT 39.867630 -75.254936 0 347 0
2021-09-01 21:05:03 GMT 39.867619 -75.254929 0 347 0
2021-09-01 21:05:02 GMT 39.867619 -75.254913 0 345 2
2021-09-01 21:05:01 GMT 39.867630 -75.254951 0 339 0
2021-09-01 21:04:59 GMT 39.867619 -75.254951 0 339 0
2021-09-01 21:04:58 GMT 39.867630 -75.254959 0 339 1
2021-09-01 21:04:57 GMT 39.867649 -75.254959 0 339 5
2021-09-01 21:04:55 GMT 39.867630 -75.254951 0 332 5
2021-09-01 21:04:54 GMT 39.867611 -75.254982 0 328 6
2021-09-01 21:04:53 GMT 39.867599 -75.254936 0 342 6
2021-09-01 21:04:51 GMT 39.867538 -75.254898 0 340 7
2021-09-01 21:04:50 GMT 39.867512 -75.254921 0 338 7
2021-09-01 21:04:48 GMT 39.867470 -75.254883 0 348 10
2021-09-01 21:04:47 GMT 39.867432 -75.254860 0 351 9
2021-09-01 21:04:46 GMT 39.867390 -75.254837 0 354 10
2021-09-01 21:04:45 GMT 39.867290 -75.254807 0 355 7
2021-09-01 21:04:43 GMT 39.867298 -75.254837 0 353 11
2021-09-01 21:04:42 GMT 39.867249 -75.254822 0 1 11
2021-09-01 21:04:40 GMT 39.867142 -75.254791 0 21 8
2021-09-01 21:04:39 GMT 39.867100 -75.254822 0 25 9
2021-09-01 21:04:38 GMT 39.867039 -75.254852 0 32 10
2021-09-01 21:04:36 GMT 39.866951 -75.254837 0 53 9
2021-09-01 21:04:35 GMT 39.866920 -75.254890 0 59 9
2021-09-01 21:04:33 GMT 39.866852 -75.254959 0 70 9
2021-09-01 21:04:32 GMT 39.866840 -75.255013 0 72 10
2021-09-01 21:04:31 GMT 39.866810 -75.255058 0 78 10
2021-09-01 21:04:30 GMT 39.866821 -75.255127 0 72 10
2021-09-01 21:04:28 GMT 39.866791 -75.255257 0 66 8
2021-09-01 21:04:27 GMT 39.866791 -75.255310 0 67 8
2021-09-01 21:04:26 GMT 39.866741 -75.255386 0 75 9
2021-09-01 21:04:24 GMT 39.866741 -75.255417 0 80 11
2021-09-01 21:04:23 GMT 39.866699 -75.255501 0 88 9
2021-09-01 21:04:21 GMT 39.866692 -75.255592 0 85 10
2021-09-01 21:04:20 GMT 39.866711 -75.255661 0 73 9
2021-09-01 21:04:19 GMT 39.866711 -75.255707 0 72 10
2021-09-01 21:04:17 GMT 39.866699 -75.255829 0 67 9
2021-09-01 21:04:16 GMT 39.866669 -75.255867 0 71 9
2021-09-01 21:04:15 GMT 39.866638 -75.255920 0 74 9
2021-09-01 21:04:13 GMT 39.866631 -75.256027 0 72 9
2021-09-01 21:04:12 GMT 39.866619 -75.256088 0 72 9
2021-09-01 21:04:11 GMT 39.866600 -75.256126 0 79 9
2021-09-01 21:04:09 GMT 39.866581 -75.256210 0 71 11
2021-09-01 21:04:08 GMT 39.866581 -75.256279 0 61 11
2021-09-01 21:04:07 GMT 39.866581 -75.256348 0 48 10
2021-09-01 21:04:05 GMT 39.866550 -75.256462 0 31 11
2021-09-01 21:04:04 GMT 39.866520 -75.256523 0 19 10
2021-09-01 21:04:03 GMT 39.866489 -75.256569 0 13 11
2021-09-01 21:04:01 GMT 39.866402 -75.256607 0 9 11
2021-09-01 21:04:00 GMT 39.866341 -75.256630 0 3 9
2021-09-01 21:03:59 GMT 39.866299 -75.256653 0 356 10
2021-09-01 21:03:57 GMT 39.866211 -75.256668 0 357 11
2021-09-01 21:03:56 GMT 39.866150 -75.256630 0 2 9
2021-09-01 21:03:54 GMT 39.866058 -75.256638 0 3 9
2021-09-01 21:03:53 GMT 39.866009 -75.256622 0 12 8
2021-09-01 21:03:52 GMT 39.865978 -75.256607 0 18 9
2021-09-01 21:03:50 GMT 39.865891 -75.256653 0 30 8
2021-09-01 21:03:49 GMT 39.865849 -75.256638 0 38 9
2021-09-01 21:03:48 GMT 39.865810 -75.256660 0 46 9
2021-09-01 21:03:47 GMT 39.865761 -75.256691 0 54 8
2021-09-01 21:03:45 GMT 39.865700 -75.256760 0 61 8
2021-09-01 21:03:43 GMT 39.865669 -75.256851 0 57 8
2021-09-01 21:03:42 GMT 39.865662 -75.256889 0 57 8
2021-09-01 21:03:41 GMT 39.865639 -75.256958 0 60 6
2021-09-01 21:03:39 GMT 39.865589 -75.257004 0 77 6
2021-09-01 21:03:38 GMT 39.865570 -75.257080 0 73 6
2021-09-01 21:03:36 GMT 39.865582 -75.257103 0 67 8
2021-09-01 21:03:35 GMT 39.865551 -75.257156 0 72 5
2021-09-01 21:03:34 GMT 39.865540 -75.257202 0 71 4
2021-09-01 21:03:32 GMT 39.865520 -75.257248 0 78 6
2021-09-01 21:03:31 GMT 39.865509 -75.257271 0 78 6
2021-09-01 21:03:30 GMT 39.865520 -75.257317 0 79 7
2021-09-01 21:03:28 GMT 39.865479 -75.257378 0 91 6
2021-09-01 21:03:27 GMT 39.865501 -75.257431 0 82 6
2021-09-01 21:03:26 GMT 39.865501 -75.257446 0 82 7
2021-09-01 21:03:25 GMT 39.865490 -75.257584 0 110 4
2021-09-01 21:03:23 GMT 39.865490 -75.257599 0 110 4
2021-09-01 21:03:22 GMT 39.865452 -75.257629 0 112 4
2021-09-01 21:03:20 GMT 39.865471 -75.257721 0 112 0
2021-09-01 21:03:18 GMT 39.865452 -75.257736 0 112 0
2021-09-01 21:03:15 GMT 39.865459 -75.257736 0 111 0
2021-09-01 21:03:13 GMT 39.865440 -75.257751 0 111 0
2021-09-01 21:03:12 GMT 39.865440 -75.257736 0 111 0
2021-09-01 21:03:10 GMT 39.865440 -75.257751 0 111 0
2021-09-01 21:03:09 GMT 39.865440 -75.257736 0 111 0
2021-09-01 21:03:08 GMT 39.865429 -75.257736 0 111 0
2021-09-01 21:03:07 GMT 39.865429 -75.257751 0 110 1
2021-09-01 21:03:05 GMT 39.865429 -75.257736 0 105 0
2021-09-01 21:03:04 GMT 39.865429 -75.257729 0 105 0
2021-09-01 21:03:00 GMT 39.865429 -75.257713 0 105 0
2021-09-01 21:02:57 GMT 39.865429 -75.257721 0 105 0
2021-09-01 21:02:56 GMT 39.865410 -75.257729 0 105 0
2021-09-01 21:02:54 GMT 39.865490 -75.257736 0 107 2
2021-09-01 21:02:53 GMT 39.865490 -75.257729 0 109 2
2021-09-01 21:02:51 GMT 39.865479 -75.257736 0 109 2
2021-09-01 21:02:50 GMT 39.865440 -75.257736 0 109 0
2021-09-01 21:02:48 GMT 39.865440 -75.257751 0 109 0
2021-09-01 21:02:46 GMT 39.865429 -75.257751 0 109 0
2021-09-01 21:02:44 GMT 39.865360 -75.257652 0 108 3
2021-09-01 21:02:43 GMT 39.865360 -75.257637 0 106 4
2021-09-01 21:02:42 GMT 39.865398 -75.257690 0 106 1
2021-09-01 21:02:40 GMT 39.865429 -75.257729 0 106 0
2021-09-01 21:02:38 GMT 39.865440 -75.257729 0 106 1
2021-09-01 21:02:35 GMT 39.865440 -75.257736 0 105 0
2021-09-01 21:02:33 GMT 39.865479 -75.257751 0 110 1
2021-09-01 21:02:32 GMT 39.865471 -75.257751 0 110 1
2021-09-01 21:02:30 GMT 39.865440 -75.257751 0 110 0
2021-09-01 21:02:28 GMT 39.865440 -75.257729 0 111 0
2021-09-01 21:02:25 GMT 39.865440 -75.257751 0 111 0
2021-09-01 21:02:22 GMT 39.865452 -75.257751 0 111 0
2021-09-01 21:02:20 GMT 39.865440 -75.257736 0 111 0
2021-09-01 21:02:18 GMT 39.865429 -75.257736 0 111 0
2021-09-01 21:02:17 GMT 39.865440 -75.257751 0 111 0
2021-09-01 21:02:16 GMT 39.865429 -75.257736 0 111 0
2021-09-01 21:02:13 GMT 39.865452 -75.257767 0 111 0
2021-09-01 21:02:12 GMT 39.865459 -75.257751 0 111 1
2021-09-01 21:02:10 GMT 39.865459 -75.257767 0 111 1
2021-09-01 21:02:08 GMT 39.865452 -75.257767 0 111 0
2021-09-01 21:02:05 GMT 39.865429 -75.257759 0 111 0
2021-09-01 21:02:04 GMT 39.865452 -75.257713 0 113 1
2021-09-01 21:02:02 GMT 39.865452 -75.257698 0 114 2
2021-09-01 21:02:01 GMT 39.865440 -75.257698 0 114 2
2021-09-01 21:02:00 GMT 39.865421 -75.257721 0 114 0
2021-09-01 21:01:57 GMT 39.865440 -75.257759 0 114 0
2021-09-01 21:01:56 GMT 39.865440 -75.257751 0 114 0
2021-09-01 21:01:55 GMT 39.865440 -75.257759 0 114 0
2021-09-01 21:01:53 GMT 39.865421 -75.257751 0 114 0
2021-09-01 21:01:52 GMT 39.865452 -75.257729 0 114 0
2021-09-01 21:01:50 GMT 39.865452 -75.257721 0 114 0
2021-09-01 21:01:48 GMT 39.865429 -75.257767 0 113 2
2021-09-01 21:01:46 GMT 39.865440 -75.257721 0 113 0
2021-09-01 21:01:45 GMT 39.865421 -75.257721 0 113 0
2021-09-01 21:01:43 GMT 39.865471 -75.257759 0 113 0
2021-09-01 21:01:40 GMT 39.865429 -75.257736 0 113 0
2021-09-01 21:01:38 GMT 39.865471 -75.257713 0 113 0
2021-09-01 21:01:37 GMT 39.865471 -75.257721 0 113 0
2021-09-01 21:01:36 GMT 39.865429 -75.257782 0 113 0
2021-09-01 21:01:33 GMT 39.865429 -75.257713 0 113 1
2021-09-01 21:01:32 GMT 39.865429 -75.257698 0 112 1
2021-09-01 21:01:31 GMT 39.865429 -75.257713 0 112 2
2021-09-01 21:01:30 GMT 39.865440 -75.257713 0 112 2
2021-09-01 21:01:29 GMT 39.865479 -75.257751 0 112 0
2021-09-01 21:01:27 GMT 39.865490 -75.257751 0 112 0
2021-09-01 21:01:25 GMT 39.865429 -75.257729 0 112 0
2021-09-01 21:01:24 GMT 39.865452 -75.257751 0 112 0
2021-09-01 21:01:23 GMT 39.865429 -75.257736 0 112 0
2021-09-01 21:01:20 GMT 39.865429 -75.257729 0 112 0
2021-09-01 21:01:19 GMT 39.865429 -75.257736 0 112 0
2021-09-01 21:01:17 GMT 39.865429 -75.257736 0 113 0
2021-09-01 21:01:15 GMT 39.865421 -75.257713 0 113 1
2021-09-01 21:01:14 GMT 39.865440 -75.257729 0 114 1
2021-09-01 21:01:11 GMT 39.865440 -75.257729 0 114 1
2021-09-01 21:01:08 GMT 39.865440 -75.257790 0 112 1
2021-09-01 21:01:07 GMT 39.865410 -75.257797 0 110 3
2021-09-01 21:01:06 GMT 39.865452 -75.257736 0 107 1
2021-09-01 21:01:03 GMT 39.865452 -75.257698 0 102 0
2021-09-01 21:00:59 GMT 39.865429 -75.257751 0 102 0
2021-09-01 21:00:55 GMT 39.865429 -75.257736 0 100 0
2021-09-01 21:00:52 GMT 39.865421 -75.257736 0 99 1
2021-09-01 21:00:50 GMT 39.865429 -75.257751 0 98 2
2021-09-01 21:00:49 GMT 39.865421 -75.257721 0 98 1
2021-09-01 21:00:48 GMT 39.865440 -75.257690 0 98 1
2021-09-01 21:00:45 GMT 39.865452 -75.257729 0 98 1
2021-09-01 21:00:43 GMT 39.865421 -75.257698 0 99 1
2021-09-01 21:00:42 GMT 39.865429 -75.257713 0 99 1
2021-09-01 21:00:40 GMT 39.865440 -75.257751 0 99 0
2021-09-01 21:00:37 GMT 39.865440 -75.257721 0 99 0
2021-09-01 21:00:35 GMT 39.865429 -75.257721 0 99 0
2021-09-01 21:00:33 GMT 39.865410 -75.257698 0 99 1
2021-09-01 21:00:32 GMT 39.865410 -75.257713 0 98 1
2021-09-01 21:00:30 GMT 39.865452 -75.257713 0 98 1
2021-09-01 21:00:29 GMT 39.865452 -75.257736 0 98 0
2021-09-01 21:00:26 GMT 39.865452 -75.257751 0 98 0
2021-09-01 21:00:24 GMT 39.865429 -75.257736 0 98 0
2021-09-01 21:00:22 GMT 39.865440 -75.257736 0 98 0
2021-09-01 21:00:20 GMT 39.865440 -75.257751 0 98 0
2021-09-01 21:00:18 GMT 39.865429 -75.257751 0 98 0
2021-09-01 21:00:15 GMT 39.865440 -75.257736 0 98 0
2021-09-01 21:00:14 GMT 39.865440 -75.257782 0 98 0
2021-09-01 21:00:12 GMT 39.865440 -75.257736 0 98 0
2021-09-01 21:00:11 GMT 39.865429 -75.257736 0 99 0
2021-09-01 21:00:09 GMT 39.865429 -75.257729 0 99 0
2021-09-01 21:00:05 GMT 39.865440 -75.257751 0 99 0
2021-09-01 21:00:04 GMT 39.865440 -75.257759 0 99 0
2021-09-01 21:00:03 GMT 39.865429 -75.257736 0 99 0
2021-09-01 21:00:00 GMT 39.865440 -75.257736 0 99 0
2021-09-01 20:59:58 GMT 39.865452 -75.257729 0 99 0
2021-09-01 20:59:56 GMT 39.865429 -75.257736 0 99 0
2021-09-01 20:59:54 GMT 39.865429 -75.257729 0 99 0
2021-09-01 20:59:53 GMT 39.865421 -75.257721 0 99 1
2021-09-01 20:59:52 GMT 39.865429 -75.257713 0 99 2
2021-09-01 20:59:50 GMT 39.865429 -75.257721 0 99 2
2021-09-01 20:59:49 GMT 39.865429 -75.257751 0 99 1
2021-09-01 20:59:47 GMT 39.865459 -75.257767 0 98 0
2021-09-01 20:59:44 GMT 39.865509 -75.257782 0 95 1
2021-09-01 20:59:42 GMT 39.865509 -75.257782 0 96 2
2021-09-01 20:59:41 GMT 39.865501 -75.257751 0 99 1
2021-09-01 20:59:40 GMT 39.865479 -75.257767 0 99 1
2021-09-01 20:59:35 GMT 39.865429 -75.257736 0 99 0
2021-09-01 20:59:34 GMT 39.865440 -75.257759 0 98 0
2021-09-01 20:59:32 GMT 39.865440 -75.257736 0 98 0
2021-09-01 20:59:30 GMT 39.865440 -75.257736 0 98 0
2021-09-01 20:59:29 GMT 39.865452 -75.257790 0 98 0
2021-09-01 20:59:28 GMT 39.865440 -75.257736 0 98 0
2021-09-01 20:59:26 GMT 39.865440 -75.257736 0 98 0
2021-09-01 20:59:25 GMT 39.865452 -75.257736 0 98 1
2021-09-01 20:59:21 GMT 39.865440 -75.257729 0 103 1
2021-09-01 20:59:20 GMT 39.865429 -75.257729 0 103 1
2021-09-01 20:59:18 GMT 39.865372 -75.257721 0 101 2
2021-09-01 20:59:17 GMT 39.865440 -75.257782 0 101 2
2021-09-01 20:59:16 GMT 39.865440 -75.257736 0 101 0
2021-09-01 20:59:13 GMT 39.865440 -75.257721 0 101 1
2021-09-01 20:59:10 GMT 39.865452 -75.257721 0 101 0
2021-09-01 20:59:09 GMT 39.865421 -75.257713 0 101 0
2021-09-01 20:59:06 GMT 39.865440 -75.257729 0 100 0
2021-09-01 20:59:05 GMT 39.865440 -75.257751 0 100 0
2021-09-01 20:59:02 GMT 39.865440 -75.257736 0 100 0
2021-09-01 20:59:00 GMT 39.865440 -75.257736 0 100 0
2021-09-01 20:58:59 GMT 39.865421 -75.257729 0 103 0
2021-09-01 20:58:57 GMT 39.865429 -75.257759 0 110 2
2021-09-01 20:58:55 GMT 39.865429 -75.257751 0 112 2
2021-09-01 20:58:53 GMT 39.865379 -75.257721 0 113 1
2021-09-01 20:58:50 GMT 39.865410 -75.257729 0 113 0
2021-09-01 20:58:46 GMT 39.865429 -75.257736 0 113 0
2021-09-01 20:58:45 GMT 39.865440 -75.257729 0 113 0
2021-09-01 20:58:42 GMT 39.865440 -75.257729 0 113 0
2021-09-01 20:58:40 GMT 39.865440 -75.257721 0 113 0
2021-09-01 20:58:37 GMT 39.865421 -75.257721 0 118 0
2021-09-01 20:58:35 GMT 39.865440 -75.257736 0 118 0
2021-09-01 20:58:34 GMT 39.865440 -75.257736 0 118 0
2021-09-01 20:58:30 GMT 39.865440 -75.257751 0 118 0
2021-09-01 20:58:29 GMT 39.865452 -75.257751 0 118 0
2021-09-01 20:58:28 GMT 39.865440 -75.257736 0 118 1
2021-09-01 20:58:26 GMT 39.865440 -75.257751 0 118 0
2021-09-01 20:58:25 GMT 39.865440 -75.257767 0 118 0
2021-09-01 20:58:23 GMT 39.865429 -75.257751 0 118 0
2021-09-01 20:58:22 GMT 39.865440 -75.257759 0 118 0
2021-09-01 20:58:20 GMT 39.865440 -75.257751 0 118 0
2021-09-01 20:58:19 GMT 39.865440 -75.257759 0 118 0
2021-09-01 20:58:18 GMT 39.865440 -75.257767 0 118 0
2021-09-01 20:58:15 GMT 39.865440 -75.257782 0 118 0
2021-09-01 20:58:11 GMT 39.865452 -75.257729 0 118 0
2021-09-01 20:58:10 GMT 39.865429 -75.257736 0 118 0
2021-09-01 20:58:05 GMT 39.865440 -75.257751 0 118 0
2021-09-01 20:58:04 GMT 39.865459 -75.257759 0 118 0
2021-09-01 20:57:55 GMT 39.865440 -75.257736 0 118 0
2021-09-01 20:57:53 GMT 39.865429 -75.257751 0 118 0
2021-09-01 20:57:50 GMT 39.865429 -75.257736 0 118 0
2021-09-01 20:57:49 GMT 39.865452 -75.257736 0 118 0
2021-09-01 20:57:47 GMT 39.865429 -75.257751 0 118 0
2021-09-01 20:57:46 GMT 39.865429 -75.257759 0 118 0
2021-09-01 20:57:40 GMT 39.865440 -75.257759 0 118 0
2021-09-01 20:57:39 GMT 39.865459 -75.257736 0 118 0
2021-09-01 20:57:38 GMT 39.865440 -75.257751 0 118 0
2021-09-01 20:57:35 GMT 39.865440 -75.257759 0 118 0
2021-09-01 20:57:34 GMT 39.865429 -75.257782 0 118 0
2021-09-01 20:57:31 GMT 39.865429 -75.257767 0 117 0
2021-09-01 20:57:30 GMT 39.865440 -75.257729 0 117 0
2021-09-01 20:57:28 GMT 39.865429 -75.257721 0 117 0
2021-09-01 20:57:27 GMT 39.865429 -75.257729 0 117 0
2021-09-01 20:57:26 GMT 39.865440 -75.257736 0 117 0
2021-09-01 20:57:24 GMT 39.865440 -75.257729 0 117 0
2021-09-01 20:57:23 GMT 39.865452 -75.257751 0 117 0
2021-09-01 20:57:21 GMT 39.865452 -75.257751 0 117 0
2021-09-01 20:57:20 GMT 39.865459 -75.257729 0 117 0
2021-09-01 20:57:19 GMT 39.865479 -75.257736 0 117 1
2021-09-01 20:57:17 GMT 39.865479 -75.257729 0 118 1
2021-09-01 20:57:16 GMT 39.865452 -75.257729 0 118 0
2021-09-01 20:57:14 GMT 39.865452 -75.257736 0 118 0
2021-09-01 20:57:13 GMT 39.865452 -75.257751 0 118 0
2021-09-01 20:57:12 GMT 39.865429 -75.257736 0 118 0
2021-09-01 20:57:11 GMT 39.865440 -75.257751 0 117 1
2021-09-01 20:57:09 GMT 39.865429 -75.257729 0 117 0
2021-09-01 20:57:07 GMT 39.865429 -75.257729 0 117 0
2021-09-01 20:57:06 GMT 39.865421 -75.257729 0 117 0
2021-09-01 20:57:05 GMT 39.865452 -75.257721 0 117 0
2021-09-01 20:57:03 GMT 39.865452 -75.257721 0 117 0
2021-09-01 20:57:02 GMT 39.865459 -75.257721 0 117 1
2021-09-01 20:57:00 GMT 39.865410 -75.257690 0 116 1
2021-09-01 20:56:59 GMT 39.865440 -75.257652 0 116 3
2021-09-01 20:56:56 GMT 39.865440 -75.257736 0 116 0
2021-09-01 20:56:55 GMT 39.865459 -75.257759 0 116 0
2021-09-01 20:56:54 GMT 39.865440 -75.257736 0 116 0
2021-09-01 20:56:51 GMT 39.865452 -75.257751 0 116 0
2021-09-01 20:56:47 GMT 39.865429 -75.257736 0 116 0
2021-09-01 20:56:44 GMT 39.865410 -75.257729 0 116 0
2021-09-01 20:56:41 GMT 39.865440 -75.257751 0 116 0
2021-09-01 20:56:40 GMT 39.865429 -75.257736 0 116 0
2021-09-01 20:56:37 GMT 39.865440 -75.257736 0 116 0
2021-09-01 20:56:34 GMT 39.865440 -75.257736 0 116 0
2021-09-01 20:56:33 GMT 39.865452 -75.257729 0 116 0
2021-09-01 20:56:31 GMT 39.865429 -75.257751 0 116 0
2021-09-01 20:56:29 GMT 39.865440 -75.257736 0 116 0
2021-09-01 20:56:28 GMT 39.865429 -75.257736 0 116 0
2021-09-01 20:56:27 GMT 39.865429 -75.257759 0 116 0
2021-09-01 20:56:21 GMT 39.865440 -75.257751 0 118 0
2021-09-01 20:56:20 GMT 39.865410 -75.257736 0 118 1
2021-09-01 20:56:18 GMT 39.865410 -75.257729 0 117 1
2021-09-01 20:56:16 GMT 39.865421 -75.257729 0 117 1
2021-09-01 20:56:11 GMT 39.865440 -75.257729 0 118 0
2021-09-01 20:56:09 GMT 39.865452 -75.257729 0 118 1
2021-09-01 20:56:07 GMT 39.865398 -75.257721 0 118 2
2021-09-01 20:56:05 GMT 39.865410 -75.257721 0 118 2
2021-09-01 20:56:03 GMT 39.865440 -75.257713 0 116 2
2021-09-01 20:56:02 GMT 39.865440 -75.257721 0 116 2
2021-09-01 20:56:01 GMT 39.865452 -75.257721 0 116 2
2021-09-01 20:56:00 GMT 39.865520 -75.257767 0 116 1
2021-09-01 20:55:58 GMT 39.865440 -75.257751 0 116 0
2021-09-01 20:55:57 GMT 39.865440 -75.257736 0 116 0
2021-09-01 20:55:55 GMT 39.865440 -75.257751 0 116 0
2021-09-01 20:55:53 GMT 39.865452 -75.257751 0 116 0
2021-09-01 20:55:45 GMT 39.865452 -75.257721 0 116 0
2021-09-01 20:55:43 GMT 39.865452 -75.257721 0 116 0
2021-09-01 20:55:42 GMT 39.865440 -75.257736 0 116 0
2021-09-01 20:55:40 GMT 39.865459 -75.257721 0 116 1
2021-09-01 20:55:39 GMT 39.865471 -75.257751 0 116 1
2021-09-01 20:55:38 GMT 39.865459 -75.257736 0 116 1
2021-09-01 20:55:37 GMT 39.865398 -75.257736 0 116 2
2021-09-01 20:55:35 GMT 39.865410 -75.257736 0 116 2
2021-09-01 20:55:33 GMT 39.865440 -75.257698 0 116 0
2021-09-01 20:55:32 GMT 39.865452 -75.257736 0 116 0
2021-09-01 20:55:29 GMT 39.865429 -75.257729 0 116 0
2021-09-01 20:55:27 GMT 39.865429 -75.257721 0 116 0
2021-09-01 20:55:26 GMT 39.865440 -75.257729 0 116 0
2021-09-01 20:55:23 GMT 39.865440 -75.257729 0 116 0
2021-09-01 20:55:22 GMT 39.865429 -75.257721 0 116 0
2021-09-01 20:55:20 GMT 39.865421 -75.257721 0 116 0
2021-09-01 20:55:17 GMT 39.865440 -75.257736 0 116 0
2021-09-01 20:55:16 GMT 39.865440 -75.257751 0 116 0
2021-09-01 20:55:14 GMT 39.865429 -75.257759 0 116 0
2021-09-01 20:55:12 GMT 39.865440 -75.257759 0 116 0
2021-09-01 20:55:11 GMT 39.865429 -75.257782 0 116 0
2021-09-01 20:55:10 GMT 39.865429 -75.257751 0 116 0
2021-09-01 20:55:07 GMT 39.865429 -75.257751 0 116 0
2021-09-01 20:55:06 GMT 39.865452 -75.257736 0 116 0
2021-09-01 20:55:02 GMT 39.865452 -75.257736 0 116 0
2021-09-01 20:55:01 GMT 39.865459 -75.257751 0 116 0
2021-09-01 20:55:00 GMT 39.865440 -75.257751 0 116 0
2021-09-01 20:54:57 GMT 39.865452 -75.257751 0 116 0
2021-09-01 20:54:56 GMT 39.865440 -75.257729 0 116 0
2021-09-01 20:54:55 GMT 39.865440 -75.257736 0 116 0
2021-09-01 20:54:53 GMT 39.865459 -75.257751 0 116 0
2021-09-01 20:54:52 GMT 39.865459 -75.257759 0 116 0
2021-09-01 20:54:51 GMT 39.865490 -75.257782 0 118 1
2021-09-01 20:54:49 GMT 39.865410 -75.257729 0 119 0
2021-09-01 20:54:47 GMT 39.865410 -75.257736 0 119 0
2021-09-01 20:54:45 GMT 39.865459 -75.257759 0 120 0
2021-09-01 20:54:43 GMT 39.865459 -75.257767 0 120 0
2021-09-01 20:54:41 GMT 39.865421 -75.257759 0 120 0
2021-09-01 20:54:40 GMT 39.865429 -75.257729 0 120 0
2021-09-01 20:54:39 GMT 39.865421 -75.257729 0 120 0
2021-09-01 20:54:37 GMT 39.865421 -75.257721 0 120 0
2021-09-01 20:54:36 GMT 39.865429 -75.257729 0 120 0
2021-09-01 20:54:32 GMT 39.865429 -75.257721 0 120 0
2021-09-01 20:54:29 GMT 39.865429 -75.257729 0 120 0
2021-09-01 20:54:27 GMT 39.865440 -75.257736 0 120 0
2021-09-01 20:54:25 GMT 39.865429 -75.257729 0 120 0
2021-09-01 20:54:22 GMT 39.865440 -75.257736 0 120 0
2021-09-01 20:54:20 GMT 39.865452 -75.257767 0 120 0
2021-09-01 20:54:19 GMT 39.865452 -75.257759 0 120 0
2021-09-01 20:54:17 GMT 39.865421 -75.257767 0 120 0
2021-09-01 20:54:15 GMT 39.865429 -75.257751 0 119 0
2021-09-01 20:54:14 GMT 39.865429 -75.257736 0 118 0
2021-09-01 20:54:12 GMT 39.865429 -75.257729 0 118 0
2021-09-01 20:54:11 GMT 39.865440 -75.257736 0 118 0
2021-09-01 20:54:06 GMT 39.865429 -75.257736 0 118 0
2021-09-01 20:54:03 GMT 39.865421 -75.257736 0 118 0
2021-09-01 20:54:01 GMT 39.865440 -75.257751 0 118 0
2021-09-01 20:54:00 GMT 39.865440 -75.257729 0 118 0
2021-09-01 20:53:59 GMT 39.865440 -75.257751 0 118 0
2021-09-01 20:53:57 GMT 39.865440 -75.257751 0 118 0
2021-09-01 20:53:56 GMT 39.865429 -75.257751 0 118 0
2021-09-01 20:53:55 GMT 39.865421 -75.257759 0 118 1
2021-09-01 20:53:54 GMT 39.865452 -75.257721 0 118 0
2021-09-01 20:53:53 GMT 39.865440 -75.257751 0 118 0
2021-09-01 20:53:51 GMT 39.865440 -75.257751 0 119 0
2021-09-01 20:53:47 GMT 39.865440 -75.257759 0 119 0
2021-09-01 20:53:45 GMT 39.865459 -75.257782 0 119 1
2021-09-01 20:53:43 GMT 39.865440 -75.257751 0 119 0
2021-09-01 20:53:40 GMT 39.865440 -75.257736 0 119 0
2021-09-01 20:53:37 GMT 39.865440 -75.257736 0 119 0
2021-09-01 20:53:36 GMT 39.865429 -75.257729 0 119 0
2021-09-01 20:53:35 GMT 39.865429 -75.257721 0 119 0
2021-09-01 20:53:34 GMT 39.865440 -75.257751 0 119 0
2021-09-01 20:53:32 GMT 39.865440 -75.257736 0 119 0
2021-09-01 20:53:31 GMT 39.865459 -75.257759 0 119 0
2021-09-01 20:53:27 GMT 39.865459 -75.257767 0 119 0
2021-09-01 20:53:25 GMT 39.865459 -75.257751 0 119 0
2021-09-01 20:53:24 GMT 39.865471 -75.257751 0 119 1
2021-09-01 20:53:22 GMT 39.865429 -75.257751 0 119 1
2021-09-01 20:53:20 GMT 39.865421 -75.257736 0 117 1
2021-09-01 20:53:18 GMT 39.865429 -75.257736 0 117 1
2021-09-01 20:53:17 GMT 39.865452 -75.257751 0 117 0
2021-09-01 20:53:16 GMT 39.865471 -75.257736 0 117 1
2021-09-01 20:53:12 GMT 39.865429 -75.257759 0 117 0
2021-09-01 20:53:11 GMT 39.865490 -75.257790 0 119 2
2021-09-01 20:53:10 GMT 39.865479 -75.257782 0 121 2
2021-09-01 20:53:09 GMT 39.865471 -75.257767 0 122 2
2021-09-01 20:53:07 GMT 39.865440 -75.257736 0 122 1
2021-09-01 20:53:06 GMT 39.865398 -75.257698 0 122 1
2021-09-01 20:53:04 GMT 39.865440 -75.257736 0 122 0
2021-09-01 20:53:01 GMT 39.865452 -75.257736 0 122 0
2021-09-01 20:53:00 GMT 39.865452 -75.257767 0 123 0
2021-09-01 20:52:59 GMT 39.865452 -75.257782 0 123 0
2021-09-01 20:52:57 GMT 39.865459 -75.257782 0 123 0
2021-09-01 20:52:56 GMT 39.865440 -75.257751 0 123 0
2021-09-01 20:52:54 GMT 39.865452 -75.257751 0 123 0
2021-09-01 20:52:52 GMT 39.865440 -75.257751 0 123 0
2021-09-01 20:52:51 GMT 39.865429 -75.257751 0 123 0
2021-09-01 20:52:48 GMT 39.865440 -75.257736 0 119 1
2021-09-01 20:52:46 GMT 39.865429 -75.257759 0 116 0
2021-09-01 20:52:45 GMT 39.865440 -75.257736 0 116 0
2021-09-01 20:52:42 GMT 39.865440 -75.257751 0 116 0
2021-09-01 20:52:40 GMT 39.865440 -75.257736 0 116 0
2021-09-01 20:52:38 GMT 39.865440 -75.257751 0 117 0
2021-09-01 20:52:37 GMT 39.865429 -75.257736 0 117 0
2021-09-01 20:52:33 GMT 39.865429 -75.257736 0 117 0
2021-09-01 20:52:30 GMT 39.865429 -75.257736 0 117 0
2021-09-01 20:52:28 GMT 39.865440 -75.257736 0 117 0
2021-09-01 20:52:22 GMT 39.865429 -75.257736 0 117 0
2021-09-01 20:52:17 GMT 39.865429 -75.257736 0 117 0
2021-09-01 20:52:14 GMT 39.865429 -75.257729 0 117 0
2021-09-01 20:52:13 GMT 39.865429 -75.257736 0 117 0
2021-09-01 20:52:11 GMT 39.865452 -75.257759 0 117 0
2021-09-01 20:52:09 GMT 39.865459 -75.257767 0 117 0
2021-09-01 20:52:08 GMT 39.865459 -75.257782 0 117 0
2021-09-01 20:52:07 GMT 39.865471 -75.257767 0 117 0
2021-09-01 20:52:03 GMT 39.865459 -75.257751 0 117 0
2021-09-01 20:52:02 GMT 39.865452 -75.257736 0 117 0
2021-09-01 20:52:01 GMT 39.865459 -75.257729 0 117 0
2021-09-01 20:51:57 GMT 39.865440 -75.257736 0 115 1
2021-09-01 20:51:56 GMT 39.865429 -75.257759 0 110 2
2021-09-01 20:51:54 GMT 39.865429 -75.257751 0 109 2
2021-09-01 20:51:53 GMT 39.865429 -75.257736 0 107 2
2021-09-01 20:51:52 GMT 39.865440 -75.257698 0 104 0
2021-09-01 20:51:48 GMT 39.865440 -75.257729 0 104 0
2021-09-01 20:51:47 GMT 39.865440 -75.257721 0 104 0
2021-09-01 20:51:43 GMT 39.865440 -75.257736 0 104 0
2021-09-01 20:51:42 GMT 39.865429 -75.257721 0 104 0
2021-09-01 20:51:40 GMT 39.865429 -75.257713 0 104 0
2021-09-01 20:51:37 GMT 39.865429 -75.257713 0 105 0
2021-09-01 20:51:36 GMT 39.865330 -75.257637 0 104 7
2021-09-01 20:51:34 GMT 39.865440 -75.257729 0 104 1
2021-09-01 20:51:32 GMT 39.865471 -75.257736 0 104 1
2021-09-01 20:51:30 GMT 39.865459 -75.257751 0 104 0
2021-09-01 20:51:29 GMT 39.865452 -75.257751 0 104 0
2021-09-01 20:51:27 GMT 39.865452 -75.257736 0 104 0
2021-09-01 20:51:26 GMT 39.865452 -75.257729 0 104 0
2021-09-01 20:51:25 GMT 39.865452 -75.257736 0 104 0
2021-09-01 20:51:23 GMT 39.865440 -75.257729 0 104 0
2021-09-01 20:51:22 GMT 39.865440 -75.257736 0 104 0
2021-09-01 20:51:21 GMT 39.865459 -75.257736 0 104 0
2021-09-01 20:51:19 GMT 39.865459 -75.257751 0 104 0
2021-09-01 20:51:17 GMT 39.865452 -75.257729 0 104 0
2021-09-01 20:51:12 GMT 39.865440 -75.257721 0 104 0
2021-09-01 20:51:11 GMT 39.865440 -75.257729 0 104 0
2021-09-01 20:51:10 GMT 39.865440 -75.257721 0 104 0
2021-09-01 20:51:07 GMT 39.865440 -75.257721 0 104 1
2021-09-01 20:51:04 GMT 39.865452 -75.257751 0 103 0
2021-09-01 20:51:03 GMT 39.865452 -75.257736 0 103 0
2021-09-01 20:50:58 GMT 39.865429 -75.257729 0 101 0
2021-09-01 20:50:57 GMT 39.865421 -75.257729 0 101 0
2021-09-01 20:50:56 GMT 39.865398 -75.257729 0 101 0
2021-09-01 20:50:54 GMT 39.865398 -75.257721 0 101 0
2021-09-01 20:50:53 GMT 39.865391 -75.257721 0 101 0
2021-09-01 20:50:51 GMT 39.865440 -75.257729 0 101 0
2021-09-01 20:50:48 GMT 39.865429 -75.257721 0 101 0
2021-09-01 20:50:47 GMT 39.865471 -75.257660 0 101 2
2021-09-01 20:50:45 GMT 39.865471 -75.257668 0 101 3
2021-09-01 20:50:44 GMT 39.865459 -75.257683 0 101 3
2021-09-01 20:50:42 GMT 39.865452 -75.257736 0 101 0
2021-09-01 20:50:40 GMT 39.865479 -75.257736 0 101 0
2021-09-01 20:50:38 GMT 39.865429 -75.257721 0 101 0
2021-09-01 20:50:36 GMT 39.865452 -75.257751 0 101 0
2021-09-01 20:50:34 GMT 39.865452 -75.257751 0 101 0
2021-09-01 20:50:32 GMT 39.865440 -75.257751 0 101 0
2021-09-01 20:50:28 GMT 39.865440 -75.257751 0 101 0
2021-09-01 20:50:27 GMT 39.865459 -75.257729 0 105 1
2021-09-01 20:50:25 GMT 39.865459 -75.257736 0 105 1
2021-09-01 20:50:24 GMT 39.865452 -75.257736 0 105 1
2021-09-01 20:50:22 GMT 39.865440 -75.257736 0 105 0
2021-09-01 20:50:21 GMT 39.865429 -75.257736 0 105 0
2021-09-01 20:50:17 GMT 39.865440 -75.257736 0 103 0
2021-09-01 20:50:15 GMT 39.865440 -75.257713 0 103 0
2021-09-01 20:50:14 GMT 39.865440 -75.257721 0 103 0
2021-09-01 20:50:13 GMT 39.865440 -75.257713 0 103 0
2021-09-01 20:50:11 GMT 39.865452 -75.257767 0 103 1
2021-09-01 20:50:10 GMT 39.865459 -75.257767 0 105 1
2021-09-01 20:50:09 GMT 39.865452 -75.257767 0 107 1
2021-09-01 20:50:07 GMT 39.865452 -75.257759 0 108 1
2021-09-01 20:50:06 GMT 39.865440 -75.257729 0 108 0
2021-09-01 20:50:05 GMT 39.865429 -75.257736 0 108 0
2021-09-01 20:50:02 GMT 39.865440 -75.257729 0 108 0
2021-09-01 20:50:00 GMT 39.865440 -75.257698 0 107 0
2021-09-01 20:49:59 GMT 39.865452 -75.257698 0 107 1
2021-09-01 20:49:58 GMT 39.865429 -75.257683 0 108 2
2021-09-01 20:49:57 GMT 39.865429 -75.257721 0 108 0
2021-09-01 20:49:55 GMT 39.865421 -75.257729 0 108 0
2021-09-01 20:49:52 GMT 39.865452 -75.257759 0 108 0
2021-09-01 20:49:49 GMT 39.865459 -75.257736 0 108 0
2021-09-01 20:49:47 GMT 39.865452 -75.257736 0 108 0
2021-09-01 20:49:45 GMT 39.865509 -75.257736 0 109 1
2021-09-01 20:49:44 GMT 39.865501 -75.257736 0 110 2
2021-09-01 20:49:42 GMT 39.865440 -75.257736 0 110 0
2021-09-01 20:49:41 GMT 39.865440 -75.257751 0 110 0
2021-09-01 20:49:37 GMT 39.865440 -75.257759 0 110 0
2021-09-01 20:49:32 GMT 39.865421 -75.257729 0 109 0
2021-09-01 20:49:30 GMT 39.865421 -75.257729 0 109 0
2021-09-01 20:49:27 GMT 39.865440 -75.257751 0 109 0
2021-09-01 20:49:26 GMT 39.865452 -75.257751 0 109 0
2021-09-01 20:49:22 GMT 39.865452 -75.257736 0 109 0
2021-09-01 20:49:19 GMT 39.865452 -75.257751 0 109 0
2021-09-01 20:49:17 GMT 39.865452 -75.257767 0 109 0
2021-09-01 20:49:13 GMT 39.865452 -75.257759 0 109 0
2021-09-01 20:49:07 GMT 39.865440 -75.257736 0 109 0
2021-09-01 20:49:06 GMT 39.865440 -75.257751 0 109 0
2021-09-01 20:49:04 GMT 39.865440 -75.257751 0 109 0
2021-09-01 20:49:01 GMT 39.865440 -75.257736 0 109 0
2021-09-01 20:49:00 GMT 39.865452 -75.257751 0 109 0
2021-09-01 20:48:59 GMT 39.865440 -75.257751 0 109 0
2021-09-01 20:48:57 GMT 39.865440 -75.257751 0 109 0
2021-09-01 20:48:56 GMT 39.865429 -75.257736 0 109 0
2021-09-01 20:48:55 GMT 39.865429 -75.257751 0 108 0
2021-09-01 20:48:54 GMT 39.865421 -75.257759 0 105 1
2021-09-01 20:48:52 GMT 39.865440 -75.257729 0 105 0
2021-09-01 20:48:51 GMT 39.865452 -75.257729 0 105 0
2021-09-01 20:48:49 GMT 39.865429 -75.257736 0 105 0
2021-09-01 20:48:47 GMT 39.865440 -75.257736 0 106 0
2021-09-01 20:48:45 GMT 39.865429 -75.257729 0 106 0
2021-09-01 20:48:41 GMT 39.865440 -75.257751 0 107 0
2021-09-01 20:48:38 GMT 39.865440 -75.257751 0 107 0
2021-09-01 20:48:36 GMT 39.865452 -75.257751 0 107 0
2021-09-01 20:48:31 GMT 39.865440 -75.257751 0 110 0
2021-09-01 20:48:28 GMT 39.865440 -75.257729 0 110 0
2021-09-01 20:48:27 GMT 39.865440 -75.257721 0 110 0
2021-09-01 20:48:26 GMT 39.865429 -75.257729 0 110 0
2021-09-01 20:48:22 GMT 39.865429 -75.257797 0 105 2
2021-09-01 20:48:21 GMT 39.865479 -75.257751 0 104 0
2021-09-01 20:48:19 GMT 39.865479 -75.257759 0 104 1
2021-09-01 20:48:18 GMT 39.865440 -75.257767 0 100 1
2021-09-01 20:48:16 GMT 39.865452 -75.257759 0 98 2
2021-09-01 20:48:15 GMT 39.865471 -75.257751 0 96 0
2021-09-01 20:48:13 GMT 39.865479 -75.257729 0 96 0
2021-09-01 20:48:12 GMT 39.865479 -75.257721 0 96 0
2021-09-01 20:48:11 GMT 39.865479 -75.257729 0 96 0
2021-09-01 20:48:10 GMT 39.865501 -75.257698 0 96 2
2021-09-01 20:48:06 GMT 39.865459 -75.257759 0 96 0
2021-09-01 20:48:04 GMT 39.865452 -75.257759 0 96 0
2021-09-01 20:47:59 GMT 39.865452 -75.257751 0 96 0
2021-09-01 20:47:58 GMT 39.865440 -75.257751 0 96 0
2021-09-01 20:47:57 GMT 39.865421 -75.257751 0 94 1
2021-09-01 20:47:55 GMT 39.865440 -75.257736 0 93 0
2021-09-01 20:47:54 GMT 39.865452 -75.257736 0 91 0
2021-09-01 20:47:52 GMT 39.865452 -75.257751 0 91 0
2021-09-01 20:47:50 GMT 39.865440 -75.257751 0 91 0
2021-09-01 20:47:49 GMT 39.865440 -75.257736 0 90 0
2021-09-01 20:47:47 GMT 39.865452 -75.257736 0 90 0
2021-09-01 20:47:45 GMT 39.865459 -75.257759 0 94 2
2021-09-01 20:47:44 GMT 39.865429 -75.257736 0 96 0
2021-09-01 20:47:43 GMT 39.865429 -75.257759 0 96 1
2021-09-01 20:47:42 GMT 39.865440 -75.257751 0 84 2
2021-09-01 20:47:40 GMT 39.865429 -75.257729 0 77 1
2021-09-01 20:47:39 GMT 39.865440 -75.257721 0 72 1
2021-09-01 20:47:37 GMT 39.865452 -75.257751 0 74 3
2021-09-01 20:47:36 GMT 39.865452 -75.257729 0 72 6
2021-09-01 20:47:34 GMT 39.865440 -75.257790 0 71 9
2021-09-01 20:47:33 GMT 39.865429 -75.257820 0 72 10
2021-09-01 20:47:32 GMT 39.865410 -75.257881 0 76 11
2021-09-01 20:47:30 GMT 39.865379 -75.257980 0 82 14
2021-09-01 20:47:29 GMT 39.865360 -75.258041 0 82 16
2021-09-01 20:47:28 GMT 39.865372 -75.258118 0 78 16
2021-09-01 20:47:26 GMT 39.865349 -75.258324 0 72 16
2021-09-01 20:47:25 GMT 39.865341 -75.258408 0 71 16
2021-09-01 20:47:24 GMT 39.865311 -75.258492 0 74 17
2021-09-01 20:47:22 GMT 39.865261 -75.258667 0 76 17
2021-09-01 20:47:21 GMT 39.865269 -75.258781 0 70 16
2021-09-01 20:47:20 GMT 39.865238 -75.258873 0 69 17
2021-09-01 20:47:18 GMT 39.865150 -75.259064 0 82 15
2021-09-01 20:47:17 GMT 39.865162 -75.259140 0 76 17
2021-09-01 20:47:15 GMT 39.865131 -75.259338 0 74 18
2021-09-01 20:47:14 GMT 39.865101 -75.259438 0 74 17
2021-09-01 20:47:13 GMT 39.865101 -75.259537 0 70 18
2021-09-01 20:47:12 GMT 39.865021 -75.259727 0 80 20
2021-09-01 20:47:10 GMT 39.865009 -75.259842 0 78 20
2021-09-01 20:47:08 GMT 39.864990 -75.260063 0 74 20
2021-09-01 20:47:07 GMT 39.864960 -75.260193 0 74 19
2021-09-01 20:47:05 GMT 39.864922 -75.260406 0 70 20
2021-09-01 20:47:04 GMT 39.864861 -75.260513 0 77 21
2021-09-01 20:47:02 GMT 39.864811 -75.260750 0 80 21
2021-09-01 20:47:01 GMT 39.864769 -75.260880 0 85 20
2021-09-01 20:46:59 GMT 39.864780 -75.261124 0 75 21
2021-09-01 20:46:58 GMT 39.864750 -75.261253 0 74 20
2021-09-01 20:46:57 GMT 39.864700 -75.261482 0 76 19
2021-09-01 20:46:55 GMT 39.864670 -75.261581 0 77 20
2021-09-01 20:46:54 GMT 39.864651 -75.261703 0 78 20
2021-09-01 20:46:53 GMT 39.864609 -75.261948 0 74 19
2021-09-01 20:46:51 GMT 39.864590 -75.262047 0 77 20
2021-09-01 20:46:50 GMT 39.864571 -75.262161 0 75 20
2021-09-01 20:46:49 GMT 39.864552 -75.262283 0 75 20
2021-09-01 20:46:48 GMT 39.864479 -75.262489 0 77 20
2021-09-01 20:46:46 GMT 39.864449 -75.262611 0 79 19
2021-09-01 20:46:44 GMT 39.864429 -75.262848 0 77 18
2021-09-01 20:46:43 GMT 39.864422 -75.262970 0 74 17
2021-09-01 20:46:42 GMT 39.864422 -75.263069 0 68 18
2021-09-01 20:46:40 GMT 39.864349 -75.263268 0 74 17
2021-09-01 20:46:39 GMT 39.864342 -75.263351 0 73 19
2021-09-01 20:46:38 GMT 39.864300 -75.263474 0 75 17
2021-09-01 20:46:36 GMT 39.864262 -75.263672 0 80 16
2021-09-01 20:46:35 GMT 39.864250 -75.263771 0 74 16
2021-09-01 20:46:34 GMT 39.864239 -75.263878 0 70 15
2021-09-01 20:46:32 GMT 39.864182 -75.264053 0 74 14
2021-09-01 20:46:31 GMT 39.864140 -75.264130 0 81 14
2021-09-01 20:46:30 GMT 39.864128 -75.264297 0 77 14
2021-09-01 20:46:28 GMT 39.864109 -75.264374 0 78 15
2021-09-01 20:46:27 GMT 39.864109 -75.264473 0 75 14
2021-09-01 20:46:25 GMT 39.864071 -75.264618 0 75 14
2021-09-01 20:46:24 GMT 39.864052 -75.264709 0 76 14
2021-09-01 20:46:23 GMT 39.864040 -75.264793 0 79 13
2021-09-01 20:46:21 GMT 39.864029 -75.264954 0 69 13
2021-09-01 20:46:20 GMT 39.864021 -75.265022 0 62 13
2021-09-01 20:46:19 GMT 39.863979 -75.265106 0 69 11
2021-09-01 20:46:17 GMT 39.863960 -75.265244 0 72 11
2021-09-01 20:46:16 GMT 39.863949 -75.265282 0 80 12
2021-09-01 20:46:14 GMT 39.863880 -75.265411 0 102 12
2021-09-01 20:46:13 GMT 39.863918 -75.265488 0 97 11
2021-09-01 20:46:11 GMT 39.863911 -75.265610 0 120 12
2021-09-01 20:46:10 GMT 39.863918 -75.265648 0 125 13
2021-09-01 20:46:09 GMT 39.863960 -75.265747 0 135 11
2021-09-01 20:46:07 GMT 39.864010 -75.265869 0 155 12
2021-09-01 20:46:06 GMT 39.864059 -75.265907 0 161 12
2021-09-01 20:46:05 GMT 39.864101 -75.265961 0 166 13
2021-09-01 20:46:03 GMT 39.864208 -75.265991 0 163 14
2021-09-01 20:46:01 GMT 39.864342 -75.266029 0 162 16
2021-09-01 20:46:00 GMT 39.864410 -75.266060 0 161 15
2021-09-01 20:45:59 GMT 39.864449 -75.266090 0 168 18
2021-09-01 20:45:58 GMT 39.864529 -75.266098 0 163 19
2021-09-01 20:45:56 GMT 39.864700 -75.266159 0 164 18
2021-09-01 20:45:55 GMT 39.864780 -75.266197 0 166 18
2021-09-01 20:45:54 GMT 39.864941 -75.266243 0 165 18
2021-09-01 20:45:52 GMT 39.865028 -75.266258 0 163 17
2021-09-01 20:45:51 GMT 39.865200 -75.266327 0 169 17
2021-09-01 20:45:49 GMT 39.865250 -75.266357 0 171 18
2021-09-01 20:45:48 GMT 39.865341 -75.266350 0 165 18
2021-09-01 20:45:46 GMT 39.865520 -75.266418 0 166 18
2021-09-01 20:45:45 GMT 39.865608 -75.266434 0 163 18
2021-09-01 20:45:44 GMT 39.865681 -75.266457 0 163 18
2021-09-01 20:45:43 GMT 39.865841 -75.266533 0 166 19
2021-09-01 20:45:41 GMT 39.865929 -75.266563 0 166 19
2021-09-01 20:45:40 GMT 39.866032 -75.266586 0 168 17
2021-09-01 20:45:39 GMT 39.866100 -75.266609 0 168 18
2021-09-01 20:45:38 GMT 39.866280 -75.266670 0 166 17
2021-09-01 20:45:36 GMT 39.866341 -75.266701 0 169 19
2021-09-01 20:45:35 GMT 39.866451 -75.266731 0 167 17
2021-09-01 20:45:33 GMT 39.866611 -75.266739 0 158 17
2021-09-01 20:45:32 GMT 39.866699 -75.266800 0 163 15
2021-09-01 20:45:30 GMT 39.866829 -75.266869 0 166 15
2021-09-01 20:45:29 GMT 39.866871 -75.266891 0 170 20
2021-09-01 20:45:28 GMT 39.866970 -75.266907 0 167 18
2021-09-01 20:45:26 GMT 39.867149 -75.266953 0 165 16
2021-09-01 20:45:25 GMT 39.867249 -75.266930 0 146 14
2021-09-01 20:45:23 GMT 39.867371 -75.267036 0 160 12
2021-09-01 20:45:22 GMT 39.867420 -75.267090 0 169 11
2021-09-01 20:45:21 GMT 39.867451 -75.267097 0 171 13
2021-09-01 20:45:20 GMT 39.867500 -75.267113 0 171 15
2021-09-01 20:45:18 GMT 39.867630 -75.267113 0 164 14
2021-09-01 20:45:17 GMT 39.867699 -75.267151 0 170 13
2021-09-01 20:45:16 GMT 39.867748 -75.267174 0 169 14
2021-09-01 20:45:14 GMT 39.867882 -75.267189 0 166 13
2021-09-01 20:45:13 GMT 39.867962 -75.267212 0 160 11
2021-09-01 20:45:11 GMT 39.868069 -75.267220 0 153 12
2021-09-01 20:45:10 GMT 39.868111 -75.267273 0 161 11
2021-09-01 20:45:08 GMT 39.868191 -75.267303 0 172 12
2021-09-01 20:45:07 GMT 39.868259 -75.267342 0 182 11
2021-09-01 20:45:06 GMT 39.868301 -75.267342 0 187 11
2021-09-01 20:45:04 GMT 39.868389 -75.267326 0 202 12
2021-09-01 20:45:03 GMT 39.868450 -75.267319 0 213 11
2021-09-01 20:45:02 GMT 39.868511 -75.267311 0 229 10
2021-09-01 20:45:00 GMT 39.868610 -75.267273 0 250 12
2021-09-01 20:44:59 GMT 39.868629 -75.267212 0 250 11
2021-09-01 20:44:58 GMT 39.868671 -75.267052 0 256 9
2021-09-01 20:44:56 GMT 39.868698 -75.267021 0 262 10
2021-09-01 20:44:55 GMT 39.868710 -75.266998 0 262 14
2021-09-01 20:44:54 GMT 39.868721 -75.266930 0 261 14
2021-09-01 20:44:52 GMT 39.868729 -75.266762 0 255 15
2021-09-01 20:44:51 GMT 39.868740 -75.266670 0 251 15
2021-09-01 20:44:50 GMT 39.868790 -75.266487 0 256 14
2021-09-01 20:44:48 GMT 39.868790 -75.266411 0 252 15
2021-09-01 20:44:47 GMT 39.868809 -75.266289 0 253 12
2021-09-01 20:44:46 GMT 39.868832 -75.266151 0 248 13
2021-09-01 20:44:44 GMT 39.868870 -75.266098 0 253 14
2021-09-01 20:44:43 GMT 39.868900 -75.266029 0 257 14
2021-09-01 20:44:41 GMT 39.868912 -75.265869 0 254 15
2021-09-01 20:44:40 GMT 39.868938 -75.265778 0 258 14
2021-09-01 20:44:39 GMT 39.868961 -75.265617 0 255 15
2021-09-01 20:44:37 GMT 39.868999 -75.265518 0 260 14
2021-09-01 20:44:36 GMT 39.868992 -75.265343 0 250 12
2021-09-01 20:44:34 GMT 39.868999 -75.265282 0 250 14
2021-09-01 20:44:33 GMT 39.869080 -75.265221 0 259 13
2021-09-01 20:44:32 GMT 39.869061 -75.265106 0 253 12
2021-09-01 20:44:30 GMT 39.869068 -75.264977 0 251 13
2021-09-01 20:44:29 GMT 39.869068 -75.264877 0 245 11
2021-09-01 20:44:28 GMT 39.869122 -75.264771 0 255 14
2021-09-01 20:44:26 GMT 39.869160 -75.264702 0 261 13
2021-09-01 20:44:25 GMT 39.869202 -75.264641 0 267 14
2021-09-01 20:44:23 GMT 39.869221 -75.264473 0 263 12
2021-09-01 20:44:22 GMT 39.869202 -75.264374 0 258 11
2021-09-01 20:44:21 GMT 39.869179 -75.264297 0 253 12
2021-09-01 20:44:20 GMT 39.869228 -75.264137 0 251 9
2021-09-01 20:44:18 GMT 39.869221 -75.264069 0 249 8
2021-09-01 20:44:17 GMT 39.869228 -75.264030 0 251 8
2021-09-01 20:44:15 GMT 39.869282 -75.263939 0 257 8
2021-09-01 20:44:14 GMT 39.869289 -75.263901 0 255 8
2021-09-01 20:44:13 GMT 39.869289 -75.263840 0 250 7
2021-09-01 20:44:11 GMT 39.869308 -75.263748 0 242 7
2021-09-01 20:44:10 GMT 39.869289 -75.263657 0 236 4
2021-09-01 20:44:09 GMT 39.869331 -75.263618 0 246 2
2021-09-01 20:44:07 GMT 39.869339 -75.263657 0 243 5
2021-09-01 20:44:05 GMT 39.869362 -75.263573 0 224 3
2021-09-01 20:44:04 GMT 39.869362 -75.263550 0 223 3
2021-09-01 20:44:03 GMT 39.869370 -75.263550 0 198 5
2021-09-01 20:44:01 GMT 39.869370 -75.263481 0 179 2
2021-09-01 20:43:59 GMT 39.869339 -75.263428 0 179 1
2021-09-01 20:43:58 GMT 39.869350 -75.263428 0 177 2
2021-09-01 20:43:56 GMT 39.869389 -75.263451 0 177 1
2021-09-01 20:43:55 GMT 39.869350 -75.263420 0 177 0
2021-09-01 20:43:54 GMT 39.869370 -75.263397 0 177 0
2021-09-01 20:43:51 GMT 39.869362 -75.263382 0 178 0
2021-09-01 20:43:50 GMT 39.869362 -75.263390 0 176 0
2021-09-01 20:43:49 GMT 39.869381 -75.263428 0 174 1
2021-09-01 20:43:47 GMT 39.869389 -75.263443 0 173 1
2021-09-01 20:43:46 GMT 39.869381 -75.263443 0 173 1
2021-09-01 20:43:45 GMT 39.869389 -75.263420 0 175 1
2021-09-01 20:43:43 GMT 39.869381 -75.263428 0 175 1
2021-09-01 20:43:41 GMT 39.869381 -75.263458 0 175 1
2021-09-01 20:43:40 GMT 39.869370 -75.263420 0 175 0
2021-09-01 20:43:38 GMT 39.869370 -75.263443 0 178 0
2021-09-01 20:43:36 GMT 39.869370 -75.263443 0 179 0
2021-09-01 20:43:34 GMT 39.869389 -75.263390 0 183 2
2021-09-01 20:43:33 GMT 39.869381 -75.263397 0 183 2
2021-09-01 20:43:32 GMT 39.869381 -75.263420 0 183 2
2021-09-01 20:43:31 GMT 39.869381 -75.263451 0 180 1
2021-09-01 20:43:29 GMT 39.869381 -75.263451 0 178 1
2021-09-01 20:43:28 GMT 39.869350 -75.263458 0 176 1
2021-09-01 20:43:26 GMT 39.869362 -75.263451 0 175 1
2021-09-01 20:43:23 GMT 39.869362 -75.263420 0 175 0
2021-09-01 20:43:22 GMT 39.869370 -75.263428 0 172 1
2021-09-01 20:43:21 GMT 39.869370 -75.263420 0 171 1
2021-09-01 20:43:20 GMT 39.869370 -75.263367 0 169 0
2021-09-01 20:43:18 GMT 39.869362 -75.263367 0 169 0
2021-09-01 20:43:17 GMT 39.869370 -75.263367 0 169 0
2021-09-01 20:43:14 GMT 39.869370 -75.263397 0 169 0
2021-09-01 20:43:13 GMT 39.869370 -75.263412 0 169 0
2021-09-01 20:43:11 GMT 39.869370 -75.263443 0 169 0
2021-09-01 20:43:10 GMT 39.869362 -75.263359 0 169 1
2021-09-01 20:43:08 GMT 39.869362 -75.263359 0 170 2
2021-09-01 20:43:07 GMT 39.869362 -75.263367 0 170 2
2021-09-01 20:43:06 GMT 39.869370 -75.263344 0 171 1
2021-09-01 20:43:04 GMT 39.869350 -75.263329 0 171 0
2021-09-01 20:43:03 GMT 39.869362 -75.263329 0 171 0
2021-09-01 20:43:02 GMT 39.869350 -75.263344 0 171 0
2021-09-01 20:43:00 GMT 39.869381 -75.263344 0 171 0
2021-09-01 20:42:59 GMT 39.869362 -75.263367 0 171 0
2021-09-01 20:42:56 GMT 39.869370 -75.263390 0 171 0
2021-09-01 20:42:55 GMT 39.869370 -75.263344 0 171 0
2021-09-01 20:42:50 GMT 39.869362 -75.263329 0 171 0
2021-09-01 20:42:47 GMT 39.869362 -75.263344 0 171 0
2021-09-01 20:42:44 GMT 39.869362 -75.263344 0 171 0
2021-09-01 20:42:38 GMT 39.869362 -75.263344 0 171 0
2021-09-01 20:42:37 GMT 39.869362 -75.263329 0 171 0
2021-09-01 20:42:33 GMT 39.869362 -75.263344 0 171 0
2021-09-01 20:42:31 GMT 39.869350 -75.263344 0 171 0
2021-09-01 20:42:30 GMT 39.869362 -75.263344 0 171 0
2021-09-01 20:42:28 GMT 39.869362 -75.263344 0 171 0
2021-09-01 20:42:27 GMT 39.869350 -75.263344 0 171 0
2021-09-01 20:42:24 GMT 39.869362 -75.263344 0 171 0
2021-09-01 20:42:23 GMT 39.869350 -75.263344 0 171 0
2021-09-01 20:42:22 GMT 39.869362 -75.263344 0 171 0
2021-09-01 20:42:19 GMT 39.869362 -75.263329 0 171 1
2021-09-01 20:42:17 GMT 39.869350 -75.263344 0 171 0
2021-09-01 20:42:16 GMT 39.869362 -75.263359 0 169 1
2021-09-01 20:42:15 GMT 39.869370 -75.263390 0 168 1
2021-09-01 20:42:14 GMT 39.869370 -75.263420 0 167 1
2021-09-01 20:42:13 GMT 39.869381 -75.263458 0 165 1
2021-09-01 20:42:11 GMT 39.869381 -75.263458 0 164 1
2021-09-01 20:42:10 GMT 39.869381 -75.263451 0 162 1
2021-09-01 20:42:08 GMT 39.869370 -75.263420 0 160 0
2021-09-01 20:42:07 GMT 39.869370 -75.263412 0 160 0
2021-09-01 20:42:05 GMT 39.869370 -75.263420 0 160 1
2021-09-01 20:42:04 GMT 39.869362 -75.263390 0 160 1
2021-09-01 20:42:03 GMT 39.869362 -75.263397 0 161 2
2021-09-01 20:42:00 GMT 39.869381 -75.263443 0 161 0
2021-09-01 20:41:59 GMT 39.869370 -75.263443 0 161 0
2021-09-01 20:41:55 GMT 39.869370 -75.263443 0 161 0
2021-09-01 20:41:53 GMT 39.869370 -75.263428 0 161 0
2021-09-01 20:41:50 GMT 39.869381 -75.263420 0 161 0
2021-09-01 20:41:48 GMT 39.869370 -75.263412 0 161 0
2021-09-01 20:41:46 GMT 39.869370 -75.263420 0 161 0
2021-09-01 20:41:45 GMT 39.869370 -75.263412 0 161 0
2021-09-01 20:41:43 GMT 39.869381 -75.263420 0 161 0
2021-09-01 20:41:42 GMT 39.869381 -75.263428 0 161 0
2021-09-01 20:41:40 GMT 39.869389 -75.263443 0 161 0
2021-09-01 20:41:39 GMT 39.869370 -75.263420 0 161 0
2021-09-01 20:41:38 GMT 39.869381 -75.263443 0 161 0
2021-09-01 20:41:36 GMT 39.869381 -75.263443 0 161 1
2021-09-01 20:41:35 GMT 39.869370 -75.263458 0 161 1
2021-09-01 20:41:34 GMT 39.869381 -75.263428 0 161 0
2021-09-01 20:41:32 GMT 39.869381 -75.263420 0 161 0
2021-09-01 20:41:31 GMT 39.869381 -75.263412 0 161 1
2021-09-01 20:41:30 GMT 39.869370 -75.263390 0 164 2
2021-09-01 20:41:28 GMT 39.869370 -75.263397 0 164 2
2021-09-01 20:41:19 GMT 39.869389 -75.263451 0 164 0
2021-09-01 20:41:13 GMT 39.869389 -75.263451 0 164 0
2021-09-01 20:41:11 GMT 39.869389 -75.263458 0 164 0
2021-09-01 20:41:10 GMT 39.869389 -75.263451 0 164 0
2021-09-01 20:41:09 GMT 39.869389 -75.263443 0 164 0
2021-09-01 20:41:08 GMT 39.869381 -75.263451 0 165 0
2021-09-01 20:41:06 GMT 39.869381 -75.263458 0 165 0
2021-09-01 20:41:04 GMT 39.869362 -75.263474 0 165 1
2021-09-01 20:41:03 GMT 39.869362 -75.263428 0 164 2
2021-09-01 20:41:02 GMT 39.869370 -75.263428 0 165 2
2021-09-01 20:41:01 GMT 39.869381 -75.263443 0 167 2
2021-09-01 20:41:00 GMT 39.869400 -75.263496 0 168 2
2021-09-01 20:40:58 GMT 39.869389 -75.263481 0 168 0
2021-09-01 20:40:57 GMT 39.869381 -75.263481 0 165 1
2021-09-01 20:40:55 GMT 39.869362 -75.263428 0 168 4
2021-09-01 20:40:54 GMT 39.869370 -75.263397 0 211 6
2021-09-01 20:40:52 GMT 39.869411 -75.263550 0 263 4
2021-09-01 20:40:51 GMT 39.869431 -75.263603 0 268 10
2021-09-01 20:40:50 GMT 39.869431 -75.263496 0 262 14
2021-09-01 20:40:47 GMT 39.869411 -75.263298 0 255 10
2021-09-01 20:40:46 GMT 39.869492 -75.263222 0 266 12
2021-09-01 20:40:44 GMT 39.869438 -75.263161 0 254 15
2021-09-01 20:40:43 GMT 39.869469 -75.263031 0 260 11
2021-09-01 20:40:42 GMT 39.869492 -75.262970 0 263 11
2021-09-01 20:40:41 GMT 39.869511 -75.262863 0 262 13
2021-09-01 20:40:39 GMT 39.869492 -75.262810 0 255 16
2021-09-01 20:40:38 GMT 39.869518 -75.262680 0 259 13
2021-09-01 20:40:37 GMT 39.869549 -75.262543 0 262 14
2021-09-01 20:40:35 GMT 39.869549 -75.262489 0 260 18
2021-09-01 20:40:33 GMT 39.869560 -75.262207 0 251 15
2021-09-01 20:40:32 GMT 39.869579 -75.262131 0 251 16
2021-09-01 20:40:31 GMT 39.869621 -75.262016 0 253 14
2021-09-01 20:40:29 GMT 39.869671 -75.261864 0 259 14
2021-09-01 20:40:28 GMT 39.869690 -75.261787 0 263 15
2021-09-01 20:40:27 GMT 39.869678 -75.261681 0 256 15
2021-09-01 20:40:26 GMT 39.869701 -75.261497 0 253 15
2021-09-01 20:40:24 GMT 39.869709 -75.261421 0 252 15
2021-09-01 20:40:23 GMT 39.869740 -75.261307 0 253 14
2021-09-01 20:40:22 GMT 39.869759 -75.261269 0 254 18
2021-09-01 20:40:20 GMT 39.869801 -75.261063 0 255 18
2021-09-01 20:40:19 GMT 39.869839 -75.260941 0 259 17
2021-09-01 20:40:17 GMT 39.869869 -75.260750 0 254 18
2021-09-01 20:40:16 GMT 39.869881 -75.260643 0 253 17
2021-09-01 20:40:15 GMT 39.869930 -75.260567 0 260 19
2021-09-01 20:40:13 GMT 39.869949 -75.260338 0 256 18
2021-09-01 20:40:12 GMT 39.869961 -75.260223 0 252 18
2021-09-01 20:40:11 GMT 39.869991 -75.260101 0 252 16
2021-09-01 20:40:09 GMT 39.870041 -75.259941 0 256 19
2021-09-01 20:40:08 GMT 39.870071 -75.259811 0 258 17
2021-09-01 20:40:07 GMT 39.870090 -75.259720 0 257 18
2021-09-01 20:40:05 GMT 39.870129 -75.259499 0 261 16
2021-09-01 20:40:04 GMT 39.870159 -75.259308 0 262 17
2021-09-01 20:40:02 GMT 39.870178 -75.259209 0 263 17
2021-09-01 20:40:01 GMT 39.870190 -75.259109 0 264 18
2021-09-01 20:40:00 GMT 39.870178 -75.259010 0 258 19
2021-09-01 20:39:58 GMT 39.870178 -75.258781 0 251 18
2021-09-01 20:39:57 GMT 39.870209 -75.258659 0 251 17
2021-09-01 20:39:56 GMT 39.870258 -75.258583 0 256 17
2021-09-01 20:39:54 GMT 39.870289 -75.258377 0 256 16
2021-09-01 20:39:53 GMT 39.870319 -75.258293 0 259 17
2021-09-01 20:39:51 GMT 39.870369 -75.258087 0 266 16
2021-09-01 20:39:50 GMT 39.870350 -75.257988 0 260 17
2021-09-01 20:39:49 GMT 39.870392 -75.257912 0 270 18
2021-09-01 20:39:47 GMT 39.870392 -75.257683 0 267 15
2021-09-01 20:39:46 GMT 39.870392 -75.257607 0 265 17
2021-09-01 20:39:44 GMT 39.870392 -75.257423 0 261 17
2021-09-01 20:39:43 GMT 39.870399 -75.257332 0 261 18
2021-09-01 20:39:42 GMT 39.870392 -75.257210 0 255 18
2021-09-01 20:39:40 GMT 39.870419 -75.257004 0 252 18
2021-09-01 20:39:39 GMT 39.870441 -75.256889 0 251 18
2021-09-01 20:39:37 GMT 39.870510 -75.256699 0 255 18
2021-09-01 20:39:36 GMT 39.870491 -75.256622 0 249 22
2021-09-01 20:39:35 GMT 39.870590 -75.256363 0 258 19
2021-09-01 20:39:33 GMT 39.870621 -75.256248 0 260 18
2021-09-01 20:39:32 GMT 39.870628 -75.256149 0 259 19
2021-09-01 20:39:31 GMT 39.870659 -75.255913 0 260 18
2021-09-01 20:39:29 GMT 39.870659 -75.255798 0 255 17
2021-09-01 20:39:28 GMT 39.870682 -75.255692 0 255 17
2021-09-01 20:39:26 GMT 39.870720 -75.255508 0 261 17
2021-09-01 20:39:25 GMT 39.870770 -75.255417 0 272 17
2021-09-01 20:39:23 GMT 39.870762 -75.255211 0 272 16
2021-09-01 20:39:22 GMT 39.870750 -75.255119 0 269 16
2021-09-01 20:39:21 GMT 39.870731 -75.254929 0 261 17
2021-09-01 20:39:19 GMT 39.870731 -75.254807 0 257 14
2021-09-01 20:39:18 GMT 39.870739 -75.254738 0 257 16
2021-09-01 20:39:17 GMT 39.870762 -75.254646 0 259 16
2021-09-01 20:39:15 GMT 39.870800 -75.254433 0 263 13
2021-09-01 20:39:14 GMT 39.870811 -75.254356 0 260 14
2021-09-01 20:39:12 GMT 39.870831 -75.254189 0 262 13
2021-09-01 20:39:11 GMT 39.870831 -75.254097 0 261 12
2021-09-01 20:39:10 GMT 39.870850 -75.254044 0 260 14
2021-09-01 20:39:08 GMT 39.870861 -75.253868 0 251 14
2021-09-01 20:39:07 GMT 39.870861 -75.253777 0 246 12
2021-09-01 20:39:05 GMT 39.870911 -75.253639 0 251 13
2021-09-01 20:39:04 GMT 39.870930 -75.253563 0 249 12
2021-09-01 20:39:03 GMT 39.870930 -75.253479 0 243 12
2021-09-01 20:39:01 GMT 39.870991 -75.253342 0 244 10
2021-09-01 20:39:00 GMT 39.871021 -75.253288 0 253 10
2021-09-01 20:38:59 GMT 39.871071 -75.253227 0 263 10
2021-09-01 20:38:57 GMT 39.871101 -75.253098 0 276 7
2021-09-01 20:38:56 GMT 39.871101 -75.253059 0 266 7
2021-09-01 20:38:55 GMT 39.871071 -75.253021 0 255 8
2021-09-01 20:38:53 GMT 39.871040 -75.252907 0 238 8
2021-09-01 20:38:52 GMT 39.871071 -75.252869 0 245 8
2021-09-01 20:38:51 GMT 39.871101 -75.252823 0 243 7
2021-09-01 20:38:49 GMT 39.871132 -75.252747 0 249 7
2021-09-01 20:38:48 GMT 39.871170 -75.252724 0 260 6
2021-09-01 20:38:47 GMT 39.871170 -75.252693 0 260 8
2021-09-01 20:38:45 GMT 39.871201 -75.252609 0 267 7
2021-09-01 20:38:44 GMT 39.871201 -75.252563 0 268 6
2021-09-01 20:38:43 GMT 39.871189 -75.252480 0 261 6
2021-09-01 20:38:41 GMT 39.871189 -75.252441 0 259 6
2021-09-01 20:38:39 GMT 39.871170 -75.252373 0 244 7
2021-09-01 20:38:38 GMT 39.871170 -75.252342 0 246 8
2021-09-01 20:38:37 GMT 39.871231 -75.252289 0 261 7
2021-09-01 20:38:36 GMT 39.871250 -75.252258 0 264 8
2021-09-01 20:38:34 GMT 39.871239 -75.252190 0 261 9
2021-09-01 20:38:33 GMT 39.871262 -75.252136 0 263 9
2021-09-01 20:38:32 GMT 39.871262 -75.252022 0 257 9
2021-09-01 20:38:30 GMT 39.871288 -75.251991 0 255 9
2021-09-01 20:38:29 GMT 39.871250 -75.251923 0 248 9
2021-09-01 20:38:27 GMT 39.871300 -75.251801 0 248 8
2021-09-01 20:38:26 GMT 39.871300 -75.251732 0 246 6
2021-09-01 20:38:24 GMT 39.871319 -75.251678 0 249 8
2021-09-01 20:38:23 GMT 39.871349 -75.251663 0 259 10
2021-09-01 20:38:22 GMT 39.871368 -75.251549 0 258 10
2021-09-01 20:38:20 GMT 39.871380 -75.251511 0 257 12
2021-09-01 20:38:19 GMT 39.871380 -75.251373 0 251 13
2021-09-01 20:38:17 GMT 39.871391 -75.251297 0 250 13
2021-09-01 20:38:16 GMT 39.871422 -75.251244 0 253 14
2021-09-01 20:38:14 GMT 39.871460 -75.251083 0 256 13
2021-09-01 20:38:13 GMT 39.871479 -75.251007 0 255 14
2021-09-01 20:38:12 GMT 39.871471 -75.250938 0 250 16
2021-09-01 20:38:10 GMT 39.871540 -75.250763 0 257 15
2021-09-01 20:38:09 GMT 39.871578 -75.250664 0 264 13
2021-09-01 20:38:08 GMT 39.871578 -75.250587 0 263 15
2021-09-01 20:38:07 GMT 39.871571 -75.250481 0 253 13
2021-09-01 20:38:05 GMT 39.871601 -75.250320 0 252 14
2021-09-01 20:38:04 GMT 39.871620 -75.250252 0 248 14
2021-09-01 20:38:03 GMT 39.871689 -75.250092 0 262 14
2021-09-01 20:38:01 GMT 39.871689 -75.249992 0 256 13
2021-09-01 20:38:00 GMT 39.871712 -75.249870 0 256 17
2021-09-01 20:37:58 GMT 39.871712 -75.249748 0 250 15
2021-09-01 20:37:57 GMT 39.871750 -75.249672 0 254 16
2021-09-01 20:37:55 GMT 39.871792 -75.249481 0 256 15
2021-09-01 20:37:54 GMT 39.871799 -75.249382 0 253 14
2021-09-01 20:37:52 GMT 39.871861 -75.249207 0 258 14
2021-09-01 20:37:51 GMT 39.871868 -75.249138 0 259 15
2021-09-01 20:37:49 GMT 39.871880 -75.248962 0 251 15
2021-09-01 20:37:48 GMT 39.871891 -75.248878 0 251 16
2021-09-01 20:37:47 GMT 39.871929 -75.248802 0 256 16
2021-09-01 20:37:46 GMT 39.871979 -75.248596 0 258 16
2021-09-01 20:37:44 GMT 39.871990 -75.248512 0 256 16
2021-09-01 20:37:43 GMT 39.872002 -75.248421 0 255 17
2021-09-01 20:37:41 GMT 39.872051 -75.248238 0 260 17
2021-09-01 20:37:40 GMT 39.872059 -75.248154 0 259 18
2021-09-01 20:37:39 GMT 39.872070 -75.248032 0 256 16
2021-09-01 20:37:37 GMT 39.872108 -75.247849 0 261 17
2021-09-01 20:37:36 GMT 39.872120 -75.247742 0 258 17
2021-09-01 20:37:34 GMT 39.872139 -75.247543 0 252 17
2021-09-01 20:37:33 GMT 39.872150 -75.247429 0 248 15
2021-09-01 20:37:32 GMT 39.872181 -75.247360 0 250 16
2021-09-01 20:37:30 GMT 39.872238 -75.247223 0 255 18
2021-09-01 20:37:29 GMT 39.872292 -75.247108 0 264 17
2021-09-01 20:37:28 GMT 39.872292 -75.246880 0 257 15
2021-09-01 20:37:27 GMT 39.872318 -75.246788 0 261 14
2021-09-01 20:37:25 GMT 39.872318 -75.246696 0 257 14
2021-09-01 20:37:24 GMT 39.872318 -75.246613 0 250 15
2021-09-01 20:37:22 GMT 39.872372 -75.246429 0 249 13
2021-09-01 20:37:21 GMT 39.872410 -75.246353 0 257 11
2021-09-01 20:37:20 GMT 39.872452 -75.246231 0 266 14
2021-09-01 20:37:18 GMT 39.872429 -75.246147 0 255 15
2021-09-01 20:37:17 GMT 39.872452 -75.246071 0 256 14
2021-09-01 20:37:15 GMT 39.872478 -75.245880 0 249 11
2021-09-01 20:37:14 GMT 39.872478 -75.245781 0 248 8
2021-09-01 20:37:13 GMT 39.872520 -75.245773 0 254 10
2021-09-01 20:37:11 GMT 39.872540 -75.245651 0 251 12
2021-09-01 20:37:10 GMT 39.872570 -75.245590 0 256 11
2021-09-01 20:37:08 GMT 39.872601 -75.245468 0 260 11
2021-09-01 20:37:07 GMT 39.872608 -75.245338 0 254 8
2021-09-01 20:37:06 GMT 39.872608 -75.245270 0 255 7
2021-09-01 20:37:04 GMT 39.872620 -75.245239 0 259 8
2021-09-01 20:37:02 GMT 39.872639 -75.245171 0 257 9
2021-09-01 20:37:01 GMT 39.872662 -75.245102 0 254 7
2021-09-01 20:37:00 GMT 39.872639 -75.245018 0 249 5
2021-09-01 20:36:59 GMT 39.872681 -75.244949 0 255 4
2021-09-01 20:36:57 GMT 39.872681 -75.244926 0 260 5
2021-09-01 20:36:56 GMT 39.872700 -75.244904 0 264 4
2021-09-01 20:36:54 GMT 39.872688 -75.244858 0 254 6
2021-09-01 20:36:53 GMT 39.872688 -75.244812 0 253 5
2021-09-01 20:36:52 GMT 39.872700 -75.244781 0 254 5
2021-09-01 20:36:51 GMT 39.872719 -75.244728 0 257 3
2021-09-01 20:36:49 GMT 39.872700 -75.244720 0 257 5
2021-09-01 20:36:48 GMT 39.872711 -75.244682 0 261 4
2021-09-01 20:36:47 GMT 39.872742 -75.244659 0 262 3
2021-09-01 20:36:46 GMT 39.872742 -75.244652 0 262 3
2021-09-01 20:36:44 GMT 39.872742 -75.244614 0 262 2
2021-09-01 20:36:43 GMT 39.872749 -75.244629 0 264 4
2021-09-01 20:36:41 GMT 39.872749 -75.244598 0 260 6
2021-09-01 20:36:40 GMT 39.872730 -75.244568 0 255 7
2021-09-01 20:36:39 GMT 39.872749 -75.244522 0 254 5
2021-09-01 20:36:37 GMT 39.872749 -75.244492 0 254 9
2021-09-01 20:36:36 GMT 39.872761 -75.244461 0 254 11
2021-09-01 20:36:35 GMT 39.872780 -75.244377 0 252 9
2021-09-01 20:36:33 GMT 39.872799 -75.244301 0 257 12
2021-09-01 20:36:32 GMT 39.872829 -75.244232 0 258 12
2021-09-01 20:36:31 GMT 39.872829 -75.244171 0 257 13
2021-09-01 20:36:29 GMT 39.872860 -75.244034 0 257 15
2021-09-01 20:36:28 GMT 39.872879 -75.243950 0 258 16
2021-09-01 20:36:27 GMT 39.872879 -75.243858 0 255 16
2021-09-01 20:36:25 GMT 39.872921 -75.243629 0 253 13
2021-09-01 20:36:24 GMT 39.872971 -75.243584 0 263 13
2021-09-01 20:36:23 GMT 39.872990 -75.243507 0 264 14
2021-09-01 20:36:21 GMT 39.872990 -75.243340 0 258 16
2021-09-01 20:36:20 GMT 39.873009 -75.243233 0 258 15
2021-09-01 20:36:18 GMT 39.873051 -75.242981 0 250 17
2021-09-01 20:36:16 GMT 39.873051 -75.242897 0 244 18
2021-09-01 20:36:15 GMT 39.873081 -75.242798 0 238 17
2021-09-01 20:36:14 GMT 39.873100 -75.242691 0 229 15
2021-09-01 20:36:13 GMT 39.873211 -75.242500 0 203 10
2021-09-01 20:36:11 GMT 39.873241 -75.242416 0 193 10
2021-09-01 20:36:10 GMT 39.873291 -75.242416 0 194 9
2021-09-01 20:36:09 GMT 39.873348 -75.242393 0 192 12
2021-09-01 20:36:07 GMT 39.873409 -75.242378 0 190 12
2021-09-01 20:36:06 GMT 39.873440 -75.242348 0 184 13
2021-09-01 20:36:04 GMT 39.873569 -75.242287 0 178 11
2021-09-01 20:36:03 GMT 39.873650 -75.242287 0 179 9
2021-09-01 20:36:02 GMT 39.873692 -75.242302 0 181 9
2021-09-01 20:36:00 GMT 39.873699 -75.242310 0 183 17

Making use of Plane Finder data

You are free to use the raw flight data, aircraft information and images provided in this report for your own purposes provided the data is correctly attributed to Plane Finder. We ask that you please credit Plane Finder and link to planefinder.net in close proximity to the content.

Optionally one of the following logos (no smaller then 150x24px) can be used and must link to planefinder.net

Embedding the Plane Finder map

You are welcome to embed the Plane Finder playback map on your website to offer visitors a more interactive experience. We suggest using the following HTML code:

<iframe src="//planefinder.net/data/report/AA4908-N436YX-7700-squawk-2021-09-01/map" width="800" height="600" seamless="seamless"></iframe>

Where our data comes from

Plane Finder has a global network of data feeds and antenna radars that receive data broadcast directly from aircraft. The primary technologies used are ADS-B and MLAT. We also show feeds from the FAA and a FLARM glider feed.

Click here to find out more about the Plane Finder network.

How we collect our data